Darstellungsparameter: Aktuell verwendete Einstellungen:
Skalierung der Graphiken ... ?
xyx+y,   Skalierungsfaktor:      Skalierung: Modus: x, Faktor: 1
Darstellungszeitraum ... ?
Vom - - bis: - -   Zeitraum: 25.11.2020 - 01.12.2020
Min/Max/Avg-Anzeige ... ?
Zeige MMA aktuell
Zeige MMA Monat
Zeige MMA alles
Zeige --A aktuell
Zeige --A Monat
Zeige --A alles
Keine MMA-Anzeige
MMA:
Average (ber die Originaldaten)
MMA-Basis: 25.11.2020 - 01.12.2020
Quicknavigation für Darstellung... ?
Tage:      1T, 2T, 3T, 5T -1T -2T -3T -5T +1T +2T +3T +5T
Wochen: 1W, 2W, 3W -1W -2W -3W +1W +2W +3W
Monate: 1M, 3M, 6M -1M -3M -6M +1M +3M +6M
Jahre:    1J, 3J, 5J, 10J -1J -3J -5J -10J +1J +3J +5J +10J
Nutze für die Darstellung ... ?
Originaldaten oder Mittelwerte auf ...
Stundenbasis Tagesbasis Wochenbasis
Monatsbasis Jahresbasis      Datenbasis: Original-Daten
Darstellen als:
Statistik (Auto) Statistik J:M      Darstellung:
Zur Graphik,    zurück zur Übersicht aller Sensoren.
 
Tabellarische Datenbersicht: ?
 
Sensor: Nr:Datum:Temp:Abs-Feuchte:Windchill:Wind:
Aussen-T/F 1 25-11-2020 00:00:00 6.3 C 6.66 g/m*3 6.3 C 0 km/h
2 25-11-2020 00:05:00 6.3 C 6.66 g/m*3 6.3 C 0 km/h
3 25-11-2020 00:10:00 6.3 C 6.66 g/m*3 6.3 C 0 km/h
4 25-11-2020 00:15:00 6.3 C 6.66 g/m*3 6.3 C 0 km/h
5 25-11-2020 00:20:00 6.3 C 6.66 g/m*3 6.3 C 0 km/h
6 25-11-2020 00:25:00 6.3 C 6.66 g/m*3 6.3 C 0 km/h
7 25-11-2020 00:30:00 6.3 C 6.66 g/m*3 6.3 C 0 km/h
8 25-11-2020 00:35:00 6.3 C 6.66 g/m*3 6.3 C 0 km/h
9 25-11-2020 00:40:00 6.3 C 6.66 g/m*3 6.3 C 0 km/h
10 25-11-2020 00:45:00 6.3 C 6.66 g/m*3 6.3 C 0 km/h
11 25-11-2020 00:50:00 6.2 C 6.62 g/m*3 6.2 C 4.8 km/h
12 25-11-2020 00:55:00 6.2 C 6.62 g/m*3 6.2 C 0 km/h
13 25-11-2020 01:00:00 6.2 C 6.62 g/m*3 6.2 C 0 km/h
14 25-11-2020 01:05:00 6.2 C 6.62 g/m*3 6.2 C 0 km/h
15 25-11-2020 01:10:00 6.2 C 6.62 g/m*3 6.2 C 0 km/h
16 25-11-2020 01:15:00 6.2 C 6.62 g/m*3 6.2 C 0 km/h
17 25-11-2020 01:20:00 6.2 C 6.62 g/m*3 6.2 C 0 km/h
18 25-11-2020 01:25:00 6.2 C 6.62 g/m*3 6.2 C 0 km/h
19 25-11-2020 01:30:00 6.2 C 6.62 g/m*3 6.2 C 0 km/h
20 25-11-2020 01:35:00 6.2 C 6.62 g/m*3 6.2 C 0 km/h
21 25-11-2020 01:40:00 6.2 C 6.62 g/m*3 6.2 C 0 km/h
22 25-11-2020 01:45:00 6.1 C 6.58 g/m*3 6.1 C 0 km/h
23 25-11-2020 01:50:00 6.1 C 6.58 g/m*3 6.1 C 0 km/h
24 25-11-2020 01:55:00 6.1 C 6.58 g/m*3 6.1 C 0 km/h
25 25-11-2020 02:00:00 6.1 C 6.58 g/m*3 6.1 C 0 km/h
Sensor: Nr:Datum:Temp:Abs-Feuchte:Windchill:Wind:
Aussen-T/F 26 25-11-2020 02:05:00 6.1 C 6.58 g/m*3 6.1 C 0 km/h
27 25-11-2020 02:10:00 6.1 C 6.58 g/m*3 6.1 C 0 km/h
28 25-11-2020 02:15:00 6.1 C 6.58 g/m*3 6.1 C 0 km/h
29 25-11-2020 02:20:00 6.1 C 6.58 g/m*3 6.1 C 0 km/h
30 25-11-2020 02:25:00 6.1 C 6.58 g/m*3 6.1 C 1.6 km/h
31 25-11-2020 02:30:00 6 C 6.53 g/m*3 6 C 1.6 km/h
32 25-11-2020 02:35:00 6.1 C 6.58 g/m*3 6.1 C 0 km/h
33 25-11-2020 02:40:00 6.1 C 6.58 g/m*3 6.1 C 0 km/h
34 25-11-2020 02:45:00 6 C 6.53 g/m*3 6 C 0 km/h
35 25-11-2020 02:50:00 6 C 6.53 g/m*3 6 C 0 km/h
36 25-11-2020 02:55:00 5.9 C 6.49 g/m*3 5.9 C 0 km/h
37 25-11-2020 03:00:00 5.9 C 6.49 g/m*3 5.9 C 4.8 km/h
38 25-11-2020 03:05:00 5.9 C 6.49 g/m*3 5.9 C 0 km/h
39 25-11-2020 03:10:00 5.9 C 6.49 g/m*3 5.9 C 0 km/h
40 25-11-2020 03:15:00 5.9 C 6.56 g/m*3 5.9 C 0 km/h
41 25-11-2020 03:20:00 5.9 C 6.49 g/m*3 5.9 C 0 km/h
42 25-11-2020 03:25:00 5.9 C 6.56 g/m*3 5.9 C 0 km/h
43 25-11-2020 03:30:00 5.8 C 6.52 g/m*3 5.8 C 0 km/h
44 25-11-2020 03:35:00 5.8 C 6.52 g/m*3 5.8 C 0 km/h
45 25-11-2020 03:40:00 5.8 C 6.52 g/m*3 5.8 C 0 km/h
46 25-11-2020 03:45:00 5.8 C 6.52 g/m*3 5.8 C 1.6 km/h
47 25-11-2020 03:50:00 5.8 C 6.52 g/m*3 5.8 C 0 km/h
48 25-11-2020 03:55:00 5.8 C 6.52 g/m*3 5.8 C 0 km/h
49 25-11-2020 04:00:00 5.7 C 6.48 g/m*3 5.7 C 0 km/h
50 25-11-2020 04:05:00 5.7 C 6.48 g/m*3 5.7 C 0 km/h
Sensor: Nr:Datum:Temp:Abs-Feuchte:Windchill:Wind:
Aussen-T/F 51 25-11-2020 04:10:00 5.7 C 6.48 g/m*3 5.7 C 0 km/h
52 25-11-2020 04:15:00 5.7 C 6.48 g/m*3 5.7 C 0 km/h
53 25-11-2020 04:20:00 5.6 C 6.43 g/m*3 5.6 C 0 km/h
54 25-11-2020 04:25:00 5.6 C 6.43 g/m*3 5.6 C 0 km/h
55 25-11-2020 04:30:00 5.6 C 6.5 g/m*3 5.6 C 3.2 km/h
56 25-11-2020 04:35:00 5.5 C 6.39 g/m*3 5.5 C 0 km/h
57 25-11-2020 04:40:00 5.4 C 6.35 g/m*3 5.4 C 0 km/h
58 25-11-2020 04:45:00 5.4 C 6.35 g/m*3 5.4 C 0 km/h
59 25-11-2020 04:50:00 5.3 C 6.31 g/m*3 5.3 C 0 km/h
60 25-11-2020 04:55:00 5.2 C 6.27 g/m*3 5.2 C 1.6 km/h
61 25-11-2020 05:00:00 5.1 C 6.22 g/m*3 5.1 C 0 km/h
62 25-11-2020 05:05:00 4.9 C 6.14 g/m*3 4.9 C 0 km/h
63 25-11-2020 05:10:00 4.8 C 6.1 g/m*3 4.8 C 1.6 km/h
64 25-11-2020 05:15:00 4.7 C 6.06 g/m*3 4.7 C 0 km/h
65 25-11-2020 05:20:00 4.6 C 6.02 g/m*3 4.6 C 0 km/h
66 25-11-2020 05:25:00 4.4 C 6.01 g/m*3 4.4 C 0 km/h
67 25-11-2020 05:30:00 4.3 C 5.97 g/m*3 4.3 C 0 km/h
68 25-11-2020 05:35:00 4.2 C 5.93 g/m*3 4.2 C 0 km/h
69 25-11-2020 05:40:00 4.1 C 5.89 g/m*3 4.1 C 1.6 km/h
70 25-11-2020 05:45:00 4 C 5.85 g/m*3 4 C 3.2 km/h
71 25-11-2020 05:50:00 3.9 C 5.81 g/m*3 3.9 C 1.6 km/h
72 25-11-2020 05:55:00 3.8 C 5.83 g/m*3 3.8 C 0 km/h
73 25-11-2020 06:00:00 3.8 C 5.83 g/m*3 3.8 C 0 km/h
74 25-11-2020 06:05:00 3.7 C 5.8 g/m*3 3.7 C 1.6 km/h
75 25-11-2020 06:10:00 3.7 C 5.8 g/m*3 3.7 C 3.2 km/h
Sensor: Nr:Datum:Temp:Abs-Feuchte:Windchill:Wind:
Aussen-T/F 76 25-11-2020 06:15:00 3.6 C 5.76 g/m*3 3.6 C 1.6 km/h
77 25-11-2020 06:20:00 3.6 C 5.76 g/m*3 3.6 C 3.2 km/h
78 25-11-2020 06:25:00 3.4 C 5.68 g/m*3 3.4 C 3.2 km/h
79 25-11-2020 06:30:00 3.3 C 5.64 g/m*3 3.3 C 1.6 km/h
80 25-11-2020 06:35:00 3.3 C 5.7 g/m*3 3.3 C 0 km/h
81 25-11-2020 06:40:00 3.3 C 5.7 g/m*3 3.3 C 3.2 km/h
82 25-11-2020 06:45:00 3.2 C 5.66 g/m*3 3.2 C 0 km/h
83 25-11-2020 06:50:00 3.2 C 5.66 g/m*3 3.2 C 0 km/h
84 25-11-2020 06:55:00 3.1 C 5.63 g/m*3 3.1 C 0 km/h
85 25-11-2020 07:00:00 3.1 C 5.63 g/m*3 3.1 C 3.2 km/h
86 25-11-2020 07:05:00 3 C 5.59 g/m*3 3 C 1.6 km/h
87 25-11-2020 07:10:00 2.9 C 5.55 g/m*3 2.9 C 1.6 km/h
88 25-11-2020 07:15:00 2.8 C 5.51 g/m*3 2.8 C 1.6 km/h
89 25-11-2020 07:20:00 2.8 C 5.51 g/m*3 2.8 C 0 km/h
90 25-11-2020 07:25:00 2.7 C 5.48 g/m*3 2.7 C 0 km/h
91 25-11-2020 07:30:00 2.7 C 5.48 g/m*3 2.7 C 0 km/h
92 25-11-2020 07:35:00 2.7 C 5.48 g/m*3 2.7 C 0 km/h
93 25-11-2020 07:40:00 2.7 C 5.54 g/m*3 2.7 C 0 km/h
94 25-11-2020 07:45:00 2.7 C 5.54 g/m*3 2.7 C 0 km/h
95 25-11-2020 07:50:00 2.7 C 5.54 g/m*3 2.7 C 0 km/h
96 25-11-2020 07:55:00 2.6 C 5.5 g/m*3 2.6 C 0 km/h
97 25-11-2020 08:00:00 2.6 C 5.5 g/m*3 2.6 C 0 km/h
98 25-11-2020 08:05:00 2.6 C 5.5 g/m*3 2.6 C 0 km/h
99 25-11-2020 08:10:00 2.6 C 5.5 g/m*3 2.6 C 0 km/h
100 25-11-2020 08:15:00 2.6 C 5.5 g/m*3 2.6 C 0 km/h
Sensor: Nr:Datum:Temp:Abs-Feuchte:Windchill:Wind:
Aussen-T/F 101 25-11-2020 08:20:00 2.5 C 5.46 g/m*3 2.5 C 0 km/h
102 25-11-2020 08:25:00 2.5 C 5.46 g/m*3 2.5 C 0 km/h
103 25-11-2020 08:30:00 2.4 C 5.42 g/m*3 2.4 C 0 km/h
104 25-11-2020 08:35:00 2.5 C 5.46 g/m*3 2.5 C 0 km/h
105 25-11-2020 08:40:00 2.5 C 5.46 g/m*3 2.5 C 0 km/h
106 25-11-2020 08:45:00 2.5 C 5.46 g/m*3 2.5 C 0 km/h
107 25-11-2020 08:50:00 2.6 C 5.5 g/m*3 2.6 C 0 km/h
108 25-11-2020 08:55:00 2.6 C 5.5 g/m*3 2.6 C 0 km/h
109 25-11-2020 09:00:00 2.6 C 5.5 g/m*3 2.6 C 0 km/h
110 25-11-2020 09:05:00 2.7 C 5.54 g/m*3 2.7 C 0 km/h
111 25-11-2020 09:10:00 2.7 C 5.54 g/m*3 2.7 C 0 km/h
112 25-11-2020 09:15:00 2.8 C 5.57 g/m*3 2.8 C 0 km/h
113 25-11-2020 09:20:00 2.8 C 5.63 g/m*3 2.8 C 0 km/h
114 25-11-2020 09:25:00 2.9 C 5.67 g/m*3 2.9 C 0 km/h
115 25-11-2020 09:30:00 2.9 C 5.67 g/m*3 2.9 C 0 km/h
116 25-11-2020 09:35:00 3 C 5.71 g/m*3 3 C 0 km/h
117 25-11-2020 09:40:00 3.1 C 5.75 g/m*3 3.1 C 0 km/h
118 25-11-2020 09:45:00 3.2 C 5.79 g/m*3 3.2 C 0 km/h
119 25-11-2020 09:50:00 3.2 C 5.79 g/m*3 3.2 C 0 km/h
120 25-11-2020 09:55:00 3.3 C 5.82 g/m*3 3.3 C 0 km/h
121 25-11-2020 10:00:00 3.3 C 5.82 g/m*3 3.3 C 0 km/h
122 25-11-2020 10:05:00 3.4 C 5.86 g/m*3 3.4 C 0 km/h
123 25-11-2020 10:10:00 3.5 C 5.9 g/m*3 3.5 C 0 km/h
124 25-11-2020 10:15:00 3.6 C 5.94 g/m*3 3.6 C 0 km/h
125 25-11-2020 10:20:00 3.7 C 5.98 g/m*3 3.7 C 0 km/h
Sensor: Nr:Datum:Temp:Abs-Feuchte:Windchill:Wind:
Aussen-T/F 126 25-11-2020 10:25:00 3.8 C 6.02 g/m*3 3.8 C 0 km/h
127 25-11-2020 10:30:00 4 C 6.1 g/m*3 4 C 0 km/h
128 25-11-2020 10:35:00 4.2 C 6.25 g/m*3 4.2 C 0 km/h
129 25-11-2020 10:40:00 4.4 C 6.27 g/m*3 4.4 C 0 km/h
130 25-11-2020 10:45:00 4.6 C 6.42 g/m*3 4.6 C 0 km/h
131 25-11-2020 10:50:00 4.8 C 6.5 g/m*3 4.8 C 0 km/h
132 25-11-2020 10:55:00 5 C 6.59 g/m*3 5 C 0 km/h
133 25-11-2020 11:00:00 5.2 C 6.68 g/m*3 5.2 C 0 km/h
134 25-11-2020 11:05:00 5.3 C 6.72 g/m*3 5.3 C 0 km/h
135 25-11-2020 11:10:00 5.4 C 6.77 g/m*3 5.4 C 0 km/h
136 25-11-2020 11:15:00 5.6 C 6.86 g/m*3 5.6 C 0 km/h
137 25-11-2020 11:20:00 5.6 C 6.86 g/m*3 5.6 C 0 km/h
138 25-11-2020 11:25:00 5.7 C 6.83 g/m*3 5.7 C 0 km/h
139 25-11-2020 11:30:00 5.7 C 6.83 g/m*3 5.7 C 0 km/h
140 25-11-2020 11:35:00 5.7 C 6.83 g/m*3 5.7 C 0 km/h
141 25-11-2020 11:40:00 5.7 C 6.83 g/m*3 5.7 C 0 km/h
142 25-11-2020 11:45:00 5.7 C 6.83 g/m*3 5.7 C 0 km/h
143 25-11-2020 11:50:00 5.7 C 6.83 g/m*3 5.7 C 4.8 km/h
144 25-11-2020 11:55:00 5.7 C 6.76 g/m*3 5.7 C 0 km/h
145 25-11-2020 12:00:00 5.7 C 6.76 g/m*3 5.7 C 0 km/h
146 25-11-2020 12:05:00 5.7 C 6.76 g/m*3 5.7 C 0 km/h
147 25-11-2020 12:10:00 5.7 C 6.76 g/m*3 5.7 C 0 km/h
148 25-11-2020 12:15:00 5.7 C 6.76 g/m*3 5.7 C 1.6 km/h
149 25-11-2020 12:20:00 5.7 C 6.76 g/m*3 5.7 C 0 km/h
150 25-11-2020 12:25:00 5.7 C 6.76 g/m*3 5.7 C 0 km/h
Sensor: Nr:Datum:Temp:Abs-Feuchte:Windchill:Wind:
Aussen-T/F 151 25-11-2020 12:30:00 5.7 C 6.76 g/m*3 5.7 C 0 km/h
152 25-11-2020 12:35:00 5.7 C 6.76 g/m*3 5.7 C 0 km/h
153 25-11-2020 12:40:00 5.8 C 6.81 g/m*3 5.8 C 0 km/h
154 25-11-2020 12:45:00 5.8 C 6.81 g/m*3 5.8 C 1.6 km/h
155 25-11-2020 12:50:00 5.9 C 6.85 g/m*3 5.9 C 0 km/h
156 25-11-2020 12:55:00 5.9 C 6.85 g/m*3 5.9 C 0 km/h
157 25-11-2020 13:00:00 6 C 6.9 g/m*3 6 C 0 km/h
158 25-11-2020 13:05:00 6 C 6.9 g/m*3 6 C 0 km/h
159 25-11-2020 13:10:00 6.1 C 6.94 g/m*3 6.1 C 0 km/h
160 25-11-2020 13:15:00 6.1 C 6.94 g/m*3 6.1 C 1.6 km/h
161 25-11-2020 13:20:00 6.1 C 6.94 g/m*3 6.1 C 0 km/h
162 25-11-2020 13:25:00 6.2 C 6.99 g/m*3 6.2 C 1.6 km/h
163 25-11-2020 13:30:00 6.2 C 6.99 g/m*3 6.2 C 3.2 km/h
164 25-11-2020 13:35:00 6.3 C 7.03 g/m*3 6.3 C 0 km/h
165 25-11-2020 13:40:00 6.3 C 7.03 g/m*3 6.3 C 3.2 km/h
166 25-11-2020 13:45:00 6.3 C 7.03 g/m*3 6.3 C 1.6 km/h
167 25-11-2020 13:50:00 6.4 C 7 g/m*3 6.4 C 1.6 km/h
168 25-11-2020 13:55:00 6.5 C 7.05 g/m*3 6.5 C 0 km/h
169 25-11-2020 14:00:00 6.5 C 7.05 g/m*3 6.5 C 0 km/h
170 25-11-2020 14:05:00 6.6 C 7.1 g/m*3 6.6 C 0 km/h
171 25-11-2020 14:10:00 6.7 C 7.14 g/m*3 6.7 C 1.6 km/h
172 25-11-2020 14:15:00 6.7 C 7.14 g/m*3 6.7 C 0 km/h
173 25-11-2020 14:20:00 6.7 C 7.14 g/m*3 6.7 C 0 km/h
174 25-11-2020 14:25:00 6.7 C 7.14 g/m*3 6.7 C 0 km/h
175 25-11-2020 14:30:00 6.7 C 7.14 g/m*3 6.7 C 0 km/h
Sensor: Nr:Datum:Temp:Abs-Feuchte:Windchill:Wind:
Aussen-T/F 176 25-11-2020 14:35:00 6.6 C 7.02 g/m*3 6.6 C 0 km/h
177 25-11-2020 14:40:00 6.6 C 7.02 g/m*3 6.6 C 0 km/h
178 25-11-2020 14:45:00 6.6 C 7.02 g/m*3 6.6 C 0 km/h
179 25-11-2020 14:50:00 6.6 C 7.02 g/m*3 6.6 C 0 km/h
180 25-11-2020 14:55:00 6.5 C 6.97 g/m*3 6.5 C 0 km/h
181 25-11-2020 15:00:00 6.5 C 6.97 g/m*3 6.5 C 0 km/h
182 25-11-2020 15:05:00 6.5 C 6.97 g/m*3 6.5 C 1.6 km/h
183 25-11-2020 15:10:00 6.5 C 6.97 g/m*3 6.5 C 0 km/h
184 25-11-2020 15:15:00 6.4 C 6.93 g/m*3 6.4 C 0 km/h
185 25-11-2020 15:20:00 6.4 C 6.93 g/m*3 6.4 C 1.6 km/h
186 25-11-2020 15:25:00 6.4 C 6.93 g/m*3 6.4 C 0 km/h
187 25-11-2020 15:30:00 6.4 C 6.93 g/m*3 6.4 C 0 km/h
188 25-11-2020 15:35:00 6.4 C 6.93 g/m*3 6.4 C 1.6 km/h
189 25-11-2020 15:40:00 6.3 C 6.88 g/m*3 6.3 C 4.8 km/h
190 25-11-2020 15:45:00 6.3 C 6.88 g/m*3 6.3 C 3.2 km/h
191 25-11-2020 15:50:00 6.3 C 6.88 g/m*3 6.3 C 1.6 km/h
192 25-11-2020 15:55:00 6.2 C 6.77 g/m*3 6.2 C 1.6 km/h
193 25-11-2020 16:00:00 6.2 C 6.77 g/m*3 6.2 C 4.8 km/h
194 25-11-2020 16:05:00 6.2 C 6.77 g/m*3 6.2 C 4.8 km/h
195 25-11-2020 16:10:00 6.1 C 6.72 g/m*3 6.1 C 4.8 km/h
196 25-11-2020 16:15:00 6 C 6.68 g/m*3 4.75 C 6.4 km/h
197 25-11-2020 16:20:00 5.9 C 6.63 g/m*3 4.63 C 6.4 km/h
198 25-11-2020 16:25:00 5.9 C 6.63 g/m*3 3.8 C 9.7 km/h
199 25-11-2020 16:30:00 5.9 C 6.63 g/m*3 3.8 C 9.7 km/h
200 25-11-2020 16:35:00 6 C 6.68 g/m*3 3.92 C 9.7 km/h
Sensor: Nr:Datum:Temp:Abs-Feuchte:Windchill:Wind:
Aussen-T/F 201 25-11-2020 16:40:00 6.1 C 6.72 g/m*3 4.4 C 8.1 km/h
202 25-11-2020 16:45:00 5.9 C 6.56 g/m*3 5.9 C 4.8 km/h
203 25-11-2020 16:50:00 5.8 C 6.52 g/m*3 5.8 C 0 km/h
204 25-11-2020 16:55:00 5.7 C 6.48 g/m*3 5.7 C 1.6 km/h
205 25-11-2020 17:00:00 5.6 C 6.43 g/m*3 5.6 C 1.6 km/h
206 25-11-2020 17:05:00 5.4 C 6.35 g/m*3 5.4 C 1.6 km/h
207 25-11-2020 17:10:00 5.2 C 6.27 g/m*3 5.2 C 1.6 km/h
208 25-11-2020 17:15:00 5.1 C 6.22 g/m*3 5.1 C 0 km/h
209 25-11-2020 17:20:00 5.1 C 6.29 g/m*3 5.1 C 3.2 km/h
210 25-11-2020 17:25:00 5 C 6.25 g/m*3 5 C 1.6 km/h
211 25-11-2020 17:30:00 4.9 C 6.21 g/m*3 3.48 C 6.4 km/h
212 25-11-2020 17:35:00 4.9 C 6.28 g/m*3 4.9 C 1.6 km/h
213 25-11-2020 17:40:00 4.9 C 6.28 g/m*3 4.9 C 0 km/h
214 25-11-2020 17:45:00 4.8 C 6.17 g/m*3 4.8 C 0 km/h
215 25-11-2020 17:50:00 4.7 C 6.13 g/m*3 4.7 C 0 km/h
216 25-11-2020 17:55:00 4.6 C 6.09 g/m*3 4.6 C 1.6 km/h
217 25-11-2020 18:00:00 4.5 C 6.05 g/m*3 4.5 C 0 km/h
218 25-11-2020 18:05:00 4.4 C 6.07 g/m*3 4.4 C 0 km/h
219 25-11-2020 18:10:00 4.4 C 6.07 g/m*3 4.4 C 0 km/h
220 25-11-2020 18:15:00 4.3 C 6.03 g/m*3 4.3 C 0 km/h
221 25-11-2020 18:20:00 4.2 C 5.99 g/m*3 4.2 C 0 km/h
222 25-11-2020 18:25:00 4.1 C 5.95 g/m*3 4.1 C 0 km/h
223 25-11-2020 18:30:00 4.1 C 5.95 g/m*3 4.1 C 0 km/h
224 25-11-2020 18:35:00 3.9 C 5.87 g/m*3 3.9 C 0 km/h
225 25-11-2020 18:40:00 3.9 C 5.87 g/m*3 3.9 C 0 km/h
Sensor: Nr:Datum:Temp:Abs-Feuchte:Windchill:Wind:
Aussen-T/F 226 25-11-2020 18:45:00 3.8 C 5.83 g/m*3 3.8 C 0 km/h
227 25-11-2020 18:50:00 3.8 C 5.9 g/m*3 3.8 C 0 km/h
228 25-11-2020 18:55:00 3.8 C 5.9 g/m*3 3.8 C 0 km/h
229 25-11-2020 19:00:00 3.7 C 5.86 g/m*3 3.7 C 0 km/h
230 25-11-2020 19:05:00 3.7 C 5.86 g/m*3 3.7 C 0 km/h
231 25-11-2020 19:10:00 3.6 C 5.82 g/m*3 3.6 C 1.6 km/h
232 25-11-2020 19:15:00 3.6 C 5.82 g/m*3 3.6 C 0 km/h
233 25-11-2020 19:20:00 3.4 C 5.74 g/m*3 3.4 C 0 km/h
234 25-11-2020 19:25:00 3.4 C 5.74 g/m*3 3.4 C 0 km/h
235 25-11-2020 19:30:00 3.4 C 5.74 g/m*3 3.4 C 0 km/h
236 25-11-2020 19:35:00 3.4 C 5.74 g/m*3 3.4 C 0 km/h
237 25-11-2020 19:40:00 3.4 C 5.74 g/m*3 3.4 C 0 km/h
238 25-11-2020 19:45:00 3.4 C 5.74 g/m*3 3.4 C 0 km/h
239 25-11-2020 19:50:00 3.4 C 5.74 g/m*3 3.4 C 0 km/h
240 25-11-2020 19:55:00 3.4 C 5.8 g/m*3 3.4 C 0 km/h
241 25-11-2020 20:00:00 3.3 C 5.76 g/m*3 3.3 C 0 km/h
242 25-11-2020 20:05:00 3.3 C 5.76 g/m*3 3.3 C 1.6 km/h
243 25-11-2020 20:10:00 3.3 C 5.76 g/m*3 3.3 C 0 km/h
244 25-11-2020 20:15:00 3.3 C 5.76 g/m*3 3.3 C 0 km/h
245 25-11-2020 20:20:00 3.3 C 5.76 g/m*3 3.3 C 0 km/h
246 25-11-2020 20:25:00 3.2 C 5.72 g/m*3 3.2 C 0 km/h
247 25-11-2020 20:30:00 3.2 C 5.72 g/m*3 3.2 C 0 km/h
248 25-11-2020 20:35:00 3.1 C 5.69 g/m*3 3.1 C 0 km/h
249 25-11-2020 20:40:00 3 C 5.65 g/m*3 3 C 0 km/h
250 25-11-2020 20:45:00 2.9 C 5.61 g/m*3 2.9 C 0 km/h
Sensor: Nr:Datum:Temp:Abs-Feuchte:Windchill:Wind:
Aussen-T/F 251 25-11-2020 20:50:00 2.9 C 5.61 g/m*3 2.9 C 0 km/h
252 25-11-2020 20:55:00 2.8 C 5.57 g/m*3 2.8 C 4.8 km/h
253 25-11-2020 21:00:00 2.8 C 5.57 g/m*3 2.8 C 3.2 km/h
254 25-11-2020 21:05:00 2.8 C 5.57 g/m*3 2.8 C 1.6 km/h
255 25-11-2020 21:10:00 2.8 C 5.57 g/m*3 2.8 C 1.6 km/h
256 25-11-2020 21:15:00 2.7 C 5.54 g/m*3 2.7 C 0 km/h
257 25-11-2020 21:20:00 2.6 C 5.5 g/m*3 2.6 C 0 km/h
258 25-11-2020 21:25:00 2.5 C 5.46 g/m*3 2.5 C 1.6 km/h
259 25-11-2020 21:30:00 2.4 C 5.42 g/m*3 2.4 C 0 km/h
260 25-11-2020 21:35:00 2.3 C 5.39 g/m*3 2.3 C 0 km/h
261 25-11-2020 21:40:00 2.2 C 5.35 g/m*3 2.2 C 0 km/h
262 25-11-2020 21:45:00 2.2 C 5.35 g/m*3 2.2 C 0 km/h
263 25-11-2020 21:50:00 2.2 C 5.35 g/m*3 2.2 C 0 km/h
264 25-11-2020 21:55:00 2.2 C 5.35 g/m*3 2.2 C 0 km/h
265 25-11-2020 22:00:00 2.2 C 5.35 g/m*3 2.2 C 0 km/h
266 25-11-2020 22:05:00 2.2 C 5.35 g/m*3 2.2 C 0 km/h
267 25-11-2020 22:10:00 2.2 C 5.35 g/m*3 2.2 C 0 km/h
268 25-11-2020 22:15:00 2.2 C 5.35 g/m*3 2.2 C 0 km/h
269 25-11-2020 22:20:00 2.1 C 5.31 g/m*3 2.1 C 0 km/h
270 25-11-2020 22:25:00 2.1 C 5.31 g/m*3 2.1 C 0 km/h
271 25-11-2020 22:30:00 2.1 C 5.31 g/m*3 2.1 C 0 km/h
272 25-11-2020 22:35:00 2.1 C 5.37 g/m*3 2.1 C 0 km/h
273 25-11-2020 22:40:00 2.1 C 5.31 g/m*3 2.1 C 0 km/h
274 25-11-2020 22:45:00 2.1 C 5.31 g/m*3 2.1 C 0 km/h
275 25-11-2020 22:50:00 2.1 C 5.31 g/m*3 2.1 C 0 km/h
Sensor: Nr:Datum:Temp:Abs-Feuchte:Windchill:Wind:
Aussen-T/F 276 25-11-2020 22:55:00 2.1 C 5.31 g/m*3 2.1 C 0 km/h
277 25-11-2020 23:00:00 2.1 C 5.37 g/m*3 2.1 C 0 km/h
278 25-11-2020 23:05:00 2.1 C 5.37 g/m*3 2.1 C 0 km/h
279 25-11-2020 23:10:00 2.1 C 5.37 g/m*3 2.1 C 3.2 km/h
280 25-11-2020 23:15:00 2 C 5.33 g/m*3 2 C 1.6 km/h
281 25-11-2020 23:20:00 1.9 C 5.3 g/m*3 1.9 C 0 km/h
282 25-11-2020 23:25:00 1.9 C 5.3 g/m*3 1.9 C 0 km/h
283 25-11-2020 23:30:00 1.8 C 5.21 g/m*3 1.8 C 0 km/h
284 25-11-2020 23:35:00 1.7 C 5.17 g/m*3 1.7 C 0 km/h
285 25-11-2020 23:40:00 1.7 C 5.17 g/m*3 1.7 C 0 km/h
286 25-11-2020 23:45:00 1.7 C 5.23 g/m*3 1.7 C 0 km/h
287 25-11-2020 23:50:00 1.7 C 5.23 g/m*3 1.7 C 0 km/h
288 25-11-2020 23:55:00 1.7 C 5.23 g/m*3 1.7 C 0 km/h
289 26-11-2020 00:00:00 1.6 C 5.19 g/m*3 1.6 C 0 km/h
290 26-11-2020 00:05:00 1.6 C 5.19 g/m*3 1.6 C 0 km/h
291 26-11-2020 00:10:00 1.6 C 5.19 g/m*3 1.6 C 0 km/h
292 26-11-2020 00:15:00 1.6 C 5.19 g/m*3 1.6 C 0 km/h
293 26-11-2020 00:20:00 1.6 C 5.19 g/m*3 1.6 C 0 km/h
294 26-11-2020 00:25:00 1.6 C 5.19 g/m*3 1.6 C 0 km/h
295 26-11-2020 00:30:00 1.6 C 5.19 g/m*3 1.6 C 0 km/h
296 26-11-2020 00:35:00 1.6 C 5.19 g/m*3 1.6 C 0 km/h
297 26-11-2020 00:40:00 1.7 C 5.23 g/m*3 1.7 C 0 km/h
298 26-11-2020 00:45:00 1.7 C 5.23 g/m*3 1.7 C 0 km/h
299 26-11-2020 00:50:00 1.7 C 5.23 g/m*3 1.7 C 0 km/h
300 26-11-2020 00:55:00 1.7 C 5.23 g/m*3 1.7 C 0 km/h
Sensor: Nr:Datum:Temp:Abs-Feuchte:Windchill:Wind:
Aussen-T/F 301 26-11-2020 01:00:00 1.7 C 5.23 g/m*3 1.7 C 0 km/h
302 26-11-2020 01:05:00 1.7 C 5.23 g/m*3 1.7 C 0 km/h
303 26-11-2020 01:10:00 1.7 C 5.23 g/m*3 1.7 C 0 km/h
304 26-11-2020 01:15:00 1.8 C 5.26 g/m*3 1.8 C 0 km/h
305 26-11-2020 01:20:00 1.8 C 5.26 g/m*3 1.8 C 0 km/h
306 26-11-2020 01:25:00 1.9 C 5.3 g/m*3 1.9 C 0 km/h
307 26-11-2020 01:30:00 2 C 5.33 g/m*3 2 C 0 km/h
308 26-11-2020 01:35:00 2.1 C 5.37 g/m*3 2.1 C 0 km/h
309 26-11-2020 01:40:00 2.1 C 5.37 g/m*3 2.1 C 0 km/h
310 26-11-2020 01:45:00 2.2 C 5.41 g/m*3 2.2 C 0 km/h
311 26-11-2020 01:50:00 2.2 C 5.41 g/m*3 2.2 C 0 km/h
312 26-11-2020 01:55:00 2.2 C 5.41 g/m*3 2.2 C 0 km/h
313 26-11-2020 02:00:00 2.2 C 5.41 g/m*3 2.2 C 0 km/h
314 26-11-2020 02:05:00 2.3 C 5.44 g/m*3 2.3 C 0 km/h
315 26-11-2020 02:10:00 2.3 C 5.44 g/m*3 2.3 C 0 km/h
316 26-11-2020 02:15:00 2.4 C 5.48 g/m*3 2.4 C 0 km/h
317 26-11-2020 02:20:00 2.6 C 5.61 g/m*3 2.6 C 0 km/h
318 26-11-2020 02:25:00 2.6 C 5.61 g/m*3 2.6 C 0 km/h
319 26-11-2020 02:30:00 2.7 C 5.65 g/m*3 2.7 C 0 km/h
320 26-11-2020 02:35:00 2.7 C 5.65 g/m*3 2.7 C 0 km/h
321 26-11-2020 02:40:00 2.8 C 5.69 g/m*3 2.8 C 0 km/h
322 26-11-2020 02:45:00 2.8 C 5.69 g/m*3 2.8 C 0 km/h
323 26-11-2020 02:50:00 2.9 C 5.73 g/m*3 2.9 C 0 km/h
324 26-11-2020 02:55:00 2.9 C 5.73 g/m*3 2.9 C 1.6 km/h
325 26-11-2020 03:00:00 2.9 C 5.73 g/m*3 2.9 C 0 km/h
Sensor: Nr:Datum:Temp:Abs-Feuchte:Windchill:Wind:
Aussen-T/F 326 26-11-2020 03:05:00 2.8 C 5.69 g/m*3 2.8 C 0 km/h
327 26-11-2020 03:10:00 2.8 C 5.69 g/m*3 2.8 C 0 km/h
328 26-11-2020 03:15:00 2.8 C 5.69 g/m*3 2.8 C 0 km/h
329 26-11-2020 03:20:00 2.8 C 5.69 g/m*3 2.8 C 0 km/h
330 26-11-2020 03:25:00 2.8 C 5.69 g/m*3 2.8 C 0 km/h
331 26-11-2020 03:30:00 2.8 C 5.69 g/m*3 2.8 C 0 km/h
332 26-11-2020 03:35:00 2.8 C 5.69 g/m*3 2.8 C 0 km/h
333 26-11-2020 03:40:00 2.8 C 5.69 g/m*3 2.8 C 0 km/h
334 26-11-2020 03:45:00 2.8 C 5.69 g/m*3 2.8 C 0 km/h
335 26-11-2020 03:50:00 2.8 C 5.69 g/m*3 2.8 C 0 km/h
336 26-11-2020 03:55:00 2.9 C 5.73 g/m*3 2.9 C 0 km/h
337 26-11-2020 04:00:00 2.9 C 5.73 g/m*3 2.9 C 0 km/h
338 26-11-2020 04:05:00 2.9 C 5.73 g/m*3 2.9 C 0 km/h
339 26-11-2020 04:10:00 2.9 C 5.73 g/m*3 2.9 C 0 km/h
340 26-11-2020 04:15:00 3 C 5.77 g/m*3 3 C 0 km/h
341 26-11-2020 04:20:00 3 C 5.77 g/m*3 3 C 0 km/h
342 26-11-2020 04:25:00 3.1 C 5.81 g/m*3 3.1 C 0 km/h
343 26-11-2020 04:30:00 3.1 C 5.81 g/m*3 3.1 C 0 km/h
344 26-11-2020 04:35:00 3.1 C 5.81 g/m*3 3.1 C 0 km/h
345 26-11-2020 04:40:00 3.1 C 5.81 g/m*3 3.1 C 0 km/h
346 26-11-2020 04:45:00 3.2 C 5.85 g/m*3 3.2 C 0 km/h
347 26-11-2020 04:50:00 3.2 C 5.85 g/m*3 3.2 C 1.6 km/h
348 26-11-2020 04:55:00 3.3 C 5.88 g/m*3 3.3 C 1.6 km/h
349 26-11-2020 05:00:00 3.3 C 5.88 g/m*3 3.3 C 0 km/h
350 26-11-2020 05:05:00 3.3 C 5.88 g/m*3 3.3 C 0 km/h
Sensor: Nr:Datum:Temp:Abs-Feuchte:Windchill:Wind:
Aussen-T/F 351 26-11-2020 05:10:00 3.3 C 5.88 g/m*3 3.3 C 0 km/h
352 26-11-2020 05:15:00 3.3 C 5.88 g/m*3 3.3 C 0 km/h
353 26-11-2020 05:20:00 3.3 C 5.88 g/m*3 3.3 C 0 km/h
354 26-11-2020 05:25:00 3.3 C 5.88 g/m*3 3.3 C 0 km/h
355 26-11-2020 05:30:00 3.3 C 5.88 g/m*3 3.3 C 0 km/h
356 26-11-2020 05:35:00 3.3 C 5.88 g/m*3 3.3 C 0 km/h
357 26-11-2020 05:40:00 3.3 C 5.88 g/m*3 3.3 C 1.6 km/h
358 26-11-2020 05:45:00 3.4 C 5.92 g/m*3 3.4 C 1.6 km/h
359 26-11-2020 05:50:00 3.3 C 5.88 g/m*3 3.3 C 4.8 km/h
360 26-11-2020 05:55:00 3.2 C 5.85 g/m*3 3.2 C 0 km/h
361 26-11-2020 06:00:00 3.2 C 5.85 g/m*3 3.2 C 0 km/h
362 26-11-2020 06:05:00 3.2 C 5.85 g/m*3 3.2 C 0 km/h
363 26-11-2020 06:10:00 3.2 C 5.85 g/m*3 3.2 C 0 km/h
364 26-11-2020 06:15:00 3.2 C 5.85 g/m*3 3.2 C 0 km/h
365 26-11-2020 06:20:00 3.2 C 5.85 g/m*3 3.2 C 0 km/h
366 26-11-2020 06:25:00 3.1 C 5.81 g/m*3 3.1 C 0 km/h
367 26-11-2020 06:30:00 3.1 C 5.75 g/m*3 3.1 C 4.8 km/h
368 26-11-2020 06:35:00 2.9 C 5.67 g/m*3 2.9 C 4.8 km/h
369 26-11-2020 06:40:00 2.8 C 5.63 g/m*3 2.8 C 0 km/h
370 26-11-2020 06:45:00 2.8 C 5.63 g/m*3 2.8 C 0 km/h
371 26-11-2020 06:50:00 2.8 C 5.63 g/m*3 2.8 C 0 km/h
372 26-11-2020 06:55:00 2.8 C 5.63 g/m*3 2.8 C 1.6 km/h
373 26-11-2020 07:00:00 2.8 C 5.69 g/m*3 2.8 C 0 km/h
374 26-11-2020 07:05:00 2.8 C 5.69 g/m*3 2.8 C 3.2 km/h
375 26-11-2020 07:10:00 2.9 C 5.73 g/m*3 2.9 C 0 km/h
Sensor: Nr:Datum:Temp:Abs-Feuchte:Windchill:Wind:
Aussen-T/F 376 26-11-2020 07:15:00 2.9 C 5.73 g/m*3 2.9 C 0 km/h
377 26-11-2020 07:20:00 2.9 C 5.73 g/m*3 2.9 C 0 km/h
378 26-11-2020 07:25:00 2.9 C 5.73 g/m*3 2.9 C 0 km/h
379 26-11-2020 07:30:00 2.9 C 5.73 g/m*3 2.9 C 1.6 km/h
380 26-11-2020 07:35:00 2.8 C 5.69 g/m*3 2.8 C 3.2 km/h
381 26-11-2020 07:40:00 2.8 C 5.69 g/m*3 2.8 C 3.2 km/h
382 26-11-2020 07:45:00 2.7 C 5.59 g/m*3 2.7 C 0 km/h
383 26-11-2020 07:50:00 2.7 C 5.59 g/m*3 2.7 C 0 km/h
384 26-11-2020 07:55:00 2.7 C 5.59 g/m*3 2.7 C 0 km/h
385 26-11-2020 08:00:00 2.7 C 5.59 g/m*3 2.7 C 0 km/h
386 26-11-2020 08:05:00 2.7 C 5.59 g/m*3 2.7 C 0 km/h
387 26-11-2020 08:10:00 2.7 C 5.59 g/m*3 2.7 C 0 km/h
388 26-11-2020 08:15:00 2.7 C 5.59 g/m*3 2.7 C 1.6 km/h
389 26-11-2020 08:20:00 2.6 C 5.56 g/m*3 2.6 C 3.2 km/h
390 26-11-2020 08:25:00 2.6 C 5.56 g/m*3 2.6 C 3.2 km/h
391 26-11-2020 08:30:00 2.6 C 5.56 g/m*3 2.6 C 1.6 km/h
392 26-11-2020 08:35:00 2.6 C 5.56 g/m*3 2.6 C 3.2 km/h
393 26-11-2020 08:40:00 2.6 C 5.56 g/m*3 2.6 C 4.8 km/h
394 26-11-2020 08:45:00 2.5 C 5.52 g/m*3 2.5 C 4.8 km/h
395 26-11-2020 08:50:00 2.4 C 5.48 g/m*3 2.4 C 4.8 km/h
396 26-11-2020 08:55:00 2.4 C 5.48 g/m*3 2.4 C 3.2 km/h
397 26-11-2020 09:00:00 2.4 C 5.48 g/m*3 2.4 C 3.2 km/h
398 26-11-2020 09:05:00 2.3 C 5.44 g/m*3 2.3 C 1.6 km/h
399 26-11-2020 09:10:00 2.3 C 5.44 g/m*3 2.3 C 0 km/h
400 26-11-2020 09:15:00 2.4 C 5.48 g/m*3 2.4 C 0 km/h
Sensor: Nr:Datum:Temp:Abs-Feuchte:Windchill:Wind:
Aussen-T/F 401 26-11-2020 09:20:00 2.4 C 5.48 g/m*3 2.4 C 0 km/h
402 26-11-2020 09:25:00 2.4 C 5.48 g/m*3 2.4 C 1.6 km/h
403 26-11-2020 09:30:00 2.6 C 5.61 g/m*3 2.6 C 1.6 km/h
404 26-11-2020 09:35:00 2.7 C 5.65 g/m*3 2.7 C 1.6 km/h
405 26-11-2020 09:40:00 2.8 C 5.69 g/m*3 2.8 C 0 km/h
406 26-11-2020 09:45:00 2.8 C 5.69 g/m*3 2.8 C 1.6 km/h
407 26-11-2020 09:50:00 2.8 C 5.69 g/m*3 1.05 C 6.4 km/h
408 26-11-2020 09:55:00 2.8 C 5.69 g/m*3 2.8 C 4.8 km/h
409 26-11-2020 10:00:00 2.7 C 5.59 g/m*3 0.94 C 6.4 km/h
410 26-11-2020 10:05:00 2.7 C 5.59 g/m*3 2.7 C 0 km/h
411 26-11-2020 10:10:00 2.7 C 5.59 g/m*3 2.7 C 1.6 km/h
412 26-11-2020 10:15:00 2.7 C 5.59 g/m*3 2.7 C 0 km/h
413 26-11-2020 10:20:00 2.7 C 5.65 g/m*3 2.7 C 0 km/h
414 26-11-2020 10:25:00 2.8 C 5.69 g/m*3 2.8 C 1.6 km/h
415 26-11-2020 10:30:00 2.8 C 5.63 g/m*3 2.8 C 1.6 km/h
416 26-11-2020 10:35:00 2.9 C 5.73 g/m*3 2.9 C 0 km/h
417 26-11-2020 10:40:00 2.9 C 5.73 g/m*3 2.9 C 1.6 km/h
418 26-11-2020 10:45:00 2.9 C 5.73 g/m*3 2.9 C 0 km/h
419 26-11-2020 10:50:00 2.9 C 5.73 g/m*3 2.9 C 0 km/h
420 26-11-2020 10:55:00 3.1 C 5.81 g/m*3 3.1 C 0 km/h
421 26-11-2020 11:00:00 3.2 C 5.85 g/m*3 3.2 C 1.6 km/h
422 26-11-2020 11:05:00 3.3 C 5.88 g/m*3 3.3 C 1.6 km/h
423 26-11-2020 11:10:00 3.3 C 5.88 g/m*3 3.3 C 1.6 km/h
424 26-11-2020 11:15:00 3.4 C 5.92 g/m*3 3.4 C 0 km/h
425 26-11-2020 11:20:00 3.4 C 5.92 g/m*3 3.4 C 1.6 km/h
Sensor: Nr:Datum:Temp:Abs-Feuchte:Windchill:Wind:
Aussen-T/F 426 26-11-2020 11:25:00 3.5 C 5.96 g/m*3 3.5 C 0 km/h
427 26-11-2020 11:30:00 3.6 C 6 g/m*3 3.6 C 1.6 km/h
428 26-11-2020 11:35:00 3.6 C 5.94 g/m*3 3.6 C 0 km/h
429 26-11-2020 11:40:00 3.7 C 5.98 g/m*3 3.7 C 4.8 km/h
430 26-11-2020 11:45:00 3.8 C 6.09 g/m*3 3.8 C 1.6 km/h
431 26-11-2020 11:50:00 3.9 C 6.06 g/m*3 3.9 C 4.8 km/h
432 26-11-2020 11:55:00 3.9 C 6.06 g/m*3 3.9 C 4.8 km/h
433 26-11-2020 12:00:00 4 C 6.1 g/m*3 4 C 1.6 km/h
434 26-11-2020 12:05:00 4 C 6.1 g/m*3 4 C 0 km/h
435 26-11-2020 12:10:00 4.1 C 6.14 g/m*3 4.1 C 1.6 km/h
436 26-11-2020 12:15:00 4.1 C 6.14 g/m*3 4.1 C 0 km/h
437 26-11-2020 12:20:00 4.2 C 6.19 g/m*3 4.2 C 3.2 km/h
438 26-11-2020 12:25:00 4.3 C 6.16 g/m*3 4.3 C 0 km/h
439 26-11-2020 12:30:00 4.3 C 6.16 g/m*3 4.3 C 1.6 km/h
440 26-11-2020 12:35:00 4.3 C 6.16 g/m*3 4.3 C 3.2 km/h
441 26-11-2020 12:40:00 4.4 C 6.2 g/m*3 4.4 C 4.8 km/h
442 26-11-2020 12:45:00 4.4 C 6.14 g/m*3 4.4 C 4.8 km/h
443 26-11-2020 12:50:00 4.4 C 6.14 g/m*3 4.4 C 3.2 km/h
444 26-11-2020 12:55:00 4.5 C 6.18 g/m*3 4.5 C 1.6 km/h
445 26-11-2020 13:00:00 4.6 C 6.22 g/m*3 3.13 C 6.4 km/h
446 26-11-2020 13:05:00 4.6 C 6.22 g/m*3 4.6 C 3.2 km/h
447 26-11-2020 13:10:00 4.6 C 6.22 g/m*3 4.6 C 3.2 km/h
448 26-11-2020 13:15:00 4.7 C 6.26 g/m*3 4.7 C 3.2 km/h
449 26-11-2020 13:20:00 4.7 C 6.19 g/m*3 4.7 C 0 km/h
450 26-11-2020 13:25:00 4.7 C 6.19 g/m*3 4.7 C 1.6 km/h
Sensor: Nr:Datum:Temp:Abs-Feuchte:Windchill:Wind:
Aussen-T/F 451 26-11-2020 13:30:00 4.8 C 6.24 g/m*3 4.8 C 1.6 km/h
452 26-11-2020 13:35:00 4.8 C 6.24 g/m*3 4.8 C 3.2 km/h
453 26-11-2020 13:40:00 4.8 C 6.24 g/m*3 4.8 C 4.8 km/h
454 26-11-2020 13:45:00 4.8 C 6.24 g/m*3 4.8 C 4.8 km/h
455 26-11-2020 13:50:00 4.9 C 6.28 g/m*3 4.9 C 3.2 km/h
456 26-11-2020 13:55:00 4.9 C 6.21 g/m*3 4.9 C 3.2 km/h
457 26-11-2020 14:00:00 4.9 C 6.21 g/m*3 4.9 C 4.8 km/h
458 26-11-2020 14:05:00 4.9 C 6.21 g/m*3 4.9 C 4.8 km/h
459 26-11-2020 14:10:00 4.9 C 6.21 g/m*3 4.9 C 1.6 km/h
460 26-11-2020 14:15:00 5 C 6.25 g/m*3 5 C 0 km/h
461 26-11-2020 14:20:00 5.1 C 6.29 g/m*3 5.1 C 0 km/h
462 26-11-2020 14:25:00 5.1 C 6.29 g/m*3 3.71 C 6.4 km/h
463 26-11-2020 14:30:00 5.2 C 6.33 g/m*3 3.34 C 8.1 km/h
464 26-11-2020 14:35:00 5.2 C 6.33 g/m*3 3.34 C 8.1 km/h
465 26-11-2020 14:40:00 5.2 C 6.33 g/m*3 5.2 C 1.6 km/h
466 26-11-2020 14:45:00 5.2 C 6.33 g/m*3 5.2 C 1.6 km/h
467 26-11-2020 14:50:00 5.2 C 6.27 g/m*3 5.2 C 4.8 km/h
468 26-11-2020 14:55:00 5.2 C 6.27 g/m*3 5.2 C 4.8 km/h
469 26-11-2020 15:00:00 5.2 C 6.27 g/m*3 5.2 C 3.2 km/h
470 26-11-2020 15:05:00 5.3 C 6.31 g/m*3 3.94 C 6.4 km/h
471 26-11-2020 15:10:00 5.2 C 6.27 g/m*3 5.2 C 3.2 km/h
472 26-11-2020 15:15:00 5.2 C 6.27 g/m*3 5.2 C 0 km/h
473 26-11-2020 15:20:00 5.1 C 6.22 g/m*3 5.1 C 1.6 km/h
474 26-11-2020 15:25:00 5.1 C 6.22 g/m*3 5.1 C 1.6 km/h
475 26-11-2020 15:30:00 5.1 C 6.22 g/m*3 5.1 C 1.6 km/h
Sensor: Nr:Datum:Temp:Abs-Feuchte:Windchill:Wind:
Aussen-T/F 476 26-11-2020 15:35:00 5.1 C 6.22 g/m*3 5.1 C 1.6 km/h
477 26-11-2020 15:40:00 5.1 C 6.22 g/m*3 5.1 C 1.6 km/h
478 26-11-2020 15:45:00 5.1 C 6.22 g/m*3 5.1 C 0 km/h
479 26-11-2020 15:50:00 5.1 C 6.29 g/m*3 5.1 C 4.8 km/h
480 26-11-2020 15:55:00 5 C 6.25 g/m*3 5 C 3.2 km/h
481 26-11-2020 16:00:00 5 C 6.25 g/m*3 5 C 1.6 km/h
482 26-11-2020 16:05:00 5 C 6.18 g/m*3 5 C 0 km/h
483 26-11-2020 16:10:00 4.9 C 6.21 g/m*3 4.9 C 0 km/h
484 26-11-2020 16:15:00 4.9 C 6.14 g/m*3 2.99 C 8.1 km/h
485 26-11-2020 16:20:00 4.9 C 6.14 g/m*3 4.9 C 0 km/h
486 26-11-2020 16:25:00 4.8 C 6.17 g/m*3 4.8 C 0 km/h
487 26-11-2020 16:30:00 4.8 C 6.17 g/m*3 4.8 C 0 km/h
488 26-11-2020 16:35:00 4.8 C 6.17 g/m*3 4.8 C 4.8 km/h
489 26-11-2020 16:40:00 4.7 C 6.13 g/m*3 4.7 C 0 km/h
490 26-11-2020 16:45:00 4.7 C 6.13 g/m*3 4.7 C 0 km/h
491 26-11-2020 16:50:00 4.7 C 6.13 g/m*3 4.7 C 1.6 km/h
492 26-11-2020 16:55:00 4.6 C 6.09 g/m*3 4.6 C 3.2 km/h
493 26-11-2020 17:00:00 4.6 C 6.09 g/m*3 4.6 C 3.2 km/h
494 26-11-2020 17:05:00 4.5 C 6.05 g/m*3 4.5 C 1.6 km/h
495 26-11-2020 17:10:00 4.4 C 6.01 g/m*3 4.4 C 0 km/h
496 26-11-2020 17:15:00 4.4 C 6.01 g/m*3 4.4 C 0 km/h
497 26-11-2020 17:20:00 4.4 C 6.01 g/m*3 4.4 C 1.6 km/h
498 26-11-2020 17:25:00 4.4 C 6.01 g/m*3 4.4 C 3.2 km/h
499 26-11-2020 17:30:00 4.4 C 6.07 g/m*3 4.4 C 1.6 km/h
500 26-11-2020 17:35:00 4.3 C 6.03 g/m*3 4.3 C 3.2 km/h
Sensor: Nr:Datum:Temp:Abs-Feuchte:Windchill:Wind:
Aussen-T/F 501 26-11-2020 17:40:00 4.3 C 6.03 g/m*3 4.3 C 1.6 km/h
502 26-11-2020 17:45:00 4.3 C 6.03 g/m*3 4.3 C 4.8 km/h
503 26-11-2020 17:50:00 4.3 C 6.03 g/m*3 4.3 C 1.6 km/h
504 26-11-2020 17:55:00 4.3 C 6.03 g/m*3 4.3 C 0 km/h
505 26-11-2020 18:00:00 4.2 C 5.99 g/m*3 4.2 C 0 km/h
506 26-11-2020 18:05:00 4.2 C 5.99 g/m*3 4.2 C 1.6 km/h
507 26-11-2020 18:10:00 4.2 C 5.99 g/m*3 4.2 C 4.8 km/h
508 26-11-2020 18:15:00 4.2 C 5.99 g/m*3 4.2 C 4.8 km/h
509 26-11-2020 18:20:00 4.2 C 5.99 g/m*3 4.2 C 0 km/h
510 26-11-2020 18:25:00 4.2 C 5.99 g/m*3 4.2 C 0 km/h
511 26-11-2020 18:30:00 4.2 C 5.99 g/m*3 4.2 C 0 km/h
512 26-11-2020 18:35:00 4.2 C 5.99 g/m*3 4.2 C 0 km/h
513 26-11-2020 18:40:00 4.1 C 5.95 g/m*3 4.1 C 1.6 km/h
514 26-11-2020 18:45:00 4.1 C 5.95 g/m*3 4.1 C 0 km/h
515 26-11-2020 18:50:00 4.1 C 5.95 g/m*3 4.1 C 1.6 km/h
516 26-11-2020 18:55:00 4.1 C 5.95 g/m*3 4.1 C 4.8 km/h
517 26-11-2020 19:00:00 4.1 C 5.95 g/m*3 4.1 C 0 km/h
518 26-11-2020 19:05:00 4.1 C 5.95 g/m*3 4.1 C 0 km/h
519 26-11-2020 19:10:00 4.1 C 5.95 g/m*3 4.1 C 0 km/h
520 26-11-2020 19:15:00 4.1 C 5.95 g/m*3 4.1 C 0 km/h
521 26-11-2020 19:20:00 4.1 C 5.95 g/m*3 4.1 C 0 km/h
522 26-11-2020 19:25:00 4.1 C 5.95 g/m*3 4.1 C 0 km/h
523 26-11-2020 19:30:00 4.1 C 5.95 g/m*3 4.1 C 0 km/h
524 26-11-2020 19:35:00 4.1 C 5.95 g/m*3 4.1 C 0 km/h
525 26-11-2020 19:40:00 4.1 C 5.95 g/m*3 4.1 C 0 km/h
Sensor: Nr:Datum:Temp:Abs-Feuchte:Windchill:Wind:
Aussen-T/F 526 26-11-2020 19:45:00 4.1 C 5.95 g/m*3 4.1 C 0 km/h
527 26-11-2020 19:50:00 4.1 C 5.95 g/m*3 4.1 C 1.6 km/h
528 26-11-2020 19:55:00 4.1 C 5.95 g/m*3 4.1 C 0 km/h
529 26-11-2020 20:00:00 4.1 C 5.95 g/m*3 4.1 C 0 km/h
530 26-11-2020 20:05:00 4 C 5.91 g/m*3 4 C 0 km/h
531 26-11-2020 20:10:00 4 C 5.91 g/m*3 4 C 0 km/h
532 26-11-2020 20:15:00 4.1 C 5.95 g/m*3 4.1 C 3.2 km/h
533 26-11-2020 20:20:00 4.1 C 5.95 g/m*3 4.1 C 0 km/h
534 26-11-2020 20:25:00 4 C 5.91 g/m*3 4 C 4.8 km/h
535 26-11-2020 20:30:00 3.9 C 5.87 g/m*3 3.9 C 3.2 km/h
536 26-11-2020 20:35:00 3.9 C 5.87 g/m*3 3.9 C 0 km/h
537 26-11-2020 20:40:00 3.8 C 5.77 g/m*3 3.8 C 0 km/h
538 26-11-2020 20:45:00 3.6 C 5.69 g/m*3 3.6 C 0 km/h
539 26-11-2020 20:50:00 3.4 C 5.62 g/m*3 3.4 C 0 km/h
540 26-11-2020 20:55:00 3.3 C 5.58 g/m*3 3.3 C 0 km/h
541 26-11-2020 21:00:00 3.2 C 5.54 g/m*3 3.2 C 0 km/h
542 26-11-2020 21:05:00 3.1 C 5.51 g/m*3 3.1 C 0 km/h
543 26-11-2020 21:10:00 3.1 C 5.57 g/m*3 3.1 C 0 km/h
544 26-11-2020 21:15:00 3 C 5.53 g/m*3 3 C 3.2 km/h
545 26-11-2020 21:20:00 2.9 C 5.49 g/m*3 2.9 C 3.2 km/h
546 26-11-2020 21:25:00 2.8 C 5.46 g/m*3 2.8 C 0 km/h
547 26-11-2020 21:30:00 2.8 C 5.46 g/m*3 2.8 C 3.2 km/h
548 26-11-2020 21:35:00 2.7 C 5.42 g/m*3 2.7 C 3.2 km/h
549 26-11-2020 21:40:00 2.6 C 5.38 g/m*3 2.6 C 1.6 km/h
550 26-11-2020 21:45:00 2.5 C 5.35 g/m*3 2.5 C 0 km/h
Sensor: Nr:Datum:Temp:Abs-Feuchte:Windchill:Wind:
Aussen-T/F 551 26-11-2020 21:50:00 2.4 C 5.31 g/m*3 2.4 C 0 km/h
552 26-11-2020 21:55:00 2.5 C 5.4 g/m*3 2.5 C 0 km/h
553 26-11-2020 22:00:00 2.6 C 5.44 g/m*3 2.6 C 4.8 km/h
554 26-11-2020 22:05:00 2.8 C 5.51 g/m*3 2.8 C 1.6 km/h
555 26-11-2020 22:10:00 2.8 C 5.51 g/m*3 2.8 C 0 km/h
556 26-11-2020 22:15:00 2.8 C 5.51 g/m*3 2.8 C 0 km/h
557 26-11-2020 22:20:00 2.8 C 5.51 g/m*3 2.8 C 0 km/h
558 26-11-2020 22:25:00 2.9 C 5.55 g/m*3 2.9 C 0 km/h
559 26-11-2020 22:30:00 2.9 C 5.55 g/m*3 2.9 C 0 km/h
560 26-11-2020 22:35:00 2.9 C 5.55 g/m*3 2.9 C 0 km/h
561 26-11-2020 22:40:00 2.9 C 5.55 g/m*3 2.9 C 0 km/h
562 26-11-2020 22:45:00 3 C 5.59 g/m*3 3 C 0 km/h
563 26-11-2020 22:50:00 3 C 5.59 g/m*3 3 C 0 km/h
564 26-11-2020 22:55:00 3 C 5.59 g/m*3 3 C 0 km/h
565 26-11-2020 23:00:00 3 C 5.59 g/m*3 3 C 0 km/h
566 26-11-2020 23:05:00 2.9 C 5.55 g/m*3 2.9 C 0 km/h
567 26-11-2020 23:10:00 2.8 C 5.51 g/m*3 2.8 C 0 km/h
568 26-11-2020 23:15:00 2.8 C 5.51 g/m*3 2.8 C 0 km/h
569 26-11-2020 23:20:00 2.8 C 5.51 g/m*3 2.8 C 0 km/h
570 26-11-2020 23:25:00 2.7 C 5.48 g/m*3 2.7 C 0 km/h
571 26-11-2020 23:30:00 2.6 C 5.44 g/m*3 2.6 C 0 km/h
572 26-11-2020 23:35:00 2.5 C 5.4 g/m*3 2.5 C 0 km/h
573 26-11-2020 23:40:00 2.4 C 5.37 g/m*3 2.4 C 0 km/h
574 26-11-2020 23:45:00 2.3 C 5.33 g/m*3 2.3 C 0 km/h
575 26-11-2020 23:50:00 2.2 C 5.29 g/m*3 2.2 C 0 km/h
Sensor: Nr:Datum:Temp:Abs-Feuchte:Windchill:Wind:
Aussen-T/F 576 26-11-2020 23:55:00 2.1 C 5.26 g/m*3 2.1 C 0 km/h
577 27-11-2020 00:00:00 2.1 C 5.26 g/m*3 2.1 C 0 km/h
578 27-11-2020 00:05:00 2.1 C 5.26 g/m*3 2.1 C 0 km/h
579 27-11-2020 00:10:00 2.1 C 5.26 g/m*3 2.1 C 0 km/h
580 27-11-2020 00:15:00 2.2 C 5.29 g/m*3 2.2 C 0 km/h
581 27-11-2020 00:20:00 2.2 C 5.35 g/m*3 2.2 C 0 km/h
582 27-11-2020 00:25:00 2.2 C 5.35 g/m*3 2.2 C 0 km/h
583 27-11-2020 00:30:00 2.3 C 5.39 g/m*3 2.3 C 0 km/h
584 27-11-2020 00:35:00 2.3 C 5.39 g/m*3 2.3 C 0 km/h
585 27-11-2020 00:40:00 2.3 C 5.39 g/m*3 2.3 C 0 km/h
586 27-11-2020 00:45:00 2.4 C 5.42 g/m*3 2.4 C 0 km/h
587 27-11-2020 00:50:00 2.4 C 5.42 g/m*3 2.4 C 0 km/h
588 27-11-2020 00:55:00 2.5 C 5.46 g/m*3 2.5 C 0 km/h
589 27-11-2020 01:00:00 2.6 C 5.5 g/m*3 2.6 C 0 km/h
590 27-11-2020 01:05:00 2.6 C 5.5 g/m*3 2.6 C 0 km/h
591 27-11-2020 01:10:00 2.7 C 5.54 g/m*3 2.7 C 0 km/h
592 27-11-2020 01:15:00 2.8 C 5.57 g/m*3 2.8 C 0 km/h
593 27-11-2020 01:20:00 2.8 C 5.57 g/m*3 2.8 C 0 km/h
594 27-11-2020 01:25:00 2.9 C 5.61 g/m*3 2.9 C 0 km/h
595 27-11-2020 01:30:00 2.9 C 5.61 g/m*3 2.9 C 0 km/h
596 27-11-2020 01:35:00 2.9 C 5.61 g/m*3 2.9 C 0 km/h
597 27-11-2020 01:40:00 2.9 C 5.61 g/m*3 2.9 C 0 km/h
598 27-11-2020 01:45:00 3 C 5.65 g/m*3 3 C 0 km/h
599 27-11-2020 01:50:00 3 C 5.65 g/m*3 3 C 0 km/h
600 27-11-2020 01:55:00 3 C 5.65 g/m*3 3 C 0 km/h
Sensor: Nr:Datum:Temp:Abs-Feuchte:Windchill:Wind:
Aussen-T/F 601 27-11-2020 02:00:00 3 C 5.65 g/m*3 3 C 0 km/h
602 27-11-2020 02:05:00 3 C 5.65 g/m*3 3 C 0 km/h
603 27-11-2020 02:10:00 3 C 5.65 g/m*3 3 C 0 km/h
604 27-11-2020 02:15:00 3 C 5.65 g/m*3 3 C 0 km/h
605 27-11-2020 02:20:00 3 C 5.65 g/m*3 3 C 0 km/h
606 27-11-2020 02:25:00 3 C 5.65 g/m*3 3 C 0 km/h
607 27-11-2020 02:30:00 3 C 5.65 g/m*3 3 C 0 km/h
608 27-11-2020 02:35:00 3 C 5.65 g/m*3 3 C 0 km/h
609 27-11-2020 02:40:00 3 C 5.65 g/m*3 3 C 0 km/h
610 27-11-2020 02:45:00 3 C 5.65 g/m*3 3 C 0 km/h
611 27-11-2020 02:50:00 3 C 5.65 g/m*3 3 C 0 km/h
612 27-11-2020 02:55:00 3 C 5.65 g/m*3 3 C 0 km/h
613 27-11-2020 03:00:00 3 C 5.65 g/m*3 3 C 0 km/h
614 27-11-2020 03:05:00 3 C 5.65 g/m*3 3 C 0 km/h
615 27-11-2020 03:10:00 3 C 5.65 g/m*3 3 C 0 km/h
616 27-11-2020 03:15:00 2.9 C 5.61 g/m*3 2.9 C 0 km/h
617 27-11-2020 03:20:00 2.9 C 5.61 g/m*3 2.9 C 0 km/h
618 27-11-2020 03:25:00 2.9 C 5.61 g/m*3 2.9 C 0 km/h
619 27-11-2020 03:30:00 2.9 C 5.61 g/m*3 2.9 C 0 km/h
620 27-11-2020 03:35:00 2.9 C 5.61 g/m*3 2.9 C 0 km/h
621 27-11-2020 03:40:00 2.9 C 5.61 g/m*3 2.9 C 0 km/h
622 27-11-2020 03:45:00 2.9 C 5.61 g/m*3 2.9 C 0 km/h
623 27-11-2020 03:50:00 2.9 C 5.61 g/m*3 2.9 C 0 km/h
624 27-11-2020 03:55:00 2.8 C 5.57 g/m*3 2.8 C 0 km/h
625 27-11-2020 04:00:00 2.9 C 5.61 g/m*3 2.9 C 0 km/h
Sensor: Nr:Datum:Temp:Abs-Feuchte:Windchill:Wind:
Aussen-T/F 626 27-11-2020 04:05:00 2.9 C 5.61 g/m*3 2.9 C 0 km/h
627 27-11-2020 04:10:00 2.9 C 5.61 g/m*3 2.9 C 0 km/h
628 27-11-2020 04:15:00 2.9 C 5.61 g/m*3 2.9 C 0 km/h
629 27-11-2020 04:20:00 2.9 C 5.61 g/m*3 2.9 C 1.6 km/h
630 27-11-2020 04:25:00 2.8 C 5.57 g/m*3 2.8 C 0 km/h
631 27-11-2020 04:30:00 2.8 C 5.57 g/m*3 2.8 C 0 km/h
632 27-11-2020 04:35:00 2.8 C 5.57 g/m*3 2.8 C 0 km/h
633 27-11-2020 04:40:00 2.8 C 5.57 g/m*3 2.8 C 0 km/h
634 27-11-2020 04:45:00 2.8 C 5.57 g/m*3 2.8 C 0 km/h
635 27-11-2020 04:50:00 2.9 C 5.61 g/m*3 2.9 C 0 km/h
636 27-11-2020 04:55:00 2.9 C 5.61 g/m*3 2.9 C 1.6 km/h
637 27-11-2020 05:00:00 2.9 C 5.61 g/m*3 2.9 C 0 km/h
638 27-11-2020 05:05:00 2.8 C 5.57 g/m*3 2.8 C 3.2 km/h
639 27-11-2020 05:10:00 2.8 C 5.57 g/m*3 2.8 C 0 km/h
640 27-11-2020 05:15:00 2.8 C 5.57 g/m*3 2.8 C 1.6 km/h
641 27-11-2020 05:20:00 2.8 C 5.57 g/m*3 2.8 C 0 km/h
642 27-11-2020 05:25:00 2.7 C 5.54 g/m*3 2.7 C 0 km/h
643 27-11-2020 05:30:00 2.7 C 5.54 g/m*3 2.7 C 0 km/h
644 27-11-2020 05:35:00 2.7 C 5.54 g/m*3 2.7 C 0 km/h
645 27-11-2020 05:40:00 2.7 C 5.54 g/m*3 2.7 C 0 km/h
646 27-11-2020 05:45:00 2.7 C 5.54 g/m*3 2.7 C 0 km/h
647 27-11-2020 05:50:00 2.7 C 5.54 g/m*3 2.7 C 0 km/h
648 27-11-2020 05:55:00 2.8 C 5.57 g/m*3 2.8 C 0 km/h
649 27-11-2020 06:00:00 2.8 C 5.57 g/m*3 2.8 C 0 km/h
650 27-11-2020 06:05:00 2.8 C 5.57 g/m*3 2.8 C 0 km/h
Sensor: Nr:Datum:Temp:Abs-Feuchte:Windchill:Wind:
Aussen-T/F 651 27-11-2020 06:10:00 2.8 C 5.57 g/m*3 2.8 C 1.6 km/h
652 27-11-2020 06:15:00 2.8 C 5.57 g/m*3 2.8 C 1.6 km/h
653 27-11-2020 06:20:00 2.7 C 5.54 g/m*3 2.7 C 1.6 km/h
654 27-11-2020 06:25:00 2.7 C 5.54 g/m*3 2.7 C 0 km/h
655 27-11-2020 06:30:00 2.7 C 5.54 g/m*3 2.7 C 0 km/h
656 27-11-2020 06:35:00 2.7 C 5.54 g/m*3 2.7 C 0 km/h
657 27-11-2020 06:40:00 2.6 C 5.5 g/m*3 2.6 C 0 km/h
658 27-11-2020 06:45:00 2.6 C 5.5 g/m*3 2.6 C 0 km/h
659 27-11-2020 06:50:00 2.6 C 5.5 g/m*3 2.6 C 0 km/h
660 27-11-2020 06:55:00 2.6 C 5.5 g/m*3 2.6 C 0 km/h
661 27-11-2020 07:00:00 2.6 C 5.5 g/m*3 2.6 C 0 km/h
662 27-11-2020 07:05:00 2.6 C 5.5 g/m*3 2.6 C 0 km/h
663 27-11-2020 07:10:00 2.6 C 5.5 g/m*3 2.6 C 0 km/h
664 27-11-2020 07:15:00 2.7 C 5.54 g/m*3 2.7 C 1.6 km/h
665 27-11-2020 07:20:00 2.7 C 5.54 g/m*3 2.7 C 0 km/h
666 27-11-2020 07:25:00 2.7 C 5.54 g/m*3 2.7 C 0 km/h
667 27-11-2020 07:30:00 2.7 C 5.54 g/m*3 2.7 C 0 km/h
668 27-11-2020 07:35:00 2.7 C 5.54 g/m*3 2.7 C 0 km/h
669 27-11-2020 07:40:00 2.7 C 5.54 g/m*3 2.7 C 0 km/h
670 27-11-2020 07:45:00 2.7 C 5.54 g/m*3 2.7 C 0 km/h
671 27-11-2020 07:50:00 2.7 C 5.54 g/m*3 2.7 C 0 km/h
672 27-11-2020 07:55:00 2.8 C 5.57 g/m*3 2.8 C 0 km/h
673 27-11-2020 08:00:00 2.8 C 5.57 g/m*3 2.8 C 0 km/h
674 27-11-2020 08:05:00 2.8 C 5.57 g/m*3 2.8 C 0 km/h
675 27-11-2020 08:10:00 2.8 C 5.63 g/m*3 2.8 C 0 km/h
Sensor: Nr:Datum:Temp:Abs-Feuchte:Windchill:Wind:
Aussen-T/F 676 27-11-2020 08:15:00 2.8 C 5.63 g/m*3 2.8 C 0 km/h
677 27-11-2020 08:20:00 2.8 C 5.63 g/m*3 2.8 C 0 km/h
678 27-11-2020 08:25:00 2.8 C 5.63 g/m*3 2.8 C 1.6 km/h
679 27-11-2020 08:30:00 2.8 C 5.63 g/m*3 2.8 C 0 km/h
680 27-11-2020 08:35:00 2.8 C 5.63 g/m*3 2.8 C 0 km/h
681 27-11-2020 08:40:00 2.8 C 5.57 g/m*3 2.8 C 0 km/h
682 27-11-2020 08:45:00 2.8 C 5.57 g/m*3 2.8 C 0 km/h
683 27-11-2020 08:50:00 2.8 C 5.57 g/m*3 2.8 C 0 km/h
684 27-11-2020 08:55:00 2.8 C 5.57 g/m*3 2.8 C 0 km/h
685 27-11-2020 09:00:00 2.8 C 5.57 g/m*3 2.8 C 0 km/h
686 27-11-2020 09:05:00 2.8 C 5.63 g/m*3 2.8 C 0 km/h
687 27-11-2020 09:10:00 2.8 C 5.63 g/m*3 2.8 C 0 km/h
688 27-11-2020 09:15:00 2.9 C 5.67 g/m*3 2.9 C 0 km/h
689 27-11-2020 09:20:00 2.9 C 5.67 g/m*3 2.9 C 0 km/h
690 27-11-2020 09:25:00 2.9 C 5.67 g/m*3 2.9 C 0 km/h
691 27-11-2020 09:30:00 2.9 C 5.67 g/m*3 2.9 C 0 km/h
692 27-11-2020 09:35:00 3 C 5.71 g/m*3 3 C 0 km/h
693 27-11-2020 09:40:00 3.1 C 5.75 g/m*3 3.1 C 0 km/h
694 27-11-2020 09:45:00 3.1 C 5.75 g/m*3 3.1 C 0 km/h
695 27-11-2020 09:50:00 3.2 C 5.72 g/m*3 3.2 C 0 km/h
696 27-11-2020 09:55:00 3.2 C 5.79 g/m*3 3.2 C 0 km/h
697 27-11-2020 10:00:00 3.3 C 5.82 g/m*3 3.3 C 0 km/h
698 27-11-2020 10:05:00 3.3 C 5.76 g/m*3 3.3 C 3.2 km/h
699 27-11-2020 10:10:00 3.3 C 5.76 g/m*3 3.3 C 3.2 km/h
700 27-11-2020 10:15:00 3.3 C 5.76 g/m*3 3.3 C 4.8 km/h
Sensor: Nr:Datum:Temp:Abs-Feuchte:Windchill:Wind:
Aussen-T/F 701 27-11-2020 10:20:00 3.4 C 5.8 g/m*3 3.4 C 3.2 km/h
702 27-11-2020 10:25:00 3.4 C 5.8 g/m*3 3.4 C 1.6 km/h
703 27-11-2020 10:30:00 3.5 C 5.84 g/m*3 3.5 C 1.6 km/h
704 27-11-2020 10:35:00 3.6 C 5.88 g/m*3 3.6 C 1.6 km/h
705 27-11-2020 10:40:00 3.6 C 5.88 g/m*3 1.98 C 6.4 km/h
706 27-11-2020 10:45:00 3.6 C 5.88 g/m*3 1.98 C 6.4 km/h
707 27-11-2020 10:50:00 3.6 C 5.88 g/m*3 1.98 C 6.4 km/h
708 27-11-2020 10:55:00 3.6 C 5.88 g/m*3 3.6 C 4.8 km/h
709 27-11-2020 11:00:00 3.7 C 5.92 g/m*3 3.7 C 3.2 km/h
710 27-11-2020 11:05:00 3.7 C 5.86 g/m*3 3.7 C 1.6 km/h
711 27-11-2020 11:10:00 3.7 C 5.86 g/m*3 3.7 C 0 km/h
712 27-11-2020 11:15:00 3.7 C 5.86 g/m*3 3.7 C 3.2 km/h
713 27-11-2020 11:20:00 3.8 C 5.9 g/m*3 3.8 C 3.2 km/h
714 27-11-2020 11:25:00 3.8 C 5.9 g/m*3 3.8 C 3.2 km/h
715 27-11-2020 11:30:00 3.9 C 5.94 g/m*3 3.9 C 1.6 km/h
716 27-11-2020 11:35:00 3.9 C 5.94 g/m*3 3.9 C 3.2 km/h
717 27-11-2020 11:40:00 3.9 C 5.94 g/m*3 3.9 C 0 km/h
718 27-11-2020 11:45:00 4 C 5.98 g/m*3 4 C 1.6 km/h
719 27-11-2020 11:50:00 4 C 5.91 g/m*3 4 C 4.8 km/h
720 27-11-2020 11:55:00 4.1 C 5.95 g/m*3 4.1 C 3.2 km/h
721 27-11-2020 12:00:00 4 C 5.91 g/m*3 4 C 4.8 km/h
722 27-11-2020 12:05:00 4 C 5.91 g/m*3 4 C 4.8 km/h
723 27-11-2020 12:10:00 4 C 5.91 g/m*3 4 C 4.8 km/h
724 27-11-2020 12:15:00 4 C 5.91 g/m*3 1.53 C 9.7 km/h
725 27-11-2020 12:20:00 4 C 5.91 g/m*3 4 C 3.2 km/h
Sensor: Nr:Datum:Temp:Abs-Feuchte:Windchill:Wind:
Aussen-T/F 726 27-11-2020 12:25:00 4 C 5.91 g/m*3 2.44 C 6.4 km/h
727 27-11-2020 12:30:00 4 C 5.85 g/m*3 4 C 4.8 km/h
728 27-11-2020 12:35:00 4 C 5.85 g/m*3 4 C 3.2 km/h
729 27-11-2020 12:40:00 4 C 5.85 g/m*3 4 C 4.8 km/h
730 27-11-2020 12:45:00 4 C 5.85 g/m*3 4 C 4.8 km/h
731 27-11-2020 12:50:00 4.1 C 5.89 g/m*3 4.1 C 4.8 km/h
732 27-11-2020 12:55:00 4.1 C 5.89 g/m*3 4.1 C 4.8 km/h
733 27-11-2020 13:00:00 4.1 C 5.89 g/m*3 4.1 C 4.8 km/h
734 27-11-2020 13:05:00 4 C 5.85 g/m*3 2.44 C 6.4 km/h
735 27-11-2020 13:10:00 4.1 C 5.89 g/m*3 4.1 C 3.2 km/h
736 27-11-2020 13:15:00 4.1 C 5.89 g/m*3 4.1 C 0 km/h
737 27-11-2020 13:20:00 4.1 C 5.89 g/m*3 4.1 C 0 km/h
738 27-11-2020 13:25:00 4.2 C 5.93 g/m*3 4.2 C 3.2 km/h
739 27-11-2020 13:30:00 4.2 C 5.93 g/m*3 4.2 C 3.2 km/h
740 27-11-2020 13:35:00 4.2 C 5.93 g/m*3 4.2 C 3.2 km/h
741 27-11-2020 13:40:00 4.2 C 5.93 g/m*3 4.2 C 4.8 km/h
742 27-11-2020 13:45:00 4.2 C 5.86 g/m*3 2.67 C 6.4 km/h
743 27-11-2020 13:50:00 4.2 C 5.93 g/m*3 4.2 C 1.6 km/h
744 27-11-2020 13:55:00 4.2 C 5.93 g/m*3 4.2 C 0 km/h
745 27-11-2020 14:00:00 4.3 C 5.97 g/m*3 4.3 C 4.8 km/h
746 27-11-2020 14:05:00 4.3 C 5.97 g/m*3 4.3 C 1.6 km/h
747 27-11-2020 14:10:00 4.3 C 5.97 g/m*3 2.78 C 6.4 km/h
748 27-11-2020 14:15:00 4.4 C 6.01 g/m*3 4.4 C 1.6 km/h
749 27-11-2020 14:20:00 4.4 C 6.01 g/m*3 4.4 C 1.6 km/h
750 27-11-2020 14:25:00 4.4 C 6.01 g/m*3 2.9 C 6.4 km/h
Sensor: Nr:Datum:Temp:Abs-Feuchte:Windchill:Wind:
Aussen-T/F 751 27-11-2020 14:30:00 4.4 C 6.01 g/m*3 4.4 C 1.6 km/h
752 27-11-2020 14:35:00 4.4 C 6.01 g/m*3 4.4 C 1.6 km/h
753 27-11-2020 14:40:00 4.5 C 6.05 g/m*3 4.5 C 1.6 km/h
754 27-11-2020 14:45:00 4.5 C 6.05 g/m*3 4.5 C 1.6 km/h
755 27-11-2020 14:50:00 4.6 C 6.09 g/m*3 4.6 C 0 km/h
756 27-11-2020 14:55:00 4.6 C 6.09 g/m*3 4.6 C 1.6 km/h
757 27-11-2020 15:00:00 4.6 C 6.09 g/m*3 4.6 C 3.2 km/h
758 27-11-2020 15:05:00 4.6 C 6.09 g/m*3 4.6 C 1.6 km/h
759 27-11-2020 15:10:00 4.7 C 6.13 g/m*3 4.7 C 4.8 km/h
760 27-11-2020 15:15:00 4.6 C 6.02 g/m*3 4.6 C 3.2 km/h
761 27-11-2020 15:20:00 4.7 C 6.13 g/m*3 4.7 C 3.2 km/h
762 27-11-2020 15:25:00 4.7 C 6.13 g/m*3 4.7 C 1.6 km/h
763 27-11-2020 15:30:00 4.7 C 6.13 g/m*3 4.7 C 1.6 km/h
764 27-11-2020 15:35:00 4.7 C 6.13 g/m*3 4.7 C 4.8 km/h
765 27-11-2020 15:40:00 4.7 C 6.13 g/m*3 4.7 C 1.6 km/h
766 27-11-2020 15:45:00 4.7 C 6.13 g/m*3 4.7 C 1.6 km/h
767 27-11-2020 15:50:00 4.7 C 6.13 g/m*3 4.7 C 0 km/h
768 27-11-2020 15:55:00 4.7 C 6.13 g/m*3 3.25 C 6.4 km/h
769 27-11-2020 16:00:00 4.6 C 6.09 g/m*3 4.6 C 3.2 km/h
770 27-11-2020 16:05:00 4.6 C 6.09 g/m*3 4.6 C 4.8 km/h
771 27-11-2020 16:10:00 4.6 C 6.09 g/m*3 4.6 C 4.8 km/h
772 27-11-2020 16:15:00 4.6 C 6.09 g/m*3 4.6 C 0 km/h
773 27-11-2020 16:20:00 4.6 C 6.09 g/m*3 4.6 C 0 km/h
774 27-11-2020 16:25:00 4.6 C 6.09 g/m*3 4.6 C 0 km/h
775 27-11-2020 16:30:00 4.6 C 6.09 g/m*3 4.6 C 3.2 km/h
Sensor: Nr:Datum:Temp:Abs-Feuchte:Windchill:Wind:
Aussen-T/F 776 27-11-2020 16:35:00 4.6 C 6.09 g/m*3 4.6 C 1.6 km/h
777 27-11-2020 16:40:00 4.6 C 6.09 g/m*3 4.6 C 1.6 km/h
778 27-11-2020 16:45:00 4.6 C 6.09 g/m*3 4.6 C 0 km/h
779 27-11-2020 16:50:00 4.6 C 6.09 g/m*3 4.6 C 0 km/h
780 27-11-2020 16:55:00 4.6 C 6.09 g/m*3 4.6 C 0 km/h
781 27-11-2020 17:00:00 4.6 C 6.09 g/m*3 4.6 C 0 km/h
782 27-11-2020 17:05:00 4.6 C 6.09 g/m*3 4.6 C 3.2 km/h
783 27-11-2020 17:10:00 4.6 C 6.09 g/m*3 4.6 C 0 km/h
784 27-11-2020 17:15:00 4.6 C 6.09 g/m*3 4.6 C 0 km/h
785 27-11-2020 17:20:00 4.6 C 6.09 g/m*3 4.6 C 0 km/h
786 27-11-2020 17:25:00 4.6 C 6.15 g/m*3 4.6 C 3.2 km/h
787 27-11-2020 17:30:00 4.6 C 6.09 g/m*3 4.6 C 1.6 km/h
788 27-11-2020 17:35:00 4.6 C 6.15 g/m*3 4.6 C 1.6 km/h
789 27-11-2020 17:40:00 4.6 C 6.15 g/m*3 4.6 C 4.8 km/h
790 27-11-2020 17:45:00 4.6 C 6.15 g/m*3 4.6 C 1.6 km/h
791 27-11-2020 17:50:00 4.6 C 6.15 g/m*3 4.6 C 0 km/h
792 27-11-2020 17:55:00 4.6 C 6.15 g/m*3 4.6 C 0 km/h
793 27-11-2020 18:00:00 4.6 C 6.15 g/m*3 4.6 C 3.2 km/h
794 27-11-2020 18:05:00 4.6 C 6.15 g/m*3 4.6 C 3.2 km/h
795 27-11-2020 18:10:00 4.6 C 6.15 g/m*3 4.6 C 3.2 km/h
796 27-11-2020 18:15:00 4.5 C 6.11 g/m*3 4.5 C 1.6 km/h
797 27-11-2020 18:20:00 4.5 C 6.11 g/m*3 4.5 C 0 km/h
798 27-11-2020 18:25:00 4.5 C 6.11 g/m*3 4.5 C 0 km/h
799 27-11-2020 18:30:00 4.5 C 6.11 g/m*3 4.5 C 0 km/h
800 27-11-2020 18:35:00 4.5 C 6.11 g/m*3 4.5 C 3.2 km/h
Sensor: Nr:Datum:Temp:Abs-Feuchte:Windchill:Wind:
Aussen-T/F 801 27-11-2020 18:40:00 4.5 C 6.11 g/m*3 4.5 C 1.6 km/h
802 27-11-2020 18:45:00 4.5 C 6.11 g/m*3 4.5 C 0 km/h
803 27-11-2020 18:50:00 4.5 C 6.11 g/m*3 4.5 C 0 km/h
804 27-11-2020 18:55:00 4.4 C 6.07 g/m*3 4.4 C 0 km/h
805 27-11-2020 19:00:00 4.5 C 6.11 g/m*3 4.5 C 0 km/h
806 27-11-2020 19:05:00 4.5 C 6.11 g/m*3 4.5 C 0 km/h
807 27-11-2020 19:10:00 4.5 C 6.11 g/m*3 4.5 C 0 km/h
808 27-11-2020 19:15:00 4.5 C 6.11 g/m*3 4.5 C 1.6 km/h
809 27-11-2020 19:20:00 4.5 C 6.11 g/m*3 4.5 C 1.6 km/h
810 27-11-2020 19:25:00 4.5 C 6.11 g/m*3 4.5 C 1.6 km/h
811 27-11-2020 19:30:00 4.4 C 6.07 g/m*3 4.4 C 1.6 km/h
812 27-11-2020 19:35:00 4.4 C 6.07 g/m*3 4.4 C 0 km/h
813 27-11-2020 19:40:00 4.4 C 6.07 g/m*3 4.4 C 0 km/h
814 27-11-2020 19:45:00 4.4 C 6.07 g/m*3 4.4 C 0 km/h
815 27-11-2020 19:50:00 4.4 C 6.07 g/m*3 4.4 C 0 km/h
816 27-11-2020 19:55:00 4.4 C 6.07 g/m*3 4.4 C 0 km/h
817 27-11-2020 20:00:00 4.4 C 6.07 g/m*3 4.4 C 0 km/h
818 27-11-2020 20:05:00 4.4 C 6.07 g/m*3 4.4 C 1.6 km/h
819 27-11-2020 20:10:00 4.3 C 6.03 g/m*3 4.3 C 0 km/h
820 27-11-2020 20:15:00 4.4 C 6.07 g/m*3 4.4 C 0 km/h
821 27-11-2020 20:20:00 4.3 C 6.03 g/m*3 4.3 C 0 km/h
822 27-11-2020 20:25:00 4.4 C 6.14 g/m*3 4.4 C 0 km/h
823 27-11-2020 20:30:00 4.4 C 6.14 g/m*3 4.4 C 4.8 km/h
824 27-11-2020 20:35:00 4.4 C 6.07 g/m*3 4.4 C 0 km/h
825 27-11-2020 20:40:00 4.4 C 6.07 g/m*3 4.4 C 0 km/h
Sensor: Nr:Datum:Temp:Abs-Feuchte:Windchill:Wind:
Aussen-T/F 826 27-11-2020 20:45:00 4.4 C 6.07 g/m*3 4.4 C 0 km/h
827 27-11-2020 20:50:00 4.4 C 6.07 g/m*3 4.4 C 0 km/h
828 27-11-2020 20:55:00 4.4 C 6.07 g/m*3 4.4 C 0 km/h
829 27-11-2020 21:00:00 4.4 C 6.07 g/m*3 4.4 C 1.6 km/h
830 27-11-2020 21:05:00 4.4 C 6.07 g/m*3 4.4 C 0 km/h
831 27-11-2020 21:10:00 4.4 C 6.07 g/m*3 4.4 C 1.6 km/h
832 27-11-2020 21:15:00 4.3 C 6.03 g/m*3 4.3 C 0 km/h
833 27-11-2020 21:20:00 4.4 C 6.07 g/m*3 4.4 C 0 km/h
834 27-11-2020 21:25:00 4.4 C 6.07 g/m*3 4.4 C 0 km/h
835 27-11-2020 21:30:00 4.4 C 6.07 g/m*3 4.4 C 0 km/h
836 27-11-2020 21:35:00 4.4 C 6.07 g/m*3 4.4 C 0 km/h
837 27-11-2020 21:40:00 4.4 C 6.07 g/m*3 4.4 C 0 km/h
838 27-11-2020 21:45:00 4.4 C 6.07 g/m*3 4.4 C 0 km/h
839 27-11-2020 21:50:00 4.4 C 6.07 g/m*3 4.4 C 0 km/h
840 27-11-2020 21:55:00 4.4 C 6.07 g/m*3 4.4 C 0 km/h
841 27-11-2020 22:00:00 4.4 C 6.07 g/m*3 4.4 C 0 km/h
842 27-11-2020 22:05:00 4.4 C 6.07 g/m*3 4.4 C 0 km/h
843 27-11-2020 22:10:00 4.4 C 6.07 g/m*3 4.4 C 0 km/h
844 27-11-2020 22:15:00 4.3 C 6.03 g/m*3 4.3 C 0 km/h
845 27-11-2020 22:20:00 4.3 C 6.03 g/m*3 4.3 C 0 km/h
846 27-11-2020 22:25:00 4.3 C 6.03 g/m*3 4.3 C 0 km/h
847 27-11-2020 22:30:00 4.3 C 6.03 g/m*3 4.3 C 0 km/h
848 27-11-2020 22:35:00 4.3 C 6.03 g/m*3 4.3 C 0 km/h
849 27-11-2020 22:40:00 4.3 C 6.03 g/m*3 4.3 C 0 km/h
850 27-11-2020 22:45:00 4.3 C 6.03 g/m*3 4.3 C 0 km/h
Sensor: Nr:Datum:Temp:Abs-Feuchte:Windchill:Wind:
Aussen-T/F 851 27-11-2020 22:50:00 4.2 C 5.99 g/m*3 4.2 C 0 km/h
852 27-11-2020 22:55:00 4.2 C 5.99 g/m*3 4.2 C 0 km/h
853 27-11-2020 23:00:00 4.2 C 5.99 g/m*3 4.2 C 3.2 km/h
854 27-11-2020 23:05:00 4.2 C 5.99 g/m*3 4.2 C 3.2 km/h
855 27-11-2020 23:10:00 4.2 C 5.99 g/m*3 4.2 C 0 km/h
856 27-11-2020 23:15:00 4.1 C 5.89 g/m*3 4.1 C 3.2 km/h
857 27-11-2020 23:20:00 4.1 C 5.95 g/m*3 4.1 C 0 km/h
858 27-11-2020 23:25:00 4.1 C 5.95 g/m*3 4.1 C 0 km/h
859 27-11-2020 23:30:00 4.1 C 5.95 g/m*3 4.1 C 1.6 km/h
860 27-11-2020 23:35:00 4 C 5.91 g/m*3 4 C 1.6 km/h
861 27-11-2020 23:40:00 4 C 5.91 g/m*3 4 C 1.6 km/h
862 27-11-2020 23:45:00 3.9 C 5.81 g/m*3 3.9 C 4.8 km/h
863 27-11-2020 23:50:00 3.9 C 5.87 g/m*3 3.9 C 4.8 km/h
864 27-11-2020 23:55:00 3.9 C 5.87 g/m*3 3.9 C 4.8 km/h
865 28-11-2020 00:00:00 3.8 C 5.77 g/m*3 3.8 C 3.2 km/h
866 28-11-2020 00:05:00 3.8 C 5.77 g/m*3 3.8 C 1.6 km/h
867 28-11-2020 00:10:00 3.8 C 5.83 g/m*3 3.8 C 0 km/h
868 28-11-2020 00:15:00 3.8 C 5.83 g/m*3 3.8 C 0 km/h
869 28-11-2020 00:20:00 3.8 C 5.83 g/m*3 3.8 C 0 km/h
870 28-11-2020 00:25:00 3.8 C 5.83 g/m*3 3.8 C 0 km/h
871 28-11-2020 00:30:00 3.8 C 5.83 g/m*3 3.8 C 0 km/h
872 28-11-2020 00:35:00 3.8 C 5.83 g/m*3 3.8 C 0 km/h
873 28-11-2020 00:40:00 3.7 C 5.8 g/m*3 3.7 C 0 km/h
874 28-11-2020 00:45:00 3.7 C 5.8 g/m*3 3.7 C 0 km/h
875 28-11-2020 00:50:00 3.7 C 5.8 g/m*3 3.7 C 4.8 km/h
Sensor: Nr:Datum:Temp:Abs-Feuchte:Windchill:Wind:
Aussen-T/F 876 28-11-2020 00:55:00 3.6 C 5.76 g/m*3 3.6 C 1.6 km/h
877 28-11-2020 01:00:00 3.6 C 5.76 g/m*3 3.6 C 3.2 km/h
878 28-11-2020 01:05:00 3.6 C 5.76 g/m*3 3.6 C 1.6 km/h
879 28-11-2020 01:10:00 3.6 C 5.76 g/m*3 3.6 C 0 km/h
880 28-11-2020 01:15:00 3.6 C 5.76 g/m*3 3.6 C 1.6 km/h
881 28-11-2020 01:20:00 3.6 C 5.76 g/m*3 3.6 C 0 km/h
882 28-11-2020 01:25:00 3.6 C 5.76 g/m*3 1.98 C 6.4 km/h
883 28-11-2020 01:30:00 3.6 C 5.76 g/m*3 1.98 C 6.4 km/h
884 28-11-2020 01:35:00 3.6 C 5.76 g/m*3 3.6 C 3.2 km/h
885 28-11-2020 01:40:00 3.6 C 5.76 g/m*3 3.6 C 0 km/h
886 28-11-2020 01:45:00 3.6 C 5.76 g/m*3 3.6 C 4.8 km/h
887 28-11-2020 01:50:00 3.6 C 5.76 g/m*3 3.6 C 3.2 km/h
888 28-11-2020 01:55:00 3.5 C 5.72 g/m*3 3.5 C 1.6 km/h
889 28-11-2020 02:00:00 3.5 C 5.72 g/m*3 3.5 C 3.2 km/h
890 28-11-2020 02:05:00 3.5 C 5.72 g/m*3 3.5 C 0 km/h
891 28-11-2020 02:10:00 3.5 C 5.72 g/m*3 3.5 C 3.2 km/h
892 28-11-2020 02:15:00 3.4 C 5.68 g/m*3 3.4 C 1.6 km/h
893 28-11-2020 02:20:00 3.4 C 5.68 g/m*3 3.4 C 0 km/h
894 28-11-2020 02:25:00 3.4 C 5.68 g/m*3 3.4 C 0 km/h
895 28-11-2020 02:30:00 3.4 C 5.74 g/m*3 3.4 C 1.6 km/h
896 28-11-2020 02:35:00 3.4 C 5.68 g/m*3 3.4 C 3.2 km/h
897 28-11-2020 02:40:00 3.4 C 5.68 g/m*3 3.4 C 1.6 km/h
898 28-11-2020 02:45:00 3.4 C 5.68 g/m*3 3.4 C 3.2 km/h
899 28-11-2020 02:50:00 3.4 C 5.68 g/m*3 3.4 C 1.6 km/h
900 28-11-2020 02:55:00 3.4 C 5.74 g/m*3 3.4 C 3.2 km/h
Sensor: Nr:Datum:Temp:Abs-Feuchte:Windchill:Wind:
Aussen-T/F 901 28-11-2020 03:00:00 3.4 C 5.74 g/m*3 3.4 C 0 km/h
902 28-11-2020 03:05:00 3.3 C 5.7 g/m*3 3.3 C 0 km/h
903 28-11-2020 03:10:00 3.3 C 5.7 g/m*3 3.3 C 0 km/h
904 28-11-2020 03:15:00 3.3 C 5.7 g/m*3 3.3 C 0 km/h
905 28-11-2020 03:20:00 3.3 C 5.7 g/m*3 3.3 C 0 km/h
906 28-11-2020 03:25:00 3.3 C 5.7 g/m*3 3.3 C 0 km/h
907 28-11-2020 03:30:00 3.2 C 5.66 g/m*3 3.2 C 0 km/h
908 28-11-2020 03:35:00 3.2 C 5.6 g/m*3 3.2 C 0 km/h
909 28-11-2020 03:40:00 3.2 C 5.66 g/m*3 3.2 C 0 km/h
910 28-11-2020 03:45:00 3.2 C 5.6 g/m*3 3.2 C 3.2 km/h
911 28-11-2020 03:50:00 3.1 C 5.57 g/m*3 3.1 C 3.2 km/h
912 28-11-2020 03:55:00 3.1 C 5.57 g/m*3 3.1 C 3.2 km/h
913 28-11-2020 04:00:00 3.1 C 5.63 g/m*3 3.1 C 3.2 km/h
914 28-11-2020 04:05:00 3.1 C 5.63 g/m*3 3.1 C 3.2 km/h
915 28-11-2020 04:10:00 3 C 5.59 g/m*3 3 C 4.8 km/h
916 28-11-2020 04:15:00 3 C 5.59 g/m*3 1.28 C 6.4 km/h
917 28-11-2020 04:20:00 2.9 C 5.55 g/m*3 2.9 C 4.8 km/h
918 28-11-2020 04:25:00 2.9 C 5.55 g/m*3 2.9 C 0 km/h
919 28-11-2020 04:30:00 2.9 C 5.55 g/m*3 2.9 C 1.6 km/h
920 28-11-2020 04:35:00 2.9 C 5.55 g/m*3 2.9 C 1.6 km/h
921 28-11-2020 04:40:00 2.9 C 5.55 g/m*3 2.9 C 0 km/h
922 28-11-2020 04:45:00 2.9 C 5.55 g/m*3 2.9 C 1.6 km/h
923 28-11-2020 04:50:00 2.9 C 5.55 g/m*3 2.9 C 0 km/h
924 28-11-2020 04:55:00 2.9 C 5.55 g/m*3 2.9 C 0 km/h
925 28-11-2020 05:00:00 2.9 C 5.55 g/m*3 2.9 C 1.6 km/h
Sensor: Nr:Datum:Temp:Abs-Feuchte:Windchill:Wind:
Aussen-T/F 926 28-11-2020 05:05:00 2.9 C 5.55 g/m*3 2.9 C 1.6 km/h
927 28-11-2020 05:10:00 2.9 C 5.55 g/m*3 2.9 C 0 km/h
928 28-11-2020 05:15:00 2.9 C 5.55 g/m*3 2.9 C 0 km/h
929 28-11-2020 05:20:00 2.9 C 5.55 g/m*3 2.9 C 0 km/h
930 28-11-2020 05:25:00 2.9 C 5.55 g/m*3 2.9 C 0 km/h
931 28-11-2020 05:30:00 2.9 C 5.55 g/m*3 2.9 C 1.6 km/h
932 28-11-2020 05:35:00 2.9 C 5.55 g/m*3 2.9 C 1.6 km/h
933 28-11-2020 05:40:00 2.9 C 5.55 g/m*3 2.9 C 1.6 km/h
934 28-11-2020 05:45:00 2.9 C 5.55 g/m*3 2.9 C 4.8 km/h
935 28-11-2020 05:50:00 2.8 C 5.51 g/m*3 2.8 C 0 km/h
936 28-11-2020 05:55:00 2.8 C 5.51 g/m*3 2.8 C 1.6 km/h
937 28-11-2020 06:00:00 2.8 C 5.51 g/m*3 2.8 C 0 km/h
938 28-11-2020 06:05:00 2.8 C 5.51 g/m*3 2.8 C 0 km/h
939 28-11-2020 06:10:00 2.8 C 5.51 g/m*3 2.8 C 4.8 km/h
940 28-11-2020 06:15:00 2.8 C 5.51 g/m*3 2.8 C 4.8 km/h
941 28-11-2020 06:20:00 2.7 C 5.48 g/m*3 2.7 C 1.6 km/h
942 28-11-2020 06:25:00 2.7 C 5.48 g/m*3 2.7 C 3.2 km/h
943 28-11-2020 06:30:00 2.7 C 5.48 g/m*3 2.7 C 0 km/h
944 28-11-2020 06:35:00 2.7 C 5.48 g/m*3 2.7 C 0 km/h
945 28-11-2020 06:40:00 2.7 C 5.48 g/m*3 2.7 C 0 km/h
946 28-11-2020 06:45:00 2.7 C 5.48 g/m*3 2.7 C 0 km/h
947 28-11-2020 06:50:00 2.7 C 5.48 g/m*3 2.7 C 0 km/h
948 28-11-2020 06:55:00 2.7 C 5.48 g/m*3 2.7 C 3.2 km/h
949 28-11-2020 07:00:00 2.7 C 5.48 g/m*3 2.7 C 0 km/h
950 28-11-2020 07:05:00 2.6 C 5.44 g/m*3 2.6 C 0 km/h
Sensor: Nr:Datum:Temp:Abs-Feuchte:Windchill:Wind:
Aussen-T/F 951 28-11-2020 07:10:00 2.6 C 5.44 g/m*3 2.6 C 0 km/h
952 28-11-2020 07:15:00 2.6 C 5.44 g/m*3 2.6 C 0 km/h
953 28-11-2020 07:20:00 2.6 C 5.44 g/m*3 2.6 C 0 km/h
954 28-11-2020 07:25:00 2.6 C 5.44 g/m*3 2.6 C 0 km/h
955 28-11-2020 07:30:00 2.6 C 5.44 g/m*3 2.6 C 3.2 km/h
956 28-11-2020 07:35:00 2.5 C 5.4 g/m*3 2.5 C 3.2 km/h
957 28-11-2020 07:40:00 2.5 C 5.4 g/m*3 2.5 C 0 km/h
958 28-11-2020 07:45:00 2.5 C 5.4 g/m*3 2.5 C 0 km/h
959 28-11-2020 07:50:00 2.5 C 5.4 g/m*3 2.5 C 0 km/h
960 28-11-2020 07:55:00 2.5 C 5.4 g/m*3 2.5 C 1.6 km/h
961 28-11-2020 08:00:00 2.5 C 5.4 g/m*3 2.5 C 3.2 km/h
962 28-11-2020 08:05:00 2.5 C 5.4 g/m*3 2.5 C 1.6 km/h
963 28-11-2020 08:10:00 2.4 C 5.37 g/m*3 2.4 C 1.6 km/h
964 28-11-2020 08:15:00 2.4 C 5.37 g/m*3 2.4 C 0 km/h
965 28-11-2020 08:20:00 2.4 C 5.37 g/m*3 2.4 C 0 km/h
966 28-11-2020 08:25:00 2.4 C 5.37 g/m*3 2.4 C 0 km/h
967 28-11-2020 08:30:00 2.4 C 5.37 g/m*3 2.4 C 0 km/h
968 28-11-2020 08:35:00 2.4 C 5.37 g/m*3 2.4 C 0 km/h
969 28-11-2020 08:40:00 2.4 C 5.37 g/m*3 2.4 C 0 km/h
970 28-11-2020 08:45:00 2.4 C 5.37 g/m*3 2.4 C 0 km/h
971 28-11-2020 08:50:00 2.4 C 5.37 g/m*3 2.4 C 0 km/h
972 28-11-2020 08:55:00 2.4 C 5.37 g/m*3 2.4 C 0 km/h
973 28-11-2020 09:00:00 2.4 C 5.37 g/m*3 2.4 C 0 km/h
974 28-11-2020 09:05:00 2.4 C 5.37 g/m*3 2.4 C 0 km/h
975 28-11-2020 09:10:00 2.5 C 5.4 g/m*3 2.5 C 3.2 km/h
Sensor: Nr:Datum:Temp:Abs-Feuchte:Windchill:Wind:
Aussen-T/F 976 28-11-2020 09:15:00 2.5 C 5.4 g/m*3 2.5 C 3.2 km/h
977 28-11-2020 09:20:00 2.5 C 5.4 g/m*3 2.5 C 1.6 km/h
978 28-11-2020 09:25:00 2.5 C 5.4 g/m*3 2.5 C 3.2 km/h
979 28-11-2020 09:30:00 2.6 C 5.44 g/m*3 2.6 C 3.2 km/h
980 28-11-2020 09:35:00 2.6 C 5.44 g/m*3 2.6 C 3.2 km/h
981 28-11-2020 09:40:00 2.6 C 5.44 g/m*3 2.6 C 0 km/h
982 28-11-2020 09:45:00 2.7 C 5.48 g/m*3 2.7 C 1.6 km/h
983 28-11-2020 09:50:00 2.7 C 5.48 g/m*3 2.7 C 1.6 km/h
984 28-11-2020 09:55:00 2.7 C 5.48 g/m*3 2.7 C 0 km/h
985 28-11-2020 10:00:00 2.8 C 5.46 g/m*3 2.8 C 4.8 km/h
986 28-11-2020 10:05:00 2.8 C 5.46 g/m*3 2.8 C 3.2 km/h
987 28-11-2020 10:10:00 2.8 C 5.46 g/m*3 2.8 C 1.6 km/h
988 28-11-2020 10:15:00 2.8 C 5.46 g/m*3 2.8 C 3.2 km/h
989 28-11-2020 10:20:00 2.8 C 5.46 g/m*3 2.8 C 1.6 km/h
990 28-11-2020 10:25:00 2.9 C 5.49 g/m*3 2.9 C 4.8 km/h
991 28-11-2020 10:30:00 2.9 C 5.49 g/m*3 2.9 C 4.8 km/h
992 28-11-2020 10:35:00 3 C 5.53 g/m*3 3 C 1.6 km/h
993 28-11-2020 10:40:00 3 C 5.53 g/m*3 3 C 3.2 km/h
994 28-11-2020 10:45:00 3.1 C 5.51 g/m*3 3.1 C 1.6 km/h
995 28-11-2020 10:50:00 3.1 C 5.51 g/m*3 3.1 C 1.6 km/h
996 28-11-2020 10:55:00 3.1 C 5.51 g/m*3 3.1 C 1.6 km/h
997 28-11-2020 11:00:00 3.2 C 5.54 g/m*3 3.2 C 1.6 km/h
998 28-11-2020 11:05:00 3.3 C 5.58 g/m*3 3.3 C 1.6 km/h
999 28-11-2020 11:10:00 3.3 C 5.58 g/m*3 3.3 C 0 km/h
1000 28-11-2020 11:15:00 3.3 C 5.58 g/m*3 3.3 C 4.8 km/h
Sensor: Nr:Datum:Temp:Abs-Feuchte:Windchill:Wind:
Aussen-T/F 1001 28-11-2020 11:20:00 3.4 C 5.62 g/m*3 1.75 C 6.4 km/h
1002 28-11-2020 11:25:00 3.4 C 5.62 g/m*3 3.4 C 4.8 km/h
1003 28-11-2020 11:30:00 3.4 C 5.56 g/m*3 3.4 C 0 km/h
1004 28-11-2020 11:35:00 3.5 C 5.6 g/m*3 3.5 C 3.2 km/h
1005 28-11-2020 11:40:00 3.6 C 5.63 g/m*3 3.6 C 3.2 km/h
1006 28-11-2020 11:45:00 3.6 C 5.63 g/m*3 3.6 C 4.8 km/h
1007 28-11-2020 11:50:00 3.6 C 5.57 g/m*3 3.6 C 4.8 km/h
1008 28-11-2020 11:55:00 3.6 C 5.57 g/m*3 3.6 C 3.2 km/h
1009 28-11-2020 12:00:00 3.7 C 5.61 g/m*3 3.7 C 3.2 km/h
1010 28-11-2020 12:05:00 3.7 C 5.61 g/m*3 3.7 C 3.2 km/h
1011 28-11-2020 12:10:00 3.8 C 5.65 g/m*3 3.8 C 3.2 km/h
1012 28-11-2020 12:15:00 3.8 C 5.65 g/m*3 3.8 C 4.8 km/h
1013 28-11-2020 12:20:00 3.8 C 5.65 g/m*3 3.8 C 1.6 km/h
1014 28-11-2020 12:25:00 3.8 C 5.65 g/m*3 3.8 C 1.6 km/h
1015 28-11-2020 12:30:00 3.9 C 5.68 g/m*3 3.9 C 3.2 km/h
1016 28-11-2020 12:35:00 3.9 C 5.62 g/m*3 3.9 C 4.8 km/h
1017 28-11-2020 12:40:00 3.9 C 5.62 g/m*3 3.9 C 4.8 km/h
1018 28-11-2020 12:45:00 3.8 C 5.58 g/m*3 2.21 C 6.4 km/h
1019 28-11-2020 12:50:00 3.8 C 5.58 g/m*3 3.8 C 4.8 km/h
1020 28-11-2020 12:55:00 3.8 C 5.58 g/m*3 2.21 C 6.4 km/h
1021 28-11-2020 13:00:00 3.8 C 5.58 g/m*3 3.8 C 3.2 km/h
1022 28-11-2020 13:05:00 3.9 C 5.62 g/m*3 3.9 C 4.8 km/h
1023 28-11-2020 13:10:00 3.9 C 5.62 g/m*3 3.9 C 4.8 km/h
1024 28-11-2020 13:15:00 3.9 C 5.62 g/m*3 2.32 C 6.4 km/h
1025 28-11-2020 13:20:00 3.9 C 5.62 g/m*3 3.9 C 4.8 km/h
Sensor: Nr:Datum:Temp:Abs-Feuchte:Windchill:Wind:
Aussen-T/F 1026 28-11-2020 13:25:00 4.1 C 5.7 g/m*3 2.55 C 6.4 km/h
1027 28-11-2020 13:30:00 4.1 C 5.7 g/m*3 4.1 C 1.6 km/h
1028 28-11-2020 13:35:00 4.1 C 5.7 g/m*3 2.05 C 8.1 km/h
1029 28-11-2020 13:40:00 4.1 C 5.7 g/m*3 2.05 C 8.1 km/h
1030 28-11-2020 13:45:00 4.2 C 5.73 g/m*3 4.2 C 3.2 km/h
1031 28-11-2020 13:50:00 4.2 C 5.73 g/m*3 4.2 C 4.8 km/h
1032 28-11-2020 13:55:00 4.3 C 5.77 g/m*3 4.3 C 4.8 km/h
1033 28-11-2020 14:00:00 4.3 C 5.77 g/m*3 2.78 C 6.4 km/h
1034 28-11-2020 14:05:00 4.3 C 5.77 g/m*3 4.3 C 3.2 km/h
1035 28-11-2020 14:10:00 4.2 C 5.73 g/m*3 4.2 C 3.2 km/h
1036 28-11-2020 14:15:00 4.2 C 5.73 g/m*3 2.17 C 8.1 km/h
1037 28-11-2020 14:20:00 4.1 C 5.7 g/m*3 2.55 C 6.4 km/h
1038 28-11-2020 14:25:00 4.1 C 5.7 g/m*3 4.1 C 4.8 km/h
1039 28-11-2020 14:30:00 4.2 C 5.8 g/m*3 4.2 C 3.2 km/h
1040 28-11-2020 14:35:00 4.1 C 5.7 g/m*3 2.55 C 6.4 km/h
1041 28-11-2020 14:40:00 4.1 C 5.7 g/m*3 4.1 C 4.8 km/h
1042 28-11-2020 14:45:00 4.1 C 5.76 g/m*3 4.1 C 1.6 km/h
1043 28-11-2020 14:50:00 4.1 C 5.7 g/m*3 2.55 C 6.4 km/h
1044 28-11-2020 14:55:00 4 C 5.72 g/m*3 4 C 3.2 km/h
1045 28-11-2020 15:00:00 4 C 5.72 g/m*3 4 C 3.2 km/h
1046 28-11-2020 15:05:00 3.9 C 5.68 g/m*3 3.9 C 3.2 km/h
1047 28-11-2020 15:10:00 3.9 C 5.68 g/m*3 3.9 C 4.8 km/h
1048 28-11-2020 15:15:00 3.9 C 5.68 g/m*3 3.9 C 1.6 km/h
1049 28-11-2020 15:20:00 3.9 C 5.68 g/m*3 3.9 C 1.6 km/h
1050 28-11-2020 15:25:00 3.9 C 5.68 g/m*3 3.9 C 1.6 km/h
Sensor: Nr:Datum:Temp:Abs-Feuchte:Windchill:Wind:
Aussen-T/F 1051 28-11-2020 15:30:00 3.9 C 5.68 g/m*3 3.9 C 0 km/h
1052 28-11-2020 15:35:00 3.9 C 5.68 g/m*3 3.9 C 0 km/h
1053 28-11-2020 15:40:00 3.9 C 5.68 g/m*3 3.9 C 0 km/h
1054 28-11-2020 15:45:00 3.8 C 5.65 g/m*3 3.8 C 0 km/h
1055 28-11-2020 15:50:00 3.8 C 5.65 g/m*3 3.8 C 0 km/h
1056 28-11-2020 15:55:00 3.7 C 5.61 g/m*3 3.7 C 0 km/h
1057 28-11-2020 16:00:00 3.7 C 5.61 g/m*3 3.7 C 0 km/h
1058 28-11-2020 16:05:00 3.7 C 5.61 g/m*3 3.7 C 0 km/h
1059 28-11-2020 16:10:00 3.6 C 5.57 g/m*3 3.6 C 0 km/h
1060 28-11-2020 16:15:00 3.6 C 5.63 g/m*3 3.6 C 0 km/h
1061 28-11-2020 16:20:00 3.6 C 5.63 g/m*3 3.6 C 4.8 km/h
1062 28-11-2020 16:25:00 3.6 C 5.63 g/m*3 3.6 C 1.6 km/h
1063 28-11-2020 16:30:00 3.6 C 5.63 g/m*3 3.6 C 0 km/h
1064 28-11-2020 16:35:00 3.6 C 5.63 g/m*3 3.6 C 1.6 km/h
1065 28-11-2020 16:40:00 3.6 C 5.63 g/m*3 3.6 C 3.2 km/h
1066 28-11-2020 16:45:00 3.5 C 5.6 g/m*3 3.5 C 0 km/h
1067 28-11-2020 16:50:00 3.5 C 5.6 g/m*3 3.5 C 1.6 km/h
1068 28-11-2020 16:55:00 3.5 C 5.6 g/m*3 3.5 C 0 km/h
1069 28-11-2020 17:00:00 3.4 C 5.56 g/m*3 3.4 C 0 km/h
1070 28-11-2020 17:05:00 3.4 C 5.56 g/m*3 3.4 C 4.8 km/h
1071 28-11-2020 17:10:00 3.4 C 5.56 g/m*3 1.75 C 6.4 km/h
1072 28-11-2020 17:15:00 3.4 C 5.56 g/m*3 1.23 C 8.1 km/h
1073 28-11-2020 17:20:00 3.3 C 5.52 g/m*3 3.3 C 1.6 km/h
1074 28-11-2020 17:25:00 3.3 C 5.52 g/m*3 3.3 C 3.2 km/h
1075 28-11-2020 17:30:00 3.3 C 5.52 g/m*3 3.3 C 3.2 km/h
Sensor: Nr:Datum:Temp:Abs-Feuchte:Windchill:Wind:
Aussen-T/F 1076 28-11-2020 17:35:00 3.3 C 5.58 g/m*3 3.3 C 3.2 km/h
1077 28-11-2020 17:40:00 3.3 C 5.58 g/m*3 3.3 C 3.2 km/h
1078 28-11-2020 17:45:00 3.3 C 5.58 g/m*3 3.3 C 1.6 km/h
1079 28-11-2020 17:50:00 3.3 C 5.58 g/m*3 3.3 C 0 km/h
1080 28-11-2020 17:55:00 3.3 C 5.52 g/m*3 3.3 C 4.8 km/h
1081 28-11-2020 18:00:00 3.3 C 5.52 g/m*3 3.3 C 1.6 km/h
1082 28-11-2020 18:05:00 3.2 C 5.48 g/m*3 3.2 C 0 km/h
1083 28-11-2020 18:10:00 3.2 C 5.54 g/m*3 3.2 C 3.2 km/h
1084 28-11-2020 18:15:00 3.2 C 5.54 g/m*3 3.2 C 1.6 km/h
1085 28-11-2020 18:20:00 3.2 C 5.54 g/m*3 3.2 C 0 km/h
1086 28-11-2020 18:25:00 3.2 C 5.54 g/m*3 3.2 C 3.2 km/h
1087 28-11-2020 18:30:00 3.2 C 5.54 g/m*3 3.2 C 4.8 km/h
1088 28-11-2020 18:35:00 3.2 C 5.54 g/m*3 3.2 C 3.2 km/h
1089 28-11-2020 18:40:00 3.2 C 5.54 g/m*3 3.2 C 4.8 km/h
1090 28-11-2020 18:45:00 3.2 C 5.54 g/m*3 3.2 C 1.6 km/h
1091 28-11-2020 18:50:00 3.2 C 5.54 g/m*3 3.2 C 1.6 km/h
1092 28-11-2020 18:55:00 3.1 C 5.51 g/m*3 1.4 C 6.4 km/h
1093 28-11-2020 19:00:00 3.1 C 5.51 g/m*3 3.1 C 3.2 km/h
1094 28-11-2020 19:05:00 3.1 C 5.51 g/m*3 3.1 C 4.8 km/h
1095 28-11-2020 19:10:00 3.1 C 5.51 g/m*3 3.1 C 0 km/h
1096 28-11-2020 19:15:00 3.1 C 5.51 g/m*3 3.1 C 0 km/h
1097 28-11-2020 19:20:00 3 C 5.47 g/m*3 3 C 1.6 km/h
1098 28-11-2020 19:25:00 3 C 5.47 g/m*3 1.28 C 6.4 km/h
1099 28-11-2020 19:30:00 3 C 5.47 g/m*3 1.28 C 6.4 km/h
1100 28-11-2020 19:35:00 3 C 5.47 g/m*3 0.76 C 8.1 km/h
Sensor: Nr:Datum:Temp:Abs-Feuchte:Windchill:Wind:
Aussen-T/F 1101 28-11-2020 19:40:00 2.9 C 5.43 g/m*3 2.9 C 3.2 km/h
1102 28-11-2020 19:45:00 2.9 C 5.43 g/m*3 2.9 C 3.2 km/h
1103 28-11-2020 19:50:00 2.9 C 5.49 g/m*3 2.9 C 4.8 km/h
1104 28-11-2020 19:55:00 3 C 5.53 g/m*3 3 C 3.2 km/h
1105 28-11-2020 20:00:00 3 C 5.53 g/m*3 3 C 1.6 km/h
1106 28-11-2020 20:05:00 3 C 5.53 g/m*3 3 C 0 km/h
1107 28-11-2020 20:10:00 3 C 5.53 g/m*3 3 C 0 km/h
1108 28-11-2020 20:15:00 3 C 5.53 g/m*3 3 C 0 km/h
1109 28-11-2020 20:20:00 3 C 5.53 g/m*3 3 C 0 km/h
1110 28-11-2020 20:25:00 3.1 C 5.57 g/m*3 3.1 C 0 km/h
1111 28-11-2020 20:30:00 3.1 C 5.57 g/m*3 3.1 C 1.6 km/h
1112 28-11-2020 20:35:00 3.1 C 5.57 g/m*3 3.1 C 0 km/h
1113 28-11-2020 20:40:00 3.1 C 5.57 g/m*3 3.1 C 4.8 km/h
1114 28-11-2020 20:45:00 3.1 C 5.57 g/m*3 3.1 C 3.2 km/h
1115 28-11-2020 20:50:00 3.2 C 5.6 g/m*3 3.2 C 3.2 km/h
1116 28-11-2020 20:55:00 3.2 C 5.6 g/m*3 3.2 C 1.6 km/h
1117 28-11-2020 21:00:00 3.2 C 5.6 g/m*3 3.2 C 0 km/h
1118 28-11-2020 21:05:00 3.3 C 5.64 g/m*3 3.3 C 1.6 km/h
1119 28-11-2020 21:10:00 3.3 C 5.64 g/m*3 3.3 C 1.6 km/h
1120 28-11-2020 21:15:00 3.3 C 5.64 g/m*3 3.3 C 4.8 km/h
1121 28-11-2020 21:20:00 3.3 C 5.64 g/m*3 3.3 C 0 km/h
1122 28-11-2020 21:25:00 3.3 C 5.64 g/m*3 3.3 C 1.6 km/h
1123 28-11-2020 21:30:00 3.4 C 5.68 g/m*3 3.4 C 0 km/h
1124 28-11-2020 21:35:00 3.4 C 5.68 g/m*3 3.4 C 1.6 km/h
1125 28-11-2020 21:40:00 3.4 C 5.68 g/m*3 3.4 C 0 km/h
Sensor: Nr:Datum:Temp:Abs-Feuchte:Windchill:Wind:
Aussen-T/F 1126 28-11-2020 21:45:00 3.4 C 5.68 g/m*3 3.4 C 0 km/h
1127 28-11-2020 21:50:00 3.5 C 5.72 g/m*3 3.5 C 3.2 km/h
1128 28-11-2020 21:55:00 3.5 C 5.72 g/m*3 3.5 C 1.6 km/h
1129 28-11-2020 22:00:00 3.5 C 5.72 g/m*3 3.5 C 0 km/h
1130 28-11-2020 22:05:00 3.6 C 5.76 g/m*3 3.6 C 0 km/h
1131 28-11-2020 22:10:00 3.6 C 5.76 g/m*3 3.6 C 3.2 km/h
1132 28-11-2020 22:15:00 3.6 C 5.76 g/m*3 3.6 C 0 km/h
1133 28-11-2020 22:20:00 3.6 C 5.76 g/m*3 3.6 C 0 km/h
1134 28-11-2020 22:25:00 3.6 C 5.76 g/m*3 3.6 C 0 km/h
1135 28-11-2020 22:30:00 3.7 C 5.8 g/m*3 3.7 C 0 km/h
1136 28-11-2020 22:35:00 3.6 C 5.76 g/m*3 3.6 C 1.6 km/h
1137 28-11-2020 22:40:00 3.7 C 5.8 g/m*3 3.7 C 0 km/h
1138 28-11-2020 22:45:00 3.7 C 5.8 g/m*3 3.7 C 0 km/h
1139 28-11-2020 22:50:00 3.7 C 5.8 g/m*3 3.7 C 0 km/h
1140 28-11-2020 22:55:00 3.7 C 5.8 g/m*3 3.7 C 0 km/h
1141 28-11-2020 23:00:00 3.7 C 5.8 g/m*3 3.7 C 0 km/h
1142 28-11-2020 23:05:00 3.7 C 5.8 g/m*3 3.7 C 0 km/h
1143 28-11-2020 23:10:00 3.7 C 5.8 g/m*3 3.7 C 1.6 km/h
1144 28-11-2020 23:15:00 3.7 C 5.8 g/m*3 3.7 C 0 km/h
1145 28-11-2020 23:20:00 3.8 C 5.83 g/m*3 3.8 C 0 km/h
1146 28-11-2020 23:25:00 3.8 C 5.83 g/m*3 3.8 C 0 km/h
1147 28-11-2020 23:30:00 3.8 C 5.83 g/m*3 3.8 C 1.6 km/h
1148 28-11-2020 23:35:00 3.8 C 5.77 g/m*3 3.8 C 3.2 km/h
1149 28-11-2020 23:40:00 3.8 C 5.77 g/m*3 3.8 C 1.6 km/h
1150 28-11-2020 23:45:00 3.8 C 5.77 g/m*3 3.8 C 4.8 km/h
Sensor: Nr:Datum:Temp:Abs-Feuchte:Windchill:Wind:
Aussen-T/F 1151 28-11-2020 23:50:00 3.8 C 5.77 g/m*3 3.8 C 0 km/h
1152 28-11-2020 23:55:00 3.8 C 5.77 g/m*3 3.8 C 0 km/h
1153 29-11-2020 00:00:00 3.8 C 5.77 g/m*3 3.8 C 0 km/h
1154 29-11-2020 00:05:00 3.8 C 5.77 g/m*3 3.8 C 4.8 km/h
1155 29-11-2020 00:10:00 3.8 C 5.77 g/m*3 3.8 C 4.8 km/h
1156 29-11-2020 00:15:00 3.9 C 5.81 g/m*3 3.9 C 1.6 km/h
1157 29-11-2020 00:20:00 3.8 C 5.71 g/m*3 3.8 C 4.8 km/h
1158 29-11-2020 00:25:00 3.8 C 5.71 g/m*3 3.8 C 4.8 km/h
1159 29-11-2020 00:30:00 3.9 C 5.75 g/m*3 3.9 C 4.8 km/h
1160 29-11-2020 00:35:00 3.9 C 5.75 g/m*3 3.9 C 4.8 km/h
1161 29-11-2020 00:40:00 3.9 C 5.75 g/m*3 2.32 C 6.4 km/h
1162 29-11-2020 00:45:00 3.9 C 5.75 g/m*3 3.9 C 3.2 km/h
1163 29-11-2020 00:50:00 3.9 C 5.75 g/m*3 3.9 C 1.6 km/h
1164 29-11-2020 00:55:00 3.9 C 5.75 g/m*3 2.32 C 6.4 km/h
1165 29-11-2020 01:00:00 3.9 C 5.75 g/m*3 3.9 C 3.2 km/h
1166 29-11-2020 01:05:00 3.8 C 5.71 g/m*3 3.8 C 1.6 km/h
1167 29-11-2020 01:10:00 3.8 C 5.71 g/m*3 3.8 C 4.8 km/h
1168 29-11-2020 01:15:00 3.8 C 5.71 g/m*3 3.8 C 3.2 km/h
1169 29-11-2020 01:20:00 3.8 C 5.71 g/m*3 0.94 C 11.3 km/h
1170 29-11-2020 01:25:00 3.7 C 5.55 g/m*3 0.82 C 11.3 km/h
1171 29-11-2020 01:30:00 3.5 C 5.47 g/m*3 0.27 C 12.9 km/h
1172 29-11-2020 01:35:00 3.4 C 5.37 g/m*3 0.46 C 11.3 km/h
1173 29-11-2020 01:40:00 3.3 C 5.34 g/m*3 0.34 C 11.3 km/h
1174 29-11-2020 01:45:00 3.2 C 5.3 g/m*3 0.58 C 9.7 km/h
1175 29-11-2020 01:50:00 3.2 C 5.3 g/m*3 1.51 C 6.4 km/h
Sensor: Nr:Datum:Temp:Abs-Feuchte:Windchill:Wind:
Aussen-T/F 1176 29-11-2020 01:55:00 3.1 C 5.27 g/m*3 3.1 C 3.2 km/h
1177 29-11-2020 02:00:00 3.1 C 5.27 g/m*3 3.1 C 1.6 km/h
1178 29-11-2020 02:05:00 3.1 C 5.27 g/m*3 3.1 C 3.2 km/h
1179 29-11-2020 02:10:00 3 C 5.23 g/m*3 1.28 C 6.4 km/h
1180 29-11-2020 02:15:00 2.9 C 5.2 g/m*3 2.9 C 3.2 km/h
1181 29-11-2020 02:20:00 2.9 C 5.2 g/m*3 2.9 C 3.2 km/h
1182 29-11-2020 02:25:00 2.9 C 5.2 g/m*3 2.9 C 1.6 km/h
1183 29-11-2020 02:30:00 2.8 C 5.16 g/m*3 1.05 C 6.4 km/h
1184 29-11-2020 02:35:00 2.8 C 5.1 g/m*3 1.05 C 6.4 km/h
1185 29-11-2020 02:40:00 2.8 C 5.1 g/m*3 2.8 C 3.2 km/h
1186 29-11-2020 02:45:00 2.7 C 5.07 g/m*3 -0.02 C 9.7 km/h
1187 29-11-2020 02:50:00 2.7 C 5.07 g/m*3 2.7 C 4.8 km/h
1188 29-11-2020 02:55:00 2.7 C 5.07 g/m*3 2.7 C 3.2 km/h
1189 29-11-2020 03:00:00 2.7 C 5.07 g/m*3 0.4 C 8.1 km/h
1190 29-11-2020 03:05:00 2.7 C 5.13 g/m*3 2.7 C 1.6 km/h
1191 29-11-2020 03:10:00 2.7 C 5.07 g/m*3 0.94 C 6.4 km/h
1192 29-11-2020 03:15:00 2.7 C 5.07 g/m*3 2.7 C 3.2 km/h
1193 29-11-2020 03:20:00 2.7 C 5.07 g/m*3 2.7 C 4.8 km/h
1194 29-11-2020 03:25:00 2.7 C 5.07 g/m*3 0.4 C 8.1 km/h
1195 29-11-2020 03:30:00 2.7 C 5.07 g/m*3 2.7 C 3.2 km/h
1196 29-11-2020 03:35:00 2.7 C 5.07 g/m*3 2.7 C 1.6 km/h
1197 29-11-2020 03:40:00 2.7 C 5.07 g/m*3 2.7 C 0 km/h
1198 29-11-2020 03:45:00 2.7 C 5.07 g/m*3 2.7 C 1.6 km/h
1199 29-11-2020 03:50:00 2.7 C 5.07 g/m*3 0.94 C 6.4 km/h
1200 29-11-2020 03:55:00 2.7 C 5.01 g/m*3 0.4 C 8.1 km/h
Sensor: Nr:Datum:Temp:Abs-Feuchte:Windchill:Wind:
Aussen-T/F 1201 29-11-2020 04:00:00 2.6 C 5.03 g/m*3 2.6 C 1.6 km/h
1202 29-11-2020 04:05:00 2.6 C 4.98 g/m*3 0.29 C 8.1 km/h
1203 29-11-2020 04:10:00 2.6 C 4.98 g/m*3 2.6 C 3.2 km/h
1204 29-11-2020 04:15:00 2.6 C 4.98 g/m*3 0.29 C 8.1 km/h
1205 29-11-2020 04:20:00 2.5 C 4.94 g/m*3 0.71 C 6.4 km/h
1206 29-11-2020 04:25:00 2.5 C 4.94 g/m*3 0.71 C 6.4 km/h
1207 29-11-2020 04:30:00 2.4 C 4.91 g/m*3 0.59 C 6.4 km/h
1208 29-11-2020 04:35:00 2.4 C 4.91 g/m*3 2.4 C 1.6 km/h
1209 29-11-2020 04:40:00 2.4 C 4.91 g/m*3 0.59 C 6.4 km/h
1210 29-11-2020 04:45:00 2.4 C 4.91 g/m*3 2.4 C 0 km/h
1211 29-11-2020 04:50:00 2.4 C 4.91 g/m*3 2.4 C 1.6 km/h
1212 29-11-2020 04:55:00 2.4 C 4.91 g/m*3 2.4 C 0 km/h
1213 29-11-2020 05:00:00 2.3 C 4.88 g/m*3 2.3 C 0 km/h
1214 29-11-2020 05:05:00 2.3 C 4.88 g/m*3 2.3 C 1.6 km/h
1215 29-11-2020 05:10:00 2.3 C 4.88 g/m*3 2.3 C 0 km/h
1216 29-11-2020 05:15:00 2.3 C 4.88 g/m*3 2.3 C 3.2 km/h
1217 29-11-2020 05:20:00 2.3 C 4.88 g/m*3 2.3 C 0 km/h
1218 29-11-2020 05:25:00 2.3 C 4.88 g/m*3 2.3 C 3.2 km/h
1219 29-11-2020 05:30:00 2.3 C 4.88 g/m*3 2.3 C 1.6 km/h
1220 29-11-2020 05:35:00 2.3 C 4.88 g/m*3 2.3 C 3.2 km/h
1221 29-11-2020 05:40:00 2.3 C 4.88 g/m*3 -0.49 C 9.7 km/h
1222 29-11-2020 05:45:00 2.3 C 4.88 g/m*3 2.3 C 4.8 km/h
1223 29-11-2020 05:50:00 2.3 C 4.82 g/m*3 2.3 C 4.8 km/h
1224 29-11-2020 05:55:00 2.3 C 4.82 g/m*3 2.3 C 3.2 km/h
1225 29-11-2020 06:00:00 2.3 C 4.88 g/m*3 2.3 C 3.2 km/h
Sensor: Nr:Datum:Temp:Abs-Feuchte:Windchill:Wind:
Aussen-T/F 1226 29-11-2020 06:05:00 2.3 C 4.88 g/m*3 2.3 C 1.6 km/h
1227 29-11-2020 06:10:00 2.2 C 4.79 g/m*3 2.2 C 4.8 km/h
1228 29-11-2020 06:15:00 2.2 C 4.79 g/m*3 2.2 C 4.8 km/h
1229 29-11-2020 06:20:00 2.2 C 4.84 g/m*3 2.2 C 4.8 km/h
1230 29-11-2020 06:25:00 2.2 C 4.79 g/m*3 2.2 C 0 km/h
1231 29-11-2020 06:30:00 2.2 C 4.79 g/m*3 2.2 C 3.2 km/h
1232 29-11-2020 06:35:00 2.2 C 4.79 g/m*3 2.2 C 1.6 km/h
1233 29-11-2020 06:40:00 2.1 C 4.76 g/m*3 2.1 C 4.8 km/h
1234 29-11-2020 06:45:00 2.1 C 4.76 g/m*3 2.1 C 3.2 km/h
1235 29-11-2020 06:50:00 2.1 C 4.76 g/m*3 2.1 C 0 km/h
1236 29-11-2020 06:55:00 2.1 C 4.76 g/m*3 2.1 C 0 km/h
1237 29-11-2020 07:00:00 2.1 C 4.76 g/m*3 2.1 C 3.2 km/h
1238 29-11-2020 07:05:00 2 C 4.72 g/m*3 2 C 3.2 km/h
1239 29-11-2020 07:10:00 2 C 4.72 g/m*3 2 C 3.2 km/h
1240 29-11-2020 07:15:00 2 C 4.72 g/m*3 2 C 1.6 km/h
1241 29-11-2020 07:20:00 1.9 C 4.69 g/m*3 1.9 C 3.2 km/h
1242 29-11-2020 07:25:00 1.9 C 4.64 g/m*3 1.9 C 4.8 km/h
1243 29-11-2020 07:30:00 1.9 C 4.69 g/m*3 1.9 C 1.6 km/h
1244 29-11-2020 07:35:00 1.9 C 4.69 g/m*3 1.9 C 0 km/h
1245 29-11-2020 07:40:00 1.9 C 4.64 g/m*3 1.9 C 3.2 km/h
1246 29-11-2020 07:45:00 1.8 C 4.6 g/m*3 1.8 C 3.2 km/h
1247 29-11-2020 07:50:00 1.8 C 4.6 g/m*3 1.8 C 4.8 km/h
1248 29-11-2020 07:55:00 1.8 C 4.6 g/m*3 -0.65 C 8.1 km/h
1249 29-11-2020 08:00:00 1.8 C 4.6 g/m*3 1.8 C 4.8 km/h
1250 29-11-2020 08:05:00 1.8 C 4.6 g/m*3 1.8 C 0 km/h
Sensor: Nr:Datum:Temp:Abs-Feuchte:Windchill:Wind:
Aussen-T/F 1251 29-11-2020 08:10:00 1.8 C 4.6 g/m*3 1.8 C 0 km/h
1252 29-11-2020 08:15:00 1.8 C 4.6 g/m*3 1.8 C 1.6 km/h
1253 29-11-2020 08:20:00 1.7 C 4.57 g/m*3 -1.21 C 9.7 km/h
1254 29-11-2020 08:25:00 1.7 C 4.57 g/m*3 1.7 C 0 km/h
1255 29-11-2020 08:30:00 1.7 C 4.57 g/m*3 -1.59 C 11.3 km/h
1256 29-11-2020 08:35:00 1.7 C 4.57 g/m*3 1.7 C 3.2 km/h
1257 29-11-2020 08:40:00 1.7 C 4.57 g/m*3 1.7 C 3.2 km/h
1258 29-11-2020 08:45:00 1.7 C 4.52 g/m*3 -0.77 C 8.1 km/h
1259 29-11-2020 08:50:00 1.6 C 4.49 g/m*3 -0.33 C 6.4 km/h
1260 29-11-2020 08:55:00 1.6 C 4.49 g/m*3 1.6 C 3.2 km/h
1261 29-11-2020 09:00:00 1.6 C 4.49 g/m*3 1.6 C 4.8 km/h
1262 29-11-2020 09:05:00 1.6 C 4.49 g/m*3 1.6 C 3.2 km/h
1263 29-11-2020 09:10:00 1.6 C 4.49 g/m*3 1.6 C 3.2 km/h
1264 29-11-2020 09:15:00 1.6 C 4.49 g/m*3 -0.33 C 6.4 km/h
1265 29-11-2020 09:20:00 1.6 C 4.49 g/m*3 1.6 C 3.2 km/h
1266 29-11-2020 09:25:00 1.6 C 4.49 g/m*3 1.6 C 3.2 km/h
1267 29-11-2020 09:30:00 1.6 C 4.49 g/m*3 -0.33 C 6.4 km/h
1268 29-11-2020 09:35:00 1.5 C 4.4 g/m*3 -1.01 C 8.1 km/h
1269 29-11-2020 09:40:00 1.5 C 4.4 g/m*3 -1.01 C 8.1 km/h
1270 29-11-2020 09:45:00 1.6 C 4.49 g/m*3 1.6 C 3.2 km/h
1271 29-11-2020 09:50:00 1.6 C 4.43 g/m*3 -0.89 C 8.1 km/h
1272 29-11-2020 09:55:00 1.6 C 4.43 g/m*3 1.6 C 4.8 km/h
1273 29-11-2020 10:00:00 1.6 C 4.43 g/m*3 -0.33 C 6.4 km/h
1274 29-11-2020 10:05:00 1.7 C 4.46 g/m*3 1.7 C 3.2 km/h
1275 29-11-2020 10:10:00 1.7 C 4.46 g/m*3 -0.77 C 8.1 km/h
Sensor: Nr:Datum:Temp:Abs-Feuchte:Windchill:Wind:
Aussen-T/F 1276 29-11-2020 10:15:00 1.7 C 4.46 g/m*3 -0.22 C 6.4 km/h
1277 29-11-2020 10:20:00 1.7 C 4.46 g/m*3 -0.22 C 6.4 km/h
1278 29-11-2020 10:25:00 1.7 C 4.46 g/m*3 1.7 C 3.2 km/h
1279 29-11-2020 10:30:00 1.8 C 4.49 g/m*3 -0.65 C 8.1 km/h
1280 29-11-2020 10:35:00 1.8 C 4.49 g/m*3 -0.1 C 6.4 km/h
1281 29-11-2020 10:40:00 1.8 C 4.49 g/m*3 1.8 C 4.8 km/h
1282 29-11-2020 10:45:00 1.9 C 4.53 g/m*3 1.9 C 3.2 km/h
1283 29-11-2020 10:50:00 1.9 C 4.47 g/m*3 -0.97 C 9.7 km/h
1284 29-11-2020 10:55:00 2 C 4.56 g/m*3 2 C 3.2 km/h
1285 29-11-2020 11:00:00 2 C 4.45 g/m*3 -1.23 C 11.3 km/h
1286 29-11-2020 11:05:00 2 C 4.45 g/m*3 -1.23 C 11.3 km/h
1287 29-11-2020 11:10:00 2 C 4.5 g/m*3 -0.42 C 8.1 km/h
1288 29-11-2020 11:15:00 2.1 C 4.48 g/m*3 0.24 C 6.4 km/h
1289 29-11-2020 11:20:00 2.1 C 4.48 g/m*3 0.24 C 6.4 km/h
1290 29-11-2020 11:25:00 2.1 C 4.48 g/m*3 -0.3 C 8.1 km/h
1291 29-11-2020 11:30:00 2.1 C 4.48 g/m*3 0.24 C 6.4 km/h
1292 29-11-2020 11:35:00 2.1 C 4.48 g/m*3 -0.73 C 9.7 km/h
1293 29-11-2020 11:40:00 2.1 C 4.48 g/m*3 2.1 C 3.2 km/h
1294 29-11-2020 11:45:00 2.2 C 4.51 g/m*3 2.2 C 4.8 km/h
1295 29-11-2020 11:50:00 2.2 C 4.45 g/m*3 -0.18 C 8.1 km/h
1296 29-11-2020 11:55:00 2.1 C 4.48 g/m*3 0.24 C 6.4 km/h
1297 29-11-2020 12:00:00 2.1 C 4.42 g/m*3 2.1 C 4.8 km/h
1298 29-11-2020 12:05:00 2.2 C 4.45 g/m*3 -0.61 C 9.7 km/h
1299 29-11-2020 12:10:00 2.2 C 4.45 g/m*3 2.2 C 1.6 km/h
1300 29-11-2020 12:15:00 2.2 C 4.45 g/m*3 -0.18 C 8.1 km/h
Sensor: Nr:Datum:Temp:Abs-Feuchte:Windchill:Wind:
Aussen-T/F 1301 29-11-2020 12:20:00 2.3 C 4.48 g/m*3 0.47 C 6.4 km/h
1302 29-11-2020 12:25:00 2.2 C 4.45 g/m*3 -0.18 C 8.1 km/h
1303 29-11-2020 12:30:00 2.3 C 4.48 g/m*3 0.47 C 6.4 km/h
1304 29-11-2020 12:35:00 2.3 C 4.54 g/m*3 -0.07 C 8.1 km/h
1305 29-11-2020 12:40:00 2.4 C 4.51 g/m*3 2.4 C 4.8 km/h
1306 29-11-2020 12:45:00 2.4 C 4.51 g/m*3 2.4 C 4.8 km/h
1307 29-11-2020 12:50:00 2.5 C 4.54 g/m*3 2.5 C 4.8 km/h
1308 29-11-2020 12:55:00 2.5 C 4.48 g/m*3 2.5 C 4.8 km/h
1309 29-11-2020 13:00:00 2.6 C 4.57 g/m*3 0.82 C 6.4 km/h
1310 29-11-2020 13:05:00 2.6 C 4.51 g/m*3 -0.14 C 9.7 km/h
1311 29-11-2020 13:10:00 2.6 C 4.46 g/m*3 -0.5 C 11.3 km/h
1312 29-11-2020 13:15:00 2.5 C 4.48 g/m*3 0.17 C 8.1 km/h
1313 29-11-2020 13:20:00 2.5 C 4.48 g/m*3 0.71 C 6.4 km/h
1314 29-11-2020 13:25:00 2.6 C 4.51 g/m*3 -0.83 C 12.9 km/h
1315 29-11-2020 13:30:00 2.6 C 4.51 g/m*3 -0.14 C 9.7 km/h
1316 29-11-2020 13:35:00 2.6 C 4.46 g/m*3 0.29 C 8.1 km/h
1317 29-11-2020 13:40:00 2.6 C 4.46 g/m*3 -0.14 C 9.7 km/h
1318 29-11-2020 13:45:00 2.6 C 4.46 g/m*3 0.29 C 8.1 km/h
1319 29-11-2020 13:50:00 2.6 C 4.46 g/m*3 0.29 C 8.1 km/h
1320 29-11-2020 13:55:00 2.6 C 4.46 g/m*3 0.29 C 8.1 km/h
1321 29-11-2020 14:00:00 2.6 C 4.46 g/m*3 2.6 C 3.2 km/h
1322 29-11-2020 14:05:00 2.6 C 4.46 g/m*3 2.6 C 4.8 km/h
1323 29-11-2020 14:10:00 2.6 C 4.46 g/m*3 0.82 C 6.4 km/h
1324 29-11-2020 14:15:00 2.6 C 4.46 g/m*3 0.82 C 6.4 km/h
1325 29-11-2020 14:20:00 2.6 C 4.4 g/m*3 -0.14 C 9.7 km/h
Sensor: Nr:Datum:Temp:Abs-Feuchte:Windchill:Wind:
Aussen-T/F 1326 29-11-2020 14:25:00 2.6 C 4.46 g/m*3 0.82 C 6.4 km/h
1327 29-11-2020 14:30:00 2.6 C 4.46 g/m*3 2.6 C 4.8 km/h
1328 29-11-2020 14:35:00 2.6 C 4.46 g/m*3 2.6 C 3.2 km/h
1329 29-11-2020 14:40:00 2.6 C 4.46 g/m*3 2.6 C 3.2 km/h
1330 29-11-2020 14:45:00 2.6 C 4.46 g/m*3 2.6 C 3.2 km/h
1331 29-11-2020 14:50:00 2.6 C 4.4 g/m*3 0.82 C 6.4 km/h
1332 29-11-2020 14:55:00 2.5 C 4.37 g/m*3 -0.95 C 12.9 km/h
1333 29-11-2020 15:00:00 2.4 C 4.34 g/m*3 0.59 C 6.4 km/h
1334 29-11-2020 15:05:00 2.4 C 4.4 g/m*3 2.4 C 3.2 km/h
1335 29-11-2020 15:10:00 2.4 C 4.4 g/m*3 2.4 C 0 km/h
1336 29-11-2020 15:15:00 2.4 C 4.4 g/m*3 2.4 C 3.2 km/h
1337 29-11-2020 15:20:00 2.4 C 4.4 g/m*3 2.4 C 4.8 km/h
1338 29-11-2020 15:25:00 2.4 C 4.4 g/m*3 0.05 C 8.1 km/h
1339 29-11-2020 15:30:00 2.3 C 4.37 g/m*3 2.3 C 4.8 km/h
1340 29-11-2020 15:35:00 2.3 C 4.31 g/m*3 2.3 C 4.8 km/h
1341 29-11-2020 15:40:00 2.3 C 4.37 g/m*3 2.3 C 3.2 km/h
1342 29-11-2020 15:45:00 2.2 C 4.39 g/m*3 2.2 C 0 km/h
1343 29-11-2020 15:50:00 2.2 C 4.39 g/m*3 2.2 C 0 km/h
1344 29-11-2020 15:55:00 1.9 C 4.3 g/m*3 1.9 C 0 km/h
1345 29-11-2020 16:00:00 1.7 C 4.25 g/m*3 1.7 C 1.6 km/h
1346 29-11-2020 16:05:00 1.4 C 4.21 g/m*3 1.4 C 3.2 km/h
1347 29-11-2020 16:10:00 1.2 C 4.21 g/m*3 1.2 C 3.2 km/h
1348 29-11-2020 16:15:00 1 C 4.15 g/m*3 1 C 3.2 km/h
1349 29-11-2020 16:20:00 0.8 C 4.15 g/m*3 0.8 C 1.6 km/h
1350 29-11-2020 16:25:00 0.6 C 4.14 g/m*3 0.6 C 3.2 km/h
Sensor: Nr:Datum:Temp:Abs-Feuchte:Windchill:Wind:
Aussen-T/F 1351 29-11-2020 16:30:00 0.4 C 4.08 g/m*3 0.4 C 3.2 km/h
1352 29-11-2020 16:35:00 0.2 C 4.08 g/m*3 0.2 C 1.6 km/h
1353 29-11-2020 16:40:00 0.1 C 4.05 g/m*3 0.1 C 4.8 km/h
1354 29-11-2020 16:45:00 -0.1 C 4.04 g/m*3 -0.1 C 4.8 km/h
1355 29-11-2020 16:50:00 -0.2 C 4.01 g/m*3 -0.2 C 1.6 km/h
1356 29-11-2020 16:55:00 -0.3 C 3.99 g/m*3 -0.3 C 1.6 km/h
1357 29-11-2020 17:00:00 -0.4 C 4.01 g/m*3 -0.4 C 0 km/h
1358 29-11-2020 17:05:00 -0.5 C 3.98 g/m*3 -0.5 C 0 km/h
1359 29-11-2020 17:10:00 -0.6 C 4 g/m*3 -0.6 C 0 km/h
1360 29-11-2020 17:15:00 -0.6 C 4 g/m*3 -0.6 C 3.2 km/h
1361 29-11-2020 17:20:00 -0.7 C 3.97 g/m*3 -0.7 C 1.6 km/h
1362 29-11-2020 17:25:00 -0.8 C 3.94 g/m*3 -0.8 C 1.6 km/h
1363 29-11-2020 17:30:00 -0.9 C 3.96 g/m*3 -0.9 C 3.2 km/h
1364 29-11-2020 17:35:00 -1 C 3.93 g/m*3 -1 C 1.6 km/h
1365 29-11-2020 17:40:00 -1.1 C 3.95 g/m*3 -1.1 C 1.6 km/h
1366 29-11-2020 17:45:00 -1.2 C 3.92 g/m*3 -1.2 C 1.6 km/h
1367 29-11-2020 17:50:00 -1.2 C 3.92 g/m*3 -1.2 C 0 km/h
1368 29-11-2020 17:55:00 -1.3 C 3.9 g/m*3 -1.3 C 0 km/h
1369 29-11-2020 18:00:00 -1.4 C 3.91 g/m*3 -1.4 C 0 km/h
1370 29-11-2020 18:05:00 -1.4 C 3.91 g/m*3 -1.4 C 0 km/h
1371 29-11-2020 18:10:00 -1.5 C 3.89 g/m*3 -1.5 C 0 km/h
1372 29-11-2020 18:15:00 -1.6 C 3.86 g/m*3 -1.6 C 0 km/h
1373 29-11-2020 18:20:00 -1.7 C 3.83 g/m*3 -1.7 C 0 km/h
1374 29-11-2020 18:25:00 -1.7 C 3.83 g/m*3 -1.7 C 0 km/h
1375 29-11-2020 18:30:00 -1.8 C 3.85 g/m*3 -1.8 C 0 km/h
Sensor: Nr:Datum:Temp:Abs-Feuchte:Windchill:Wind:
Aussen-T/F 1376 29-11-2020 18:35:00 -1.8 C 3.8 g/m*3 -1.8 C 0 km/h
1377 29-11-2020 18:40:00 -1.9 C 3.82 g/m*3 -1.9 C 0 km/h
1378 29-11-2020 18:45:00 -2 C 3.79 g/m*3 -2 C 0 km/h
1379 29-11-2020 18:50:00 -2.1 C 3.77 g/m*3 -2.1 C 0 km/h
1380 29-11-2020 18:55:00 -2.1 C 3.77 g/m*3 -2.1 C 0 km/h
1381 29-11-2020 19:00:00 -2.2 C 3.74 g/m*3 -2.2 C 0 km/h
1382 29-11-2020 19:05:00 -2.2 C 3.74 g/m*3 -2.2 C 0 km/h
1383 29-11-2020 19:10:00 -2.3 C 3.76 g/m*3 -2.3 C 0 km/h
1384 29-11-2020 19:15:00 -2.3 C 3.76 g/m*3 -2.3 C 0 km/h
1385 29-11-2020 19:20:00 -2.3 C 3.76 g/m*3 -2.3 C 0 km/h
1386 29-11-2020 19:25:00 -2.3 C 3.76 g/m*3 -2.3 C 0 km/h
1387 29-11-2020 19:30:00 -2.3 C 3.76 g/m*3 -2.3 C 0 km/h
1388 29-11-2020 19:35:00 -2.4 C 3.73 g/m*3 -2.4 C 0 km/h
1389 29-11-2020 19:40:00 -2.4 C 3.77 g/m*3 -2.4 C 0 km/h
1390 29-11-2020 19:45:00 -2.4 C 3.77 g/m*3 -2.4 C 0 km/h
1391 29-11-2020 19:50:00 -2.5 C 3.74 g/m*3 -2.5 C 0 km/h
1392 29-11-2020 19:55:00 -2.5 C 3.74 g/m*3 -2.5 C 0 km/h
1393 29-11-2020 20:00:00 -2.6 C 3.72 g/m*3 -2.6 C 0 km/h
1394 29-11-2020 20:05:00 -2.6 C 3.72 g/m*3 -2.6 C 0 km/h
1395 29-11-2020 20:10:00 -2.6 C 3.72 g/m*3 -2.6 C 0 km/h
1396 29-11-2020 20:15:00 -2.7 C 3.69 g/m*3 -2.7 C 0 km/h
1397 29-11-2020 20:20:00 -2.7 C 3.69 g/m*3 -2.7 C 0 km/h
1398 29-11-2020 20:25:00 -2.7 C 3.69 g/m*3 -2.7 C 3.2 km/h
1399 29-11-2020 20:30:00 -2.7 C 3.69 g/m*3 -2.7 C 0 km/h
1400 29-11-2020 20:35:00 -2.7 C 3.69 g/m*3 -2.7 C 0 km/h
Sensor: Nr:Datum:Temp:Abs-Feuchte:Windchill:Wind:
Aussen-T/F 1401 29-11-2020 20:40:00 -2.8 C 3.67 g/m*3 -2.8 C 0 km/h
1402 29-11-2020 20:45:00 -2.8 C 3.67 g/m*3 -2.8 C 0 km/h
1403 29-11-2020 20:50:00 -2.8 C 3.67 g/m*3 -2.8 C 0 km/h
1404 29-11-2020 20:55:00 -2.9 C 3.64 g/m*3 -2.9 C 0 km/h
1405 29-11-2020 21:00:00 -2.9 C 3.64 g/m*3 -2.9 C 0 km/h
1406 29-11-2020 21:05:00 -3 C 3.61 g/m*3 -3 C 0 km/h
1407 29-11-2020 21:10:00 -3.1 C 3.59 g/m*3 -3.1 C 0 km/h
1408 29-11-2020 21:15:00 -3.1 C 3.59 g/m*3 -3.1 C 0 km/h
1409 29-11-2020 21:20:00 -3.2 C 3.56 g/m*3 -3.2 C 0 km/h
1410 29-11-2020 21:25:00 -3.2 C 3.6 g/m*3 -3.2 C 0 km/h
1411 29-11-2020 21:30:00 -3.2 C 3.6 g/m*3 -3.2 C 0 km/h
1412 29-11-2020 21:35:00 -3.3 C 3.58 g/m*3 -3.3 C 0 km/h
1413 29-11-2020 21:40:00 -3.3 C 3.58 g/m*3 -3.3 C 0 km/h
1414 29-11-2020 21:45:00 -3.3 C 3.58 g/m*3 -3.3 C 0 km/h
1415 29-11-2020 21:50:00 -3.3 C 3.58 g/m*3 -3.3 C 0 km/h
1416 29-11-2020 21:55:00 -3.4 C 3.55 g/m*3 -3.4 C 0 km/h
1417 29-11-2020 22:00:00 -3.4 C 3.55 g/m*3 -3.4 C 0 km/h
1418 29-11-2020 22:05:00 -3.4 C 3.55 g/m*3 -3.4 C 0 km/h
1419 29-11-2020 22:10:00 -3.4 C 3.55 g/m*3 -3.4 C 0 km/h
1420 29-11-2020 22:15:00 -3.5 C 3.53 g/m*3 -3.5 C 0 km/h
1421 29-11-2020 22:20:00 -3.5 C 3.53 g/m*3 -3.5 C 0 km/h
1422 29-11-2020 22:25:00 -3.5 C 3.53 g/m*3 -3.5 C 0 km/h
1423 29-11-2020 22:30:00 -3.6 C 3.5 g/m*3 -3.6 C 0 km/h
1424 29-11-2020 22:35:00 -3.6 C 3.5 g/m*3 -3.6 C 0 km/h
1425 29-11-2020 22:40:00 -3.6 C 3.5 g/m*3 -3.6 C 3.2 km/h
Sensor: Nr:Datum:Temp:Abs-Feuchte:Windchill:Wind:
Aussen-T/F 1426 29-11-2020 22:45:00 -3.5 C 3.56 g/m*3 -3.5 C 3.2 km/h
1427 29-11-2020 22:50:00 -3.3 C 3.61 g/m*3 -3.3 C 0 km/h
1428 29-11-2020 22:55:00 -3.3 C 3.61 g/m*3 -3.3 C 0 km/h
1429 29-11-2020 23:00:00 -3.4 C 3.59 g/m*3 -3.4 C 0 km/h
1430 29-11-2020 23:05:00 -3.4 C 3.59 g/m*3 -3.4 C 0 km/h
1431 29-11-2020 23:10:00 -3.5 C 3.56 g/m*3 -3.5 C 0 km/h
1432 29-11-2020 23:15:00 -3.6 C 3.5 g/m*3 -3.6 C 0 km/h
1433 29-11-2020 23:20:00 -3.6 C 3.54 g/m*3 -3.6 C 0 km/h
1434 29-11-2020 23:25:00 -3.6 C 3.54 g/m*3 -3.6 C 0 km/h
1435 29-11-2020 23:30:00 -3.6 C 3.54 g/m*3 -3.6 C 0 km/h
1436 29-11-2020 23:35:00 -3.6 C 3.54 g/m*3 -3.6 C 0 km/h
1437 29-11-2020 23:40:00 -3.6 C 3.54 g/m*3 -3.6 C 0 km/h
1438 29-11-2020 23:45:00 -3.6 C 3.54 g/m*3 -3.6 C 0 km/h
1439 29-11-2020 23:50:00 -3.6 C 3.54 g/m*3 -3.6 C 0 km/h
1440 29-11-2020 23:55:00 -3.6 C 3.54 g/m*3 -3.6 C 0 km/h
1441 30-11-2020 00:00:00 -3.7 C 3.51 g/m*3 -3.7 C 0 km/h
1442 30-11-2020 00:05:00 -3.7 C 3.51 g/m*3 -3.7 C 0 km/h
1443 30-11-2020 00:10:00 -3.7 C 3.51 g/m*3 -3.7 C 0 km/h
1444 30-11-2020 00:15:00 -3.8 C 3.49 g/m*3 -3.8 C 0 km/h
1445 30-11-2020 00:20:00 -3.8 C 3.49 g/m*3 -3.8 C 0 km/h
1446 30-11-2020 00:25:00 -3.9 C 3.46 g/m*3 -3.9 C 0 km/h
1447 30-11-2020 00:30:00 -3.9 C 3.46 g/m*3 -3.9 C 0 km/h
1448 30-11-2020 00:35:00 -3.9 C 3.46 g/m*3 -3.9 C 0 km/h
1449 30-11-2020 00:40:00 -4 C 3.44 g/m*3 -4 C 0 km/h
1450 30-11-2020 00:45:00 -4.1 C 3.41 g/m*3 -4.1 C 0 km/h
Sensor: Nr:Datum:Temp:Abs-Feuchte:Windchill:Wind:
Aussen-T/F 1451 30-11-2020 00:50:00 -4.1 C 3.41 g/m*3 -4.1 C 0 km/h
1452 30-11-2020 00:55:00 -4.2 C 3.39 g/m*3 -4.2 C 0 km/h
1453 30-11-2020 01:00:00 -4.2 C 3.39 g/m*3 -4.2 C 0 km/h
1454 30-11-2020 01:05:00 -4.2 C 3.39 g/m*3 -4.2 C 0 km/h
1455 30-11-2020 01:10:00 -4.3 C 3.37 g/m*3 -4.3 C 0 km/h
1456 30-11-2020 01:15:00 -4.3 C 3.37 g/m*3 -4.3 C 0 km/h
1457 30-11-2020 01:20:00 -4.3 C 3.37 g/m*3 -4.3 C 0 km/h
1458 30-11-2020 01:25:00 -4.3 C 3.37 g/m*3 -4.3 C 0 km/h
1459 30-11-2020 01:30:00 -4.4 C 3.34 g/m*3 -4.4 C 0 km/h
1460 30-11-2020 01:35:00 -4.4 C 3.34 g/m*3 -4.4 C 0 km/h
1461 30-11-2020 01:40:00 -4.4 C 3.34 g/m*3 -4.4 C 0 km/h
1462 30-11-2020 01:45:00 -4.4 C 3.34 g/m*3 -4.4 C 0 km/h
1463 30-11-2020 01:50:00 -4.3 C 3.37 g/m*3 -4.3 C 0 km/h
1464 30-11-2020 01:55:00 -4.2 C 3.39 g/m*3 -4.2 C 0 km/h
1465 30-11-2020 02:00:00 -4.1 C 3.45 g/m*3 -4.1 C 0 km/h
1466 30-11-2020 02:05:00 -4.2 C 3.43 g/m*3 -4.2 C 0 km/h
1467 30-11-2020 02:10:00 -4.3 C 3.37 g/m*3 -4.3 C 0 km/h
1468 30-11-2020 02:15:00 -4.4 C 3.34 g/m*3 -4.4 C 0 km/h
1469 30-11-2020 02:20:00 -4.4 C 3.34 g/m*3 -4.4 C 0 km/h
1470 30-11-2020 02:25:00 -4.6 C 3.29 g/m*3 -4.6 C 0 km/h
1471 30-11-2020 02:30:00 -4.6 C 3.29 g/m*3 -4.6 C 0 km/h
1472 30-11-2020 02:35:00 -4.7 C 3.27 g/m*3 -4.7 C 0 km/h
1473 30-11-2020 02:40:00 -4.8 C 3.25 g/m*3 -4.8 C 0 km/h
1474 30-11-2020 02:45:00 -4.8 C 3.25 g/m*3 -4.8 C 0 km/h
1475 30-11-2020 02:50:00 -4.8 C 3.25 g/m*3 -4.8 C 0 km/h
Sensor: Nr:Datum:Temp:Abs-Feuchte:Windchill:Wind:
Aussen-T/F 1476 30-11-2020 02:55:00 -4.9 C 3.22 g/m*3 -4.9 C 0 km/h
1477 30-11-2020 03:00:00 -4.9 C 3.22 g/m*3 -4.9 C 0 km/h
1478 30-11-2020 03:05:00 -4.9 C 3.22 g/m*3 -4.9 C 0 km/h
1479 30-11-2020 03:10:00 -4.9 C 3.22 g/m*3 -4.9 C 0 km/h
1480 30-11-2020 03:15:00 -4.9 C 3.22 g/m*3 -4.9 C 0 km/h
1481 30-11-2020 03:20:00 -4.9 C 3.22 g/m*3 -4.9 C 0 km/h
1482 30-11-2020 03:25:00 -4.8 C 3.25 g/m*3 -4.8 C 0 km/h
1483 30-11-2020 03:30:00 -4.8 C 3.25 g/m*3 -4.8 C 0 km/h
1484 30-11-2020 03:35:00 -4.8 C 3.25 g/m*3 -4.8 C 0 km/h
1485 30-11-2020 03:40:00 -4.9 C 3.22 g/m*3 -4.9 C 0 km/h
1486 30-11-2020 03:45:00 -4.9 C 3.22 g/m*3 -4.9 C 0 km/h
1487 30-11-2020 03:50:00 -5 C 3.2 g/m*3 -5 C 0 km/h
1488 30-11-2020 03:55:00 -5.1 C 3.18 g/m*3 -5.1 C 0 km/h
1489 30-11-2020 04:00:00 -5.1 C 3.18 g/m*3 -5.1 C 0 km/h
1490 30-11-2020 04:05:00 -5.2 C 3.15 g/m*3 -5.2 C 0 km/h
1491 30-11-2020 04:10:00 -5.2 C 3.15 g/m*3 -5.2 C 0 km/h
1492 30-11-2020 04:15:00 -5.2 C 3.15 g/m*3 -5.2 C 0 km/h
1493 30-11-2020 04:20:00 -5.3 C 3.13 g/m*3 -5.3 C 0 km/h
1494 30-11-2020 04:25:00 -5.3 C 3.13 g/m*3 -5.3 C 0 km/h
1495 30-11-2020 04:30:00 -5.3 C 3.13 g/m*3 -5.3 C 0 km/h
1496 30-11-2020 04:35:00 -5.3 C 3.13 g/m*3 -5.3 C 0 km/h
1497 30-11-2020 04:40:00 -5.3 C 3.13 g/m*3 -5.3 C 0 km/h
1498 30-11-2020 04:45:00 -5.3 C 3.13 g/m*3 -5.3 C 0 km/h
1499 30-11-2020 04:50:00 -5.2 C 3.15 g/m*3 -5.2 C 0 km/h
1500 30-11-2020 04:55:00 -5.2 C 3.15 g/m*3 -5.2 C 0 km/h
Sensor: Nr:Datum:Temp:Abs-Feuchte:Windchill:Wind:
Aussen-T/F 1501 30-11-2020 05:00:00 -5.2 C 3.15 g/m*3 -5.2 C 0 km/h
1502 30-11-2020 05:05:00 -5.3 C 3.13 g/m*3 -5.3 C 0 km/h
1503 30-11-2020 05:10:00 -5.3 C 3.13 g/m*3 -5.3 C 0 km/h
1504 30-11-2020 05:15:00 -5.4 C 3.11 g/m*3 -5.4 C 0 km/h
1505 30-11-2020 05:20:00 -5.4 C 3.11 g/m*3 -5.4 C 0 km/h
1506 30-11-2020 05:25:00 -5.5 C 3.09 g/m*3 -5.5 C 0 km/h
1507 30-11-2020 05:30:00 -5.6 C 3.06 g/m*3 -5.6 C 0 km/h
1508 30-11-2020 05:35:00 -5.5 C 3.09 g/m*3 -5.5 C 0 km/h
1509 30-11-2020 05:40:00 -5.4 C 3.11 g/m*3 -5.4 C 0 km/h
1510 30-11-2020 05:45:00 -5.3 C 3.17 g/m*3 -5.3 C 0 km/h
1511 30-11-2020 05:50:00 -5.2 C 3.19 g/m*3 -5.2 C 0 km/h
1512 30-11-2020 05:55:00 -5.2 C 3.19 g/m*3 -5.2 C 0 km/h
1513 30-11-2020 06:00:00 -5.2 C 3.19 g/m*3 -5.2 C 0 km/h
1514 30-11-2020 06:05:00 -5.2 C 3.19 g/m*3 -5.2 C 0 km/h
1515 30-11-2020 06:10:00 -5.1 C 3.21 g/m*3 -5.1 C 0 km/h
1516 30-11-2020 06:15:00 -5.1 C 3.21 g/m*3 -5.1 C 0 km/h
1517 30-11-2020 06:20:00 -5.1 C 3.21 g/m*3 -5.1 C 0 km/h
1518 30-11-2020 06:25:00 -5.1 C 3.21 g/m*3 -5.1 C 0 km/h
1519 30-11-2020 06:30:00 -5.2 C 3.15 g/m*3 -5.2 C 0 km/h
1520 30-11-2020 06:35:00 -5.3 C 3.13 g/m*3 -5.3 C 0 km/h
1521 30-11-2020 06:40:00 -5.4 C 3.11 g/m*3 -5.4 C 0 km/h
1522 30-11-2020 06:45:00 -5.4 C 3.11 g/m*3 -5.4 C 3.2 km/h
1523 30-11-2020 06:50:00 -5.3 C 3.17 g/m*3 -5.3 C 0 km/h
1524 30-11-2020 06:55:00 -5.2 C 3.19 g/m*3 -5.2 C 0 km/h
1525 30-11-2020 07:00:00 -5.1 C 3.21 g/m*3 -5.1 C 0 km/h
Sensor: Nr:Datum:Temp:Abs-Feuchte:Windchill:Wind:
Aussen-T/F 1526 30-11-2020 07:05:00 -5.1 C 3.21 g/m*3 -5.1 C 0 km/h
1527 30-11-2020 07:10:00 -5 C 3.23 g/m*3 -5 C 0 km/h
1528 30-11-2020 07:15:00 -4.9 C 3.26 g/m*3 -4.9 C 1.6 km/h
1529 30-11-2020 07:20:00 -4.9 C 3.26 g/m*3 -4.9 C 0 km/h
1530 30-11-2020 07:25:00 -4.9 C 3.26 g/m*3 -4.9 C 0 km/h
1531 30-11-2020 07:30:00 -5 C 3.23 g/m*3 -5 C 0 km/h
1532 30-11-2020 07:35:00 -5.1 C 3.21 g/m*3 -5.1 C 0 km/h
1533 30-11-2020 07:40:00 -5.2 C 3.15 g/m*3 -5.2 C 0 km/h
1534 30-11-2020 07:45:00 -5.3 C 3.13 g/m*3 -5.3 C 0 km/h
1535 30-11-2020 07:50:00 -5.4 C 3.11 g/m*3 -5.4 C 0 km/h
1536 30-11-2020 07:55:00 -5.6 C 3.06 g/m*3 -5.6 C 0 km/h
1537 30-11-2020 08:00:00 -5.7 C 3.04 g/m*3 -5.7 C 1.6 km/h
1538 30-11-2020 08:05:00 -5.8 C 3.02 g/m*3 -5.8 C 0 km/h
1539 30-11-2020 08:10:00 -5.8 C 3.02 g/m*3 -5.8 C 1.6 km/h
1540 30-11-2020 08:15:00 -5.8 C 3.02 g/m*3 -5.8 C 0 km/h
1541 30-11-2020 08:20:00 -5.8 C 3.02 g/m*3 -5.8 C 0 km/h
1542 30-11-2020 08:25:00 -5.7 C 3.04 g/m*3 -5.7 C 1.6 km/h
1543 30-11-2020 08:30:00 -5.7 C 3.04 g/m*3 -5.7 C 0 km/h
1544 30-11-2020 08:35:00 -5.7 C 3.04 g/m*3 -5.7 C 0 km/h
1545 30-11-2020 08:40:00 -5.8 C 3.02 g/m*3 -5.8 C 0 km/h
1546 30-11-2020 08:45:00 -5.8 C 3.02 g/m*3 -5.8 C 0 km/h
1547 30-11-2020 08:50:00 -5.8 C 3.02 g/m*3 -5.8 C 0 km/h
1548 30-11-2020 08:55:00 -5.8 C 3.02 g/m*3 -5.8 C 0 km/h
1549 30-11-2020 09:00:00 -5.8 C 3.02 g/m*3 -5.8 C 0 km/h
1550 30-11-2020 09:05:00 -5.7 C 3.07 g/m*3 -5.7 C 0 km/h
Sensor: Nr:Datum:Temp:Abs-Feuchte:Windchill:Wind:
Aussen-T/F 1551 30-11-2020 09:10:00 -5.6 C 3.1 g/m*3 -5.6 C 1.6 km/h
1552 30-11-2020 09:15:00 -5.5 C 3.12 g/m*3 -5.5 C 0 km/h
1553 30-11-2020 09:20:00 -5.4 C 3.11 g/m*3 -5.4 C 0 km/h
1554 30-11-2020 09:25:00 -5.4 C 3.11 g/m*3 -5.4 C 0 km/h
1555 30-11-2020 09:30:00 -5.4 C 3.11 g/m*3 -5.4 C 0 km/h
1556 30-11-2020 09:35:00 -5.4 C 3.14 g/m*3 -5.4 C 0 km/h
1557 30-11-2020 09:40:00 -5.4 C 3.14 g/m*3 -5.4 C 0 km/h
1558 30-11-2020 09:45:00 -5.3 C 3.17 g/m*3 -5.3 C 0 km/h
1559 30-11-2020 09:50:00 -5.3 C 3.17 g/m*3 -5.3 C 0 km/h
1560 30-11-2020 09:55:00 -5.3 C 3.17 g/m*3 -5.3 C 0 km/h
1561 30-11-2020 10:00:00 -5.2 C 3.19 g/m*3 -5.2 C 0 km/h
1562 30-11-2020 10:05:00 -5.2 C 3.19 g/m*3 -5.2 C 0 km/h
1563 30-11-2020 10:10:00 -5.1 C 3.21 g/m*3 -5.1 C 1.6 km/h
1564 30-11-2020 10:15:00 -5.1 C 3.21 g/m*3 -5.1 C 0 km/h
1565 30-11-2020 10:20:00 -5 C 3.23 g/m*3 -5 C 3.2 km/h
1566 30-11-2020 10:25:00 -4.9 C 3.26 g/m*3 -4.9 C 1.6 km/h
1567 30-11-2020 10:30:00 -4.8 C 3.28 g/m*3 -4.8 C 0 km/h
1568 30-11-2020 10:35:00 -4.7 C 3.31 g/m*3 -4.7 C 0 km/h
1569 30-11-2020 10:40:00 -4.6 C 3.33 g/m*3 -4.6 C 0 km/h
1570 30-11-2020 10:45:00 -4.5 C 3.35 g/m*3 -4.5 C 0 km/h
1571 30-11-2020 10:50:00 -4.4 C 3.38 g/m*3 -4.4 C 0 km/h
1572 30-11-2020 10:55:00 -4.3 C 3.4 g/m*3 -4.3 C 0 km/h
1573 30-11-2020 11:00:00 -4.3 C 3.4 g/m*3 -4.3 C 1.6 km/h
1574 30-11-2020 11:05:00 -4.2 C 3.43 g/m*3 -4.2 C 0 km/h
1575 30-11-2020 11:10:00 -4.1 C 3.45 g/m*3 -4.1 C 0 km/h
Sensor: Nr:Datum:Temp:Abs-Feuchte:Windchill:Wind:
Aussen-T/F 1576 30-11-2020 11:15:00 -3.9 C 3.5 g/m*3 -3.9 C 0 km/h
1577 30-11-2020 11:20:00 -3.8 C 3.53 g/m*3 -3.8 C 0 km/h
1578 30-11-2020 11:25:00 -3.7 C 3.55 g/m*3 -3.7 C 0 km/h
1579 30-11-2020 11:30:00 -3.6 C 3.58 g/m*3 -3.6 C 3.2 km/h
1580 30-11-2020 11:35:00 -3.5 C 3.6 g/m*3 -3.5 C 3.2 km/h
1581 30-11-2020 11:40:00 -3.3 C 3.65 g/m*3 -3.3 C 3.2 km/h
1582 30-11-2020 11:45:00 -3.2 C 3.68 g/m*3 -3.2 C 3.2 km/h
1583 30-11-2020 11:50:00 -3.2 C 3.72 g/m*3 -3.2 C 0 km/h
1584 30-11-2020 11:55:00 -3.1 C 3.71 g/m*3 -3.1 C 0 km/h
1585 30-11-2020 12:00:00 -2.9 C 3.76 g/m*3 -2.9 C 3.2 km/h
1586 30-11-2020 12:05:00 -2.9 C 3.8 g/m*3 -2.9 C 1.6 km/h
1587 30-11-2020 12:10:00 -2.8 C 3.82 g/m*3 -2.8 C 0 km/h
1588 30-11-2020 12:15:00 -2.8 C 3.78 g/m*3 -2.8 C 0 km/h
1589 30-11-2020 12:20:00 -2.7 C 3.81 g/m*3 -2.7 C 0 km/h
1590 30-11-2020 12:25:00 -2.6 C 3.84 g/m*3 -2.6 C 3.2 km/h
1591 30-11-2020 12:30:00 -2.4 C 3.93 g/m*3 -2.4 C 1.6 km/h
1592 30-11-2020 12:35:00 -2.3 C 3.96 g/m*3 -2.3 C 4.8 km/h
1593 30-11-2020 12:40:00 -2.1 C 4.02 g/m*3 -2.1 C 0 km/h
1594 30-11-2020 12:45:00 -1.8 C 4.1 g/m*3 -1.8 C 3.2 km/h
1595 30-11-2020 12:50:00 -1.5 C 4.19 g/m*3 -1.5 C 0 km/h
1596 30-11-2020 12:55:00 -1.2 C 4.28 g/m*3 -1.2 C 3.2 km/h
1597 30-11-2020 13:00:00 -0.9 C 4.37 g/m*3 -3.22 C 6.4 km/h
1598 30-11-2020 13:05:00 -0.7 C 4.43 g/m*3 -2.99 C 6.4 km/h
1599 30-11-2020 13:10:00 -0.5 C 4.49 g/m*3 -0.5 C 1.6 km/h
1600 30-11-2020 13:15:00 -0.3 C 4.56 g/m*3 -0.3 C 0 km/h
Sensor: Nr:Datum:Temp:Abs-Feuchte:Windchill:Wind:
Aussen-T/F 1601 30-11-2020 13:20:00 -0.2 C 4.59 g/m*3 -0.2 C 0 km/h
1602 30-11-2020 13:25:00 -0.1 C 4.62 g/m*3 -0.1 C 4.8 km/h
1603 30-11-2020 13:30:00 0.1 C 4.68 g/m*3 0.1 C 4.8 km/h
1604 30-11-2020 13:35:00 0.2 C 4.72 g/m*3 0.2 C 3.2 km/h
1605 30-11-2020 13:40:00 0.4 C 4.78 g/m*3 0.4 C 3.2 km/h
1606 30-11-2020 13:45:00 0.5 C 4.86 g/m*3 0.5 C 0 km/h
1607 30-11-2020 13:50:00 0.7 C 4.88 g/m*3 0.7 C 1.6 km/h
1608 30-11-2020 13:55:00 0.9 C 5 g/m*3 -2.16 C 9.7 km/h
1609 30-11-2020 14:00:00 1.1 C 5.02 g/m*3 1.1 C 1.6 km/h
1610 30-11-2020 14:05:00 1.3 C 5.14 g/m*3 1.3 C 4.8 km/h
1611 30-11-2020 14:10:00 1.6 C 5.25 g/m*3 -1.33 C 9.7 km/h
1612 30-11-2020 14:15:00 1.8 C 5.26 g/m*3 1.8 C 4.8 km/h
1613 30-11-2020 14:20:00 2 C 5.28 g/m*3 2 C 0 km/h
1614 30-11-2020 14:25:00 2.1 C 5.26 g/m*3 -0.73 C 9.7 km/h
1615 30-11-2020 14:30:00 2.2 C 5.24 g/m*3 2.2 C 1.6 km/h
1616 30-11-2020 14:35:00 2.3 C 5.27 g/m*3 2.3 C 3.2 km/h
1617 30-11-2020 14:40:00 2.4 C 5.25 g/m*3 2.4 C 0 km/h
1618 30-11-2020 14:45:00 2.4 C 5.25 g/m*3 2.4 C 4.8 km/h
1619 30-11-2020 14:50:00 2.5 C 5.23 g/m*3 2.5 C 4.8 km/h
1620 30-11-2020 14:55:00 2.5 C 5.17 g/m*3 2.5 C 1.6 km/h
1621 30-11-2020 15:00:00 2.4 C 5.14 g/m*3 2.4 C 1.6 km/h
1622 30-11-2020 15:05:00 2.3 C 5.05 g/m*3 2.3 C 1.6 km/h
1623 30-11-2020 15:10:00 2.2 C 5.07 g/m*3 2.2 C 0 km/h
1624 30-11-2020 15:15:00 2 C 4.95 g/m*3 2 C 3.2 km/h
1625 30-11-2020 15:20:00 2 C 4.95 g/m*3 2 C 1.6 km/h
Sensor: Nr:Datum:Temp:Abs-Feuchte:Windchill:Wind:
Aussen-T/F 1626 30-11-2020 15:25:00 2.1 C 4.98 g/m*3 2.1 C 1.6 km/h
1627 30-11-2020 15:30:00 2.1 C 4.98 g/m*3 2.1 C 4.8 km/h
1628 30-11-2020 15:35:00 2.2 C 4.96 g/m*3 -0.18 C 8.1 km/h
1629 30-11-2020 15:40:00 2.3 C 4.93 g/m*3 2.3 C 4.8 km/h
1630 30-11-2020 15:45:00 2.4 C 4.97 g/m*3 2.4 C 4.8 km/h
1631 30-11-2020 15:50:00 2.5 C 4.94 g/m*3 0.17 C 8.1 km/h
1632 30-11-2020 15:55:00 2.6 C 4.92 g/m*3 0.82 C 6.4 km/h
1633 30-11-2020 16:00:00 2.7 C 4.89 g/m*3 -0.38 C 11.3 km/h
1634 30-11-2020 16:05:00 2.8 C 4.93 g/m*3 -0.26 C 11.3 km/h
1635 30-11-2020 16:10:00 2.9 C 4.9 g/m*3 -0.76 C 14.5 km/h
1636 30-11-2020 16:15:00 3 C 4.93 g/m*3 -0.63 C 14.5 km/h
1637 30-11-2020 16:20:00 3 C 4.93 g/m*3 0.34 C 9.7 km/h
1638 30-11-2020 16:25:00 3 C 4.93 g/m*3 -0.02 C 11.3 km/h
1639 30-11-2020 16:30:00 3 C 4.93 g/m*3 0.34 C 9.7 km/h
1640 30-11-2020 16:35:00 3 C 4.93 g/m*3 -0.02 C 11.3 km/h
1641 30-11-2020 16:40:00 2.9 C 4.9 g/m*3 0.64 C 8.1 km/h
1642 30-11-2020 16:45:00 2.9 C 4.9 g/m*3 2.9 C 4.8 km/h
1643 30-11-2020 16:50:00 2.8 C 4.87 g/m*3 2.8 C 4.8 km/h
1644 30-11-2020 16:55:00 2.8 C 4.87 g/m*3 2.8 C 4.8 km/h
1645 30-11-2020 17:00:00 2.8 C 4.87 g/m*3 1.05 C 6.4 km/h
1646 30-11-2020 17:05:00 2.7 C 4.84 g/m*3 2.7 C 4.8 km/h
1647 30-11-2020 17:10:00 2.7 C 4.84 g/m*3 0.4 C 8.1 km/h
1648 30-11-2020 17:15:00 2.8 C 4.87 g/m*3 0.1 C 9.7 km/h
1649 30-11-2020 17:20:00 2.8 C 4.87 g/m*3 -0.26 C 11.3 km/h
1650 30-11-2020 17:25:00 2.8 C 4.87 g/m*3 0.52 C 8.1 km/h
Sensor: Nr:Datum:Temp:Abs-Feuchte:Windchill:Wind:
Aussen-T/F 1651 30-11-2020 17:30:00 2.8 C 4.87 g/m*3 -0.26 C 11.3 km/h
1652 30-11-2020 17:35:00 2.9 C 4.9 g/m*3 0.64 C 8.1 km/h
1653 30-11-2020 17:40:00 2.9 C 4.9 g/m*3 0.22 C 9.7 km/h
1654 30-11-2020 17:45:00 2.9 C 4.9 g/m*3 -0.14 C 11.3 km/h
1655 30-11-2020 17:50:00 2.9 C 4.9 g/m*3 1.17 C 6.4 km/h
1656 30-11-2020 17:55:00 2.9 C 4.9 g/m*3 0.22 C 9.7 km/h
1657 30-11-2020 18:00:00 2.9 C 4.9 g/m*3 1.17 C 6.4 km/h
1658 30-11-2020 18:05:00 2.9 C 4.9 g/m*3 -0.76 C 14.5 km/h
1659 30-11-2020 18:10:00 3 C 4.93 g/m*3 -1.36 C 19.3 km/h
1660 30-11-2020 18:15:00 3.1 C 4.91 g/m*3 0.1 C 11.3 km/h
1661 30-11-2020 18:20:00 3.1 C 4.91 g/m*3 -0.51 C 14.5 km/h
1662 30-11-2020 18:25:00 3.2 C 4.94 g/m*3 0.58 C 9.7 km/h
1663 30-11-2020 18:30:00 3.2 C 4.94 g/m*3 -0.89 C 17.7 km/h
1664 30-11-2020 18:35:00 3.2 C 4.94 g/m*3 -0.65 C 16.1 km/h
1665 30-11-2020 18:40:00 3.1 C 4.91 g/m*3 -0.77 C 16.1 km/h
1666 30-11-2020 18:45:00 3.1 C 4.91 g/m*3 -0.77 C 16.1 km/h
1667 30-11-2020 18:50:00 3.1 C 4.97 g/m*3 -0.51 C 14.5 km/h
1668 30-11-2020 18:55:00 3 C 4.99 g/m*3 -1.14 C 17.7 km/h
1669 30-11-2020 19:00:00 2.9 C 5.02 g/m*3 -0.76 C 14.5 km/h
1670 30-11-2020 19:05:00 2.8 C 5.04 g/m*3 -0.59 C 12.9 km/h
1671 30-11-2020 19:10:00 2.7 C 5.01 g/m*3 -0.02 C 9.7 km/h
1672 30-11-2020 19:15:00 2.7 C 5.07 g/m*3 -0.71 C 12.9 km/h
1673 30-11-2020 19:20:00 2.7 C 5.07 g/m*3 -0.02 C 9.7 km/h
1674 30-11-2020 19:25:00 2.6 C 5.09 g/m*3 -1.12 C 14.5 km/h
1675 30-11-2020 19:30:00 2.6 C 5.15 g/m*3 0.29 C 8.1 km/h
Sensor: Nr:Datum:Temp:Abs-Feuchte:Windchill:Wind:
Aussen-T/F 1676 30-11-2020 19:35:00 2.5 C 5.12 g/m*3 -0.95 C 12.9 km/h
1677 30-11-2020 19:40:00 2.4 C 5.14 g/m*3 -0.74 C 11.3 km/h
1678 30-11-2020 19:45:00 2.4 C 5.14 g/m*3 0.59 C 6.4 km/h
1679 30-11-2020 19:50:00 2.3 C 5.1 g/m*3 -0.87 C 11.3 km/h
1680 30-11-2020 19:55:00 2.3 C 5.16 g/m*3 -0.87 C 11.3 km/h
1681 30-11-2020 20:00:00 2.3 C 5.16 g/m*3 2.3 C 4.8 km/h
1682 30-11-2020 20:05:00 2.2 C 5.13 g/m*3 -1.89 C 16.1 km/h
1683 30-11-2020 20:10:00 2.2 C 5.13 g/m*3 -1.32 C 12.9 km/h
1684 30-11-2020 20:15:00 2.2 C 5.18 g/m*3 -2.37 C 19.3 km/h
1685 30-11-2020 20:20:00 2.1 C 5.15 g/m*3 -1.44 C 12.9 km/h
1686 30-11-2020 20:25:00 2.1 C 5.15 g/m*3 -1.44 C 12.9 km/h
1687 30-11-2020 20:30:00 2.1 C 5.15 g/m*3 -1.74 C 14.5 km/h
1688 30-11-2020 20:35:00 2.1 C 5.15 g/m*3 -1.11 C 11.3 km/h
1689 30-11-2020 20:40:00 2 C 5.17 g/m*3 -1.86 C 14.5 km/h
1690 30-11-2020 20:45:00 2 C 5.17 g/m*3 -2.14 C 16.1 km/h
1691 30-11-2020 20:50:00 2 C 5.17 g/m*3 -1.56 C 12.9 km/h
1692 30-11-2020 20:55:00 2 C 5.17 g/m*3 -1.23 C 11.3 km/h
1693 30-11-2020 21:00:00 2 C 5.17 g/m*3 -1.56 C 12.9 km/h
1694 30-11-2020 21:05:00 1.9 C 5.13 g/m*3 -0.97 C 9.7 km/h
1695 30-11-2020 21:10:00 1.9 C 5.13 g/m*3 -0.97 C 9.7 km/h
1696 30-11-2020 21:15:00 1.9 C 5.19 g/m*3 -1.35 C 11.3 km/h
1697 30-11-2020 21:20:00 1.9 C 5.19 g/m*3 -0.54 C 8.1 km/h
1698 30-11-2020 21:25:00 1.9 C 5.19 g/m*3 -0.97 C 9.7 km/h
1699 30-11-2020 21:30:00 1.9 C 5.19 g/m*3 -0.54 C 8.1 km/h
1700 30-11-2020 21:35:00 1.9 C 5.19 g/m*3 0.01 C 6.4 km/h
Sensor: Nr:Datum:Temp:Abs-Feuchte:Windchill:Wind:
Aussen-T/F 1701 30-11-2020 21:40:00 1.9 C 5.19 g/m*3 1.9 C 4.8 km/h
1702 30-11-2020 21:45:00 1.9 C 5.19 g/m*3 1.9 C 3.2 km/h
1703 30-11-2020 21:50:00 1.9 C 5.19 g/m*3 1.9 C 0 km/h
1704 30-11-2020 21:55:00 1.9 C 5.19 g/m*3 1.9 C 1.6 km/h
1705 30-11-2020 22:00:00 1.9 C 5.19 g/m*3 1.9 C 3.2 km/h
1706 30-11-2020 22:05:00 1.9 C 5.19 g/m*3 1.9 C 1.6 km/h
1707 30-11-2020 22:10:00 1.9 C 5.19 g/m*3 1.9 C 4.8 km/h
1708 30-11-2020 22:15:00 1.9 C 5.24 g/m*3 1.9 C 4.8 km/h
1709 30-11-2020 22:20:00 1.9 C 5.24 g/m*3 1.9 C 3.2 km/h
1710 30-11-2020 22:25:00 1.9 C 5.24 g/m*3 1.9 C 3.2 km/h
1711 30-11-2020 22:30:00 1.9 C 5.24 g/m*3 1.9 C 4.8 km/h
1712 30-11-2020 22:35:00 1.9 C 5.24 g/m*3 1.9 C 1.6 km/h
1713 30-11-2020 22:40:00 1.9 C 5.24 g/m*3 -0.54 C 8.1 km/h
1714 30-11-2020 22:45:00 1.9 C 5.24 g/m*3 1.9 C 4.8 km/h
1715 30-11-2020 22:50:00 1.9 C 5.24 g/m*3 -0.54 C 8.1 km/h
1716 30-11-2020 22:55:00 1.8 C 5.15 g/m*3 -1.09 C 9.7 km/h
1717 30-11-2020 23:00:00 1.8 C 5.15 g/m*3 -2.11 C 14.5 km/h
1718 30-11-2020 23:05:00 1.8 C 5.15 g/m*3 -1.09 C 9.7 km/h
1719 30-11-2020 23:10:00 1.7 C 5.12 g/m*3 -1.93 C 12.9 km/h
1720 30-11-2020 23:15:00 1.7 C 5.17 g/m*3 -3.22 C 20.9 km/h
1721 30-11-2020 23:20:00 1.7 C 5.17 g/m*3 -3.22 C 20.9 km/h
1722 30-11-2020 23:25:00 1.6 C 5.14 g/m*3 -1.33 C 9.7 km/h
1723 30-11-2020 23:30:00 1.5 C 5.05 g/m*3 -0.45 C 6.4 km/h
1724 30-11-2020 23:35:00 1.5 C 5.05 g/m*3 -0.45 C 6.4 km/h
1725 30-11-2020 23:40:00 1.4 C 5.07 g/m*3 -2.29 C 12.9 km/h
Sensor: Nr:Datum:Temp:Abs-Feuchte:Windchill:Wind:
Aussen-T/F 1726 30-11-2020 23:45:00 1.4 C 5.07 g/m*3 -1.57 C 9.7 km/h
1727 30-11-2020 23:50:00 1.4 C 5.07 g/m*3 -2.6 C 14.5 km/h
1728 30-11-2020 23:55:00 1.4 C 5.07 g/m*3 -1.12 C 8.1 km/h
1729 01-12-2020 00:00:00 1.3 C 5.03 g/m*3 -2.72 C 14.5 km/h
1730 01-12-2020 00:05:00 1.3 C 5.03 g/m*3 -2.41 C 12.9 km/h
1731 01-12-2020 00:10:00 1.3 C 5.03 g/m*3 -1.69 C 9.7 km/h
1732 01-12-2020 00:15:00 1.3 C 5.03 g/m*3 -2.07 C 11.3 km/h
1733 01-12-2020 00:20:00 1.3 C 5.03 g/m*3 -1.69 C 9.7 km/h
1734 01-12-2020 00:25:00 1.2 C 5 g/m*3 -0.8 C 6.4 km/h
1735 01-12-2020 00:30:00 1.2 C 5 g/m*3 -1.8 C 9.7 km/h
1736 01-12-2020 00:35:00 1.2 C 5 g/m*3 -1.36 C 8.1 km/h
1737 01-12-2020 00:40:00 1.2 C 5 g/m*3 -2.19 C 11.3 km/h
1738 01-12-2020 00:45:00 1.2 C 5 g/m*3 -3.39 C 17.7 km/h
1739 01-12-2020 00:50:00 1.3 C 5.03 g/m*3 -2.72 C 14.5 km/h
1740 01-12-2020 00:55:00 1.3 C 5.03 g/m*3 -1.69 C 9.7 km/h
1741 01-12-2020 01:00:00 1.3 C 5.03 g/m*3 -2.07 C 11.3 km/h
1742 01-12-2020 01:05:00 1.3 C 5.03 g/m*3 -2.07 C 11.3 km/h
1743 01-12-2020 01:10:00 1.3 C 5.03 g/m*3 -2.07 C 11.3 km/h
1744 01-12-2020 01:15:00 1.4 C 5.07 g/m*3 -2.88 C 16.1 km/h
1745 01-12-2020 01:20:00 1.4 C 5.07 g/m*3 -1.57 C 9.7 km/h
1746 01-12-2020 01:25:00 1.4 C 5.07 g/m*3 -0.56 C 6.4 km/h
1747 01-12-2020 01:30:00 1.4 C 5.07 g/m*3 -1.57 C 9.7 km/h
1748 01-12-2020 01:35:00 1.4 C 5.07 g/m*3 -0.56 C 6.4 km/h
1749 01-12-2020 01:40:00 1.4 C 5.07 g/m*3 1.4 C 1.6 km/h
1750 01-12-2020 01:45:00 1.4 C 5.07 g/m*3 -1.57 C 9.7 km/h
Sensor: Nr:Datum:Temp:Abs-Feuchte:Windchill:Wind:
Aussen-T/F 1751 01-12-2020 01:50:00 1.4 C 5.07 g/m*3 -1.95 C 11.3 km/h
1752 01-12-2020 01:55:00 1.4 C 5.07 g/m*3 -1.95 C 11.3 km/h
1753 01-12-2020 02:00:00 1.4 C 5.07 g/m*3 1.4 C 4.8 km/h
1754 01-12-2020 02:05:00 1.4 C 5.07 g/m*3 -2.29 C 12.9 km/h
1755 01-12-2020 02:10:00 1.5 C 5.1 g/m*3 -0.45 C 6.4 km/h
1756 01-12-2020 02:15:00 1.5 C 5.1 g/m*3 -2.17 C 12.9 km/h
1757 01-12-2020 02:20:00 1.6 C 5.14 g/m*3 -2.63 C 16.1 km/h
1758 01-12-2020 02:25:00 1.5 C 5.1 g/m*3 1.5 C 3.2 km/h
1759 01-12-2020 02:30:00 1.5 C 5.1 g/m*3 1.5 C 3.2 km/h
1760 01-12-2020 02:35:00 1.5 C 5.1 g/m*3 1.5 C 4.8 km/h
1761 01-12-2020 02:40:00 1.5 C 5.1 g/m*3 -1.01 C 8.1 km/h
1762 01-12-2020 02:45:00 1.5 C 5.1 g/m*3 1.5 C 3.2 km/h
1763 01-12-2020 02:50:00 1.5 C 5.1 g/m*3 1.5 C 4.8 km/h
1764 01-12-2020 02:55:00 1.5 C 5.1 g/m*3 -3.25 C 19.3 km/h
1765 01-12-2020 03:00:00 1.5 C 5.1 g/m*3 -1.45 C 9.7 km/h
1766 01-12-2020 03:05:00 1.5 C 5.1 g/m*3 -2.76 C 16.1 km/h
1767 01-12-2020 03:10:00 1.5 C 5.1 g/m*3 -1.01 C 8.1 km/h
1768 01-12-2020 03:15:00 1.6 C 5.14 g/m*3 -2.05 C 12.9 km/h
1769 01-12-2020 03:20:00 1.6 C 5.14 g/m*3 -2.05 C 12.9 km/h
1770 01-12-2020 03:25:00 1.6 C 5.14 g/m*3 -2.05 C 12.9 km/h
1771 01-12-2020 03:30:00 1.6 C 5.14 g/m*3 -1.71 C 11.3 km/h
1772 01-12-2020 03:35:00 1.7 C 5.17 g/m*3 -1.21 C 9.7 km/h
1773 01-12-2020 03:40:00 1.7 C 5.17 g/m*3 -1.59 C 11.3 km/h
1774 01-12-2020 03:45:00 1.7 C 5.17 g/m*3 -1.59 C 11.3 km/h
1775 01-12-2020 03:50:00 1.7 C 5.17 g/m*3 -1.93 C 12.9 km/h
Sensor: Nr:Datum:Temp:Abs-Feuchte:Windchill:Wind:
Aussen-T/F 1776 01-12-2020 03:55:00 1.7 C 5.17 g/m*3 -1.59 C 11.3 km/h
1777 01-12-2020 04:00:00 1.7 C 5.17 g/m*3 -1.59 C 11.3 km/h
1778 01-12-2020 04:05:00 1.7 C 5.17 g/m*3 -0.22 C 6.4 km/h
1779 01-12-2020 04:10:00 1.7 C 5.17 g/m*3 -1.93 C 12.9 km/h
1780 01-12-2020 04:15:00 1.7 C 5.17 g/m*3 -0.77 C 8.1 km/h
1781 01-12-2020 04:20:00 1.7 C 5.17 g/m*3 -1.21 C 9.7 km/h
1782 01-12-2020 04:25:00 1.7 C 5.17 g/m*3 -1.59 C 11.3 km/h
1783 01-12-2020 04:30:00 1.7 C 5.17 g/m*3 -2.23 C 14.5 km/h
1784 01-12-2020 04:35:00 1.8 C 5.21 g/m*3 -1.47 C 11.3 km/h
1785 01-12-2020 04:40:00 1.7 C 5.17 g/m*3 -1.59 C 11.3 km/h
1786 01-12-2020 04:45:00 1.8 C 5.21 g/m*3 -1.09 C 9.7 km/h
1787 01-12-2020 04:50:00 1.8 C 5.21 g/m*3 -0.65 C 8.1 km/h
1788 01-12-2020 04:55:00 1.8 C 5.21 g/m*3 -1.09 C 9.7 km/h
1789 01-12-2020 05:00:00 1.8 C 5.21 g/m*3 1.8 C 3.2 km/h
1790 01-12-2020 05:05:00 1.8 C 5.21 g/m*3 -0.1 C 6.4 km/h
1791 01-12-2020 05:10:00 1.8 C 5.21 g/m*3 1.8 C 4.8 km/h
1792 01-12-2020 05:15:00 1.8 C 5.21 g/m*3 1.8 C 4.8 km/h
1793 01-12-2020 05:20:00 1.8 C 5.21 g/m*3 -1.47 C 11.3 km/h
1794 01-12-2020 05:25:00 1.8 C 5.21 g/m*3 -1.09 C 9.7 km/h
1795 01-12-2020 05:30:00 1.8 C 5.21 g/m*3 -0.1 C 6.4 km/h
1796 01-12-2020 05:35:00 1.8 C 5.21 g/m*3 -1.09 C 9.7 km/h
1797 01-12-2020 05:40:00 1.8 C 5.21 g/m*3 -0.65 C 8.1 km/h
1798 01-12-2020 05:45:00 1.8 C 5.21 g/m*3 -1.47 C 11.3 km/h
1799 01-12-2020 05:50:00 1.9 C 5.24 g/m*3 0.01 C 6.4 km/h
1800 01-12-2020 05:55:00 1.9 C 5.24 g/m*3 1.9 C 4.8 km/h
Sensor: Nr:Datum:Temp:Abs-Feuchte:Windchill:Wind:
Aussen-T/F 1801 01-12-2020 06:00:00 1.9 C 5.24 g/m*3 -0.54 C 8.1 km/h
1802 01-12-2020 06:05:00 1.9 C 5.24 g/m*3 -1.68 C 12.9 km/h
1803 01-12-2020 06:10:00 1.9 C 5.24 g/m*3 0.01 C 6.4 km/h
1804 01-12-2020 06:15:00 1.9 C 5.24 g/m*3 -0.54 C 8.1 km/h
1805 01-12-2020 06:20:00 1.9 C 5.24 g/m*3 -1.35 C 11.3 km/h
1806 01-12-2020 06:25:00 1.9 C 5.24 g/m*3 -0.54 C 8.1 km/h
1807 01-12-2020 06:30:00 2 C 5.28 g/m*3 -1.56 C 12.9 km/h
1808 01-12-2020 06:35:00 2.1 C 5.31 g/m*3 0.24 C 6.4 km/h
1809 01-12-2020 06:40:00 2.1 C 5.31 g/m*3 2.1 C 4.8 km/h
1810 01-12-2020 06:45:00 2.1 C 5.31 g/m*3 0.24 C 6.4 km/h
1811 01-12-2020 06:50:00 2.1 C 5.31 g/m*3 2.1 C 3.2 km/h
1812 01-12-2020 06:55:00 2.1 C 5.31 g/m*3 2.1 C 4.8 km/h
1813 01-12-2020 07:00:00 2.1 C 5.31 g/m*3 2.1 C 4.8 km/h
1814 01-12-2020 07:05:00 2.1 C 5.31 g/m*3 -0.3 C 8.1 km/h
1815 01-12-2020 07:10:00 2.2 C 5.41 g/m*3 2.2 C 3.2 km/h
1816 01-12-2020 07:15:00 2.2 C 5.35 g/m*3 2.2 C 3.2 km/h
1817 01-12-2020 07:20:00 2.1 C 5.31 g/m*3 2.1 C 0 km/h
1818 01-12-2020 07:25:00 2.1 C 5.31 g/m*3 2.1 C 4.8 km/h
1819 01-12-2020 07:30:00 2.1 C 5.31 g/m*3 2.1 C 0 km/h
1820 01-12-2020 07:35:00 2.1 C 5.31 g/m*3 2.1 C 1.6 km/h
1821 01-12-2020 07:40:00 2.1 C 5.31 g/m*3 2.1 C 0 km/h
1822 01-12-2020 07:45:00 2.1 C 5.31 g/m*3 2.1 C 4.8 km/h
1823 01-12-2020 07:50:00 2.1 C 5.31 g/m*3 2.1 C 3.2 km/h
1824 01-12-2020 07:55:00 2.1 C 5.31 g/m*3 2.1 C 3.2 km/h
1825 01-12-2020 08:00:00 2.1 C 5.37 g/m*3 2.1 C 3.2 km/h
Sensor: Nr:Datum:Temp:Abs-Feuchte:Windchill:Wind:
Aussen-T/F 1826 01-12-2020 08:05:00 2.1 C 5.37 g/m*3 2.1 C 1.6 km/h
1827 01-12-2020 08:10:00 2.1 C 5.37 g/m*3 2.1 C 1.6 km/h
1828 01-12-2020 08:15:00 2.1 C 5.37 g/m*3 2.1 C 0 km/h
1829 01-12-2020 08:20:00 2.1 C 5.37 g/m*3 2.1 C 0 km/h
1830 01-12-2020 08:25:00 2.1 C 5.37 g/m*3 2.1 C 0 km/h
1831 01-12-2020 08:30:00 2.1 C 5.37 g/m*3 2.1 C 0 km/h
1832 01-12-2020 08:35:00 2.1 C 5.37 g/m*3 2.1 C 0 km/h
1833 01-12-2020 08:40:00 2.1 C 5.37 g/m*3 2.1 C 1.6 km/h
1834 01-12-2020 08:45:00 2.2 C 5.41 g/m*3 0.36 C 6.4 km/h
1835 01-12-2020 08:50:00 2.2 C 5.41 g/m*3 2.2 C 0 km/h
1836 01-12-2020 08:55:00 2.2 C 5.41 g/m*3 -0.18 C 8.1 km/h
1837 01-12-2020 09:00:00 2.3 C 5.44 g/m*3 0.47 C 6.4 km/h
1838 01-12-2020 09:05:00 2.3 C 5.44 g/m*3 2.3 C 1.6 km/h
1839 01-12-2020 09:10:00 2.3 C 5.44 g/m*3 2.3 C 1.6 km/h
1840 01-12-2020 09:15:00 2.3 C 5.44 g/m*3 2.3 C 0 km/h
1841 01-12-2020 09:20:00 2.3 C 5.44 g/m*3 2.3 C 0 km/h
1842 01-12-2020 09:25:00 2.3 C 5.44 g/m*3 2.3 C 0 km/h
1843 01-12-2020 09:30:00 2.3 C 5.44 g/m*3 2.3 C 1.6 km/h
1844 01-12-2020 09:35:00 2.3 C 5.44 g/m*3 2.3 C 0 km/h
1845 01-12-2020 09:40:00 2.3 C 5.44 g/m*3 2.3 C 0 km/h
1846 01-12-2020 09:45:00 2.4 C 5.48 g/m*3 2.4 C 0 km/h
1847 01-12-2020 09:50:00 2.4 C 5.48 g/m*3 2.4 C 0 km/h
1848 01-12-2020 09:55:00 2.4 C 5.48 g/m*3 2.4 C 1.6 km/h
1849 01-12-2020 10:00:00 2.4 C 5.48 g/m*3 2.4 C 3.2 km/h
1850 01-12-2020 10:05:00 2.4 C 5.48 g/m*3 2.4 C 1.6 km/h
Sensor: Nr:Datum:Temp:Abs-Feuchte:Windchill:Wind:
Aussen-T/F 1851 01-12-2020 10:10:00 2.6 C 5.56 g/m*3 2.6 C 0 km/h
1852 01-12-2020 10:15:00 2.6 C 5.56 g/m*3 2.6 C 0 km/h
1853 01-12-2020 10:20:00 2.7 C 5.59 g/m*3 2.7 C 0 km/h
1854 01-12-2020 10:25:00 2.7 C 5.59 g/m*3 2.7 C 0 km/h
1855 01-12-2020 10:30:00 2.8 C 5.63 g/m*3 2.8 C 0 km/h
1856 01-12-2020 10:35:00 2.8 C 5.63 g/m*3 2.8 C 0 km/h
1857 01-12-2020 10:40:00 2.8 C 5.63 g/m*3 2.8 C 0 km/h
1858 01-12-2020 10:45:00 2.9 C 5.67 g/m*3 2.9 C 0 km/h
1859 01-12-2020 10:50:00 2.9 C 5.67 g/m*3 2.9 C 0 km/h
1860 01-12-2020 10:55:00 2.9 C 5.67 g/m*3 2.9 C 0 km/h
1861 01-12-2020 11:00:00 3 C 5.71 g/m*3 3 C 0 km/h
1862 01-12-2020 11:05:00 3 C 5.71 g/m*3 3 C 0 km/h
1863 01-12-2020 11:10:00 3 C 5.71 g/m*3 3 C 0 km/h
1864 01-12-2020 11:15:00 3 C 5.71 g/m*3 3 C 0 km/h
1865 01-12-2020 11:20:00 3 C 5.71 g/m*3 3 C 0 km/h
1866 01-12-2020 11:25:00 3.1 C 5.75 g/m*3 3.1 C 0 km/h
1867 01-12-2020 11:30:00 3.1 C 5.75 g/m*3 3.1 C 0 km/h
1868 01-12-2020 11:35:00 3.1 C 5.75 g/m*3 3.1 C 0 km/h
1869 01-12-2020 11:40:00 3.1 C 5.75 g/m*3 3.1 C 1.6 km/h
1870 01-12-2020 11:45:00 3.1 C 5.75 g/m*3 3.1 C 0 km/h
1871 01-12-2020 11:50:00 3.1 C 5.75 g/m*3 3.1 C 0 km/h
1872 01-12-2020 11:55:00 3.2 C 5.79 g/m*3 3.2 C 0 km/h
1873 01-12-2020 12:00:00 3.2 C 5.79 g/m*3 3.2 C 1.6 km/h
1874 01-12-2020 12:05:00 3.3 C 5.82 g/m*3 3.3 C 0 km/h
1875 01-12-2020 12:10:00 3.3 C 5.82 g/m*3 3.3 C 0 km/h
Sensor: Nr:Datum:Temp:Abs-Feuchte:Windchill:Wind:
Aussen-T/F 1876 01-12-2020 12:15:00 3.3 C 5.82 g/m*3 3.3 C 0 km/h
1877 01-12-2020 12:20:00 3.3 C 5.82 g/m*3 3.3 C 0 km/h
1878 01-12-2020 12:25:00 3.4 C 5.86 g/m*3 3.4 C 0 km/h
1879 01-12-2020 12:30:00 3.4 C 5.86 g/m*3 3.4 C 0 km/h
1880 01-12-2020 12:35:00 3.5 C 5.96 g/m*3 3.5 C 0 km/h
1881 01-12-2020 12:40:00 3.6 C 6 g/m*3 3.6 C 0 km/h
1882 01-12-2020 12:45:00 3.7 C 6.04 g/m*3 3.7 C 0 km/h
1883 01-12-2020 12:50:00 3.8 C 6.09 g/m*3 3.8 C 0 km/h
1884 01-12-2020 12:55:00 3.8 C 6.09 g/m*3 3.8 C 3.2 km/h
1885 01-12-2020 13:00:00 3.8 C 6.09 g/m*3 3.8 C 0 km/h
1886 01-12-2020 13:05:00 3.8 C 6.09 g/m*3 3.8 C 0 km/h
1887 01-12-2020 13:10:00 3.8 C 6.09 g/m*3 3.8 C 0 km/h
1888 01-12-2020 13:15:00 3.9 C 6.06 g/m*3 3.9 C 0 km/h
1889 01-12-2020 13:20:00 3.9 C 6.06 g/m*3 3.9 C 0 km/h
1890 01-12-2020 13:25:00 4 C 6.1 g/m*3 4 C 0 km/h
1891 01-12-2020 13:30:00 4.1 C 6.21 g/m*3 4.1 C 0 km/h
1892 01-12-2020 13:35:00 4.1 C 6.21 g/m*3 4.1 C 0 km/h
1893 01-12-2020 13:40:00 4.1 C 6.21 g/m*3 4.1 C 0 km/h
1894 01-12-2020 13:45:00 4.2 C 6.19 g/m*3 4.2 C 0 km/h
1895 01-12-2020 13:50:00 4.2 C 6.19 g/m*3 4.2 C 0 km/h
1896 01-12-2020 13:55:00 4.2 C 6.19 g/m*3 4.2 C 0 km/h
1897 01-12-2020 14:00:00 4.3 C 6.23 g/m*3 4.3 C 3.2 km/h
1898 01-12-2020 14:05:00 4.3 C 6.23 g/m*3 4.3 C 0 km/h
1899 01-12-2020 14:10:00 4.3 C 6.23 g/m*3 4.3 C 0 km/h
1900 01-12-2020 14:15:00 4.3 C 6.23 g/m*3 4.3 C 0 km/h
Sensor: Nr:Datum:Temp:Abs-Feuchte:Windchill:Wind:
Aussen-T/F 1901 01-12-2020 14:20:00 4.3 C 6.23 g/m*3 4.3 C 0 km/h
1902 01-12-2020 14:25:00 4.3 C 6.23 g/m*3 4.3 C 0 km/h
1903 01-12-2020 14:30:00 4.3 C 6.23 g/m*3 4.3 C 0 km/h
1904 01-12-2020 14:35:00 4.3 C 6.23 g/m*3 4.3 C 0 km/h
1905 01-12-2020 14:40:00 4.3 C 6.23 g/m*3 4.3 C 0 km/h
1906 01-12-2020 14:45:00 4.2 C 6.19 g/m*3 4.2 C 0 km/h
1907 01-12-2020 14:50:00 4.2 C 6.19 g/m*3 4.2 C 1.6 km/h
1908 01-12-2020 14:55:00 4.1 C 6.14 g/m*3 4.1 C 0 km/h
1909 01-12-2020 15:00:00 4.1 C 6.14 g/m*3 4.1 C 0 km/h
1910 01-12-2020 15:05:00 4.1 C 6.14 g/m*3 4.1 C 0 km/h
1911 01-12-2020 15:10:00 4.1 C 6.14 g/m*3 4.1 C 0 km/h
1912 01-12-2020 15:15:00 4 C 6.1 g/m*3 4 C 0 km/h
1913 01-12-2020 15:20:00 4 C 6.1 g/m*3 4 C 0 km/h
1914 01-12-2020 15:25:00 3.9 C 6.06 g/m*3 3.9 C 0 km/h
1915 01-12-2020 15:30:00 3.9 C 6.06 g/m*3 3.9 C 0 km/h
1916 01-12-2020 15:35:00 3.8 C 6.02 g/m*3 3.8 C 0 km/h
1917 01-12-2020 15:40:00 3.8 C 6.02 g/m*3 3.8 C 0 km/h
1918 01-12-2020 15:45:00 3.8 C 6.02 g/m*3 3.8 C 0 km/h
1919 01-12-2020 15:50:00 3.8 C 6.02 g/m*3 3.8 C 0 km/h
1920 01-12-2020 15:55:00 3.7 C 5.98 g/m*3 3.7 C 0 km/h
1921 01-12-2020 16:00:00 3.7 C 5.98 g/m*3 3.7 C 0 km/h
1922 01-12-2020 16:05:00 3.7 C 5.98 g/m*3 3.7 C 0 km/h
1923 01-12-2020 16:10:00 3.7 C 5.98 g/m*3 3.7 C 0 km/h
1924 01-12-2020 16:15:00 3.7 C 5.98 g/m*3 3.7 C 0 km/h
1925 01-12-2020 16:20:00 3.7 C 5.98 g/m*3 3.7 C 0 km/h
Sensor: Nr:Datum:Temp:Abs-Feuchte:Windchill:Wind:
Aussen-T/F 1926 01-12-2020 16:25:00 3.6 C 5.94 g/m*3 3.6 C 0 km/h
1927 01-12-2020 16:30:00 3.6 C 5.94 g/m*3 3.6 C 0 km/h
1928 01-12-2020 16:35:00 3.6 C 5.94 g/m*3 3.6 C 0 km/h
1929 01-12-2020 16:40:00 3.5 C 5.9 g/m*3 3.5 C 0 km/h
1930 01-12-2020 16:45:00 3.5 C 5.9 g/m*3 3.5 C 0 km/h
1931 01-12-2020 16:50:00 3.5 C 5.9 g/m*3 3.5 C 0 km/h
1932 01-12-2020 16:55:00 3.5 C 5.9 g/m*3 3.5 C 0 km/h
1933 01-12-2020 17:00:00 3.5 C 5.9 g/m*3 3.5 C 0 km/h
1934 01-12-2020 17:05:00 3.5 C 5.9 g/m*3 3.5 C 1.6 km/h
1935 01-12-2020 17:10:00 3.5 C 5.9 g/m*3 3.5 C 0 km/h
1936 01-12-2020 17:15:00 3.5 C 5.9 g/m*3 3.5 C 0 km/h
1937 01-12-2020 17:20:00 3.5 C 5.9 g/m*3 3.5 C 0 km/h
1938 01-12-2020 17:25:00 3.5 C 5.9 g/m*3 3.5 C 0 km/h
1939 01-12-2020 17:30:00 3.5 C 5.9 g/m*3 3.5 C 0 km/h
1940 01-12-2020 17:35:00 3.6 C 5.94 g/m*3 3.6 C 0 km/h
1941 01-12-2020 17:40:00 3.6 C 5.94 g/m*3 3.6 C 0 km/h
1942 01-12-2020 17:45:00 3.6 C 5.94 g/m*3 3.6 C 0 km/h
1943 01-12-2020 17:50:00 3.6 C 5.94 g/m*3 3.6 C 0 km/h
1944 01-12-2020 17:55:00 3.6 C 5.94 g/m*3 3.6 C 0 km/h
1945 01-12-2020 18:00:00 3.6 C 5.94 g/m*3 3.6 C 0 km/h
1946 01-12-2020 18:05:00 3.5 C 5.9 g/m*3 3.5 C 0 km/h
1947 01-12-2020 18:10:00 3.5 C 5.9 g/m*3 3.5 C 0 km/h
1948 01-12-2020 18:15:00 3.5 C 5.9 g/m*3 3.5 C 0 km/h
1949 01-12-2020 18:20:00 3.6 C 5.94 g/m*3 3.6 C 0 km/h
1950 01-12-2020 18:25:00 3.6 C 5.94 g/m*3 3.6 C 0 km/h
Sensor: Nr:Datum:Temp:Abs-Feuchte:Windchill:Wind:
Aussen-T/F 1951 01-12-2020 18:30:00 3.6 C 5.94 g/m*3 3.6 C 0 km/h
1952 01-12-2020 18:35:00 3.6 C 5.94 g/m*3 3.6 C 1.6 km/h
1953 01-12-2020 18:40:00 3.6 C 5.94 g/m*3 3.6 C 0 km/h
1954 01-12-2020 18:45:00 3.6 C 5.94 g/m*3 3.6 C 0 km/h
1955 01-12-2020 18:50:00 3.6 C 5.94 g/m*3 3.6 C 0 km/h
1956 01-12-2020 18:55:00 3.6 C 5.94 g/m*3 3.6 C 0 km/h
1957 01-12-2020 19:00:00 3.6 C 5.94 g/m*3 3.6 C 0 km/h
1958 01-12-2020 19:05:00 3.6 C 5.94 g/m*3 3.6 C 0 km/h
1959 01-12-2020 19:10:00 3.6 C 5.94 g/m*3 3.6 C 0 km/h
1960 01-12-2020 19:15:00 3.6 C 5.94 g/m*3 3.6 C 0 km/h
1961 01-12-2020 19:20:00 3.6 C 5.94 g/m*3 3.6 C 0 km/h
1962 01-12-2020 19:25:00 3.6 C 5.94 g/m*3 3.6 C 0 km/h
1963 01-12-2020 19:30:00 3.6 C 5.94 g/m*3 3.6 C 0 km/h
1964 01-12-2020 19:35:00 3.6 C 5.94 g/m*3 3.6 C 0 km/h
1965 01-12-2020 19:40:00 3.6 C 5.94 g/m*3 3.6 C 0 km/h
1966 01-12-2020 19:45:00 3.6 C 5.94 g/m*3 3.6 C 0 km/h
1967 01-12-2020 19:50:00 3.6 C 5.94 g/m*3 3.6 C 0 km/h
1968 01-12-2020 19:55:00 3.6 C 5.94 g/m*3 3.6 C 0 km/h
1969 01-12-2020 20:00:00 3.6 C 5.94 g/m*3 3.6 C 0 km/h
1970 01-12-2020 20:05:00 3.6 C 5.94 g/m*3 3.6 C 0 km/h
1971 01-12-2020 20:10:00 3.6 C 5.94 g/m*3 3.6 C 0 km/h
1972 01-12-2020 20:15:00 3.7 C 5.98 g/m*3 3.7 C 0 km/h
1973 01-12-2020 20:20:00 3.7 C 5.98 g/m*3 3.7 C 0 km/h
1974 01-12-2020 20:25:00 3.7 C 5.98 g/m*3 3.7 C 0 km/h
1975 01-12-2020 20:30:00 3.7 C 5.98 g/m*3 3.7 C 0 km/h
Sensor: Nr:Datum:Temp:Abs-Feuchte:Windchill:Wind:
Aussen-T/F 1976 01-12-2020 20:35:00 3.7 C 5.98 g/m*3 3.7 C 0 km/h
1977 01-12-2020 20:40:00 3.7 C 5.98 g/m*3 3.7 C 0 km/h
1978 01-12-2020 20:45:00 3.7 C 5.98 g/m*3 3.7 C 0 km/h
1979 01-12-2020 20:50:00 3.7 C 5.98 g/m*3 3.7 C 0 km/h
1980 01-12-2020 20:55:00 3.7 C 5.98 g/m*3 3.7 C 0 km/h
1981 01-12-2020 21:00:00 3.7 C 5.98 g/m*3 3.7 C 0 km/h
1982 01-12-2020 21:05:00 3.6 C 5.94 g/m*3 3.6 C 0 km/h
1983 01-12-2020 21:10:00 3.6 C 6 g/m*3 3.6 C 0 km/h
1984 01-12-2020 21:15:00 3.6 C 6 g/m*3 3.6 C 0 km/h
1985 01-12-2020 21:20:00 3.6 C 6 g/m*3 3.6 C 0 km/h
1986 01-12-2020 21:25:00 3.6 C 6 g/m*3 3.6 C 0 km/h
1987 01-12-2020 21:30:00 3.6 C 6 g/m*3 3.6 C 0 km/h
1988 01-12-2020 21:35:00 3.5 C 5.96 g/m*3 3.5 C 0 km/h
1989 01-12-2020 21:40:00 3.5 C 5.96 g/m*3 3.5 C 0 km/h
1990 01-12-2020 21:45:00 3.5 C 5.96 g/m*3 3.5 C 0 km/h
1991 01-12-2020 21:50:00 3.4 C 5.92 g/m*3 3.4 C 0 km/h
1992 01-12-2020 21:55:00 3.4 C 5.92 g/m*3 3.4 C 4.8 km/h
1993 01-12-2020 22:00:00 3.4 C 5.92 g/m*3 3.4 C 3.2 km/h
1994 01-12-2020 22:05:00 3.5 C 5.96 g/m*3 3.5 C 1.6 km/h
1995 01-12-2020 22:10:00 3.5 C 5.96 g/m*3 3.5 C 0 km/h
1996 01-12-2020 22:15:00 3.4 C 5.92 g/m*3 3.4 C 0 km/h
1997 01-12-2020 22:20:00 3.4 C 5.92 g/m*3 3.4 C 0 km/h
1998 01-12-2020 22:25:00 3.4 C 5.92 g/m*3 3.4 C 0 km/h
1999 01-12-2020 22:30:00 3.4 C 5.86 g/m*3 3.4 C 0 km/h
2000 01-12-2020 22:35:00 3.4 C 5.86 g/m*3 3.4 C 0 km/h
Sensor: Nr:Datum:Temp:Abs-Feuchte:Windchill:Wind:
Aussen-T/F 2001 01-12-2020 22:40:00 3.4 C 5.86 g/m*3 3.4 C 0 km/h
2002 01-12-2020 22:45:00 3.3 C 5.82 g/m*3 3.3 C 0 km/h
2003 01-12-2020 22:50:00 3.3 C 5.82 g/m*3 3.3 C 0 km/h
2004 01-12-2020 22:55:00 3.3 C 5.82 g/m*3 3.3 C 0 km/h
2005 01-12-2020 23:00:00 3.3 C 5.82 g/m*3 3.3 C 0 km/h
2006 01-12-2020 23:05:00 3.3 C 5.82 g/m*3 3.3 C 0 km/h
2007 01-12-2020 23:10:00 3.3 C 5.82 g/m*3 3.3 C 0 km/h
2008 01-12-2020 23:15:00 3.3 C 5.82 g/m*3 3.3 C 0 km/h
2009 01-12-2020 23:20:00 3.3 C 5.88 g/m*3 3.3 C 0 km/h
2010 01-12-2020 23:25:00 3.2 C 5.85 g/m*3 3.2 C 0 km/h
2011 01-12-2020 23:30:00 3.2 C 5.85 g/m*3 3.2 C 0 km/h
2012 01-12-2020 23:35:00 3.2 C 5.85 g/m*3 3.2 C 0 km/h
2013 01-12-2020 23:40:00 3.2 C 5.85 g/m*3 3.2 C 0 km/h
2014 01-12-2020 23:45:00 3.2 C 5.85 g/m*3 3.2 C 0 km/h
2015 01-12-2020 23:50:00 3.2 C 5.85 g/m*3 3.2 C 0 km/h
2016 01-12-2020 23:55:00 3.2 C 5.85 g/m*3 3.2 C 0 km/h

Legende:
   Min
   Max


Maximal/Minimal-Werte vom 25.11.2020 - 01.12.2020

Sensor Min Max Avg
Temp
(Aussen-T/F)
-5.8 °C
30-11-2020  08:05:00
6.7 °C
25-11-2020  14:10:00
2.43 °C
Abs-Feuchte
(Aussen-T/F)
3.02 g/m*3
30-11-2020  08:05:00
7.14 g/m*3
25-11-2020  14:10:00
5.36 g/m*3
Windchill
(Aussen-T/F)
-5.8 C
30-11-2020  08:05:00
6.7 C
25-11-2020  14:10:00
2.06 C

Die Daten stammen von einer Davis Vantage Pro 2 Wetter-Station und werden unter Linux mit der Software wview2wettercgi und aufbereitet. Alle Angaben erfolgen ohne Gewähr für ihre Vollständigkeit oder Richtigkeit.
Kontakt: Rainer Krienke krienke@uni-koblenz.de . Meine Webseiten an der Uni Koblenz oder privat.
Version: $Revision: 0.78 $